﻿<?xml version="1.0" encoding="UTF-8" standalone="no" ?>
<gpx xmlns="http://www.topografix.com/GPX/1/1" creator="CompeGPS" version="1.1" xmlns:xsi="http://www.w3.org/2001/XMLSchema-instance" xsi:schemaLocation="http://www.topografix.com/GPX/1/1 http://www.topografix.com/GPX/1/1/gpx.xsd http://www.garmin.com/xmlschemas/GpxExtensions/v3 http://www.garmin.com/xmlschemas/GpxExtensionsv3.xsd http://www.garmin.com/xmlschemas/TrackPointExtension/v1 http://www.garmin.com/xmlschemas/TrackPointExtensionv1.xsd" xmlns:gpxtpx="http://www.garmin.com/xmlschemas/TrackPointExtension/v1">
  <metadata>
    <link href="http://www.compegps.com">
      <text>CompeGPS TEAM, SL</text>
    </link>
    <time>2018-09-17T20:18:53Z</time>
    <bounds maxlat="42.790939" maxlon="0.573809" minlat="42.755698" minlon="0.536969"/>
  </metadata>
  <trk>
    <name>cecire</name>
    <userMyTwoNav></userMyTwoNav>
    <serialNumber></serialNumber>
    <trkseg>
      <trkpt lat="42.784442" lon="0.564316">
        <ele>1053.4</ele>
        <time>2018-09-16T07:52:09Z</time>
      </trkpt>
      <trkpt lat="42.784328" lon="0.564316">
        <ele>1054.0</ele>
        <time>2018-09-16T07:52:23Z</time>
      </trkpt>
      <trkpt lat="42.784218" lon="0.564314">
        <ele>1053.5</ele>
        <time>2018-09-16T07:52:36Z</time>
      </trkpt>
      <trkpt lat="42.784100" lon="0.564317">
        <ele>1053.7</ele>
        <time>2018-09-16T07:52:46Z</time>
      </trkpt>
      <trkpt lat="42.783992" lon="0.564316">
        <ele>1053.6</ele>
        <time>2018-09-16T07:52:58Z</time>
      </trkpt>
      <trkpt lat="42.783899" lon="0.564308">
        <ele>1053.3</ele>
        <time>2018-09-16T07:53:09Z</time>
      </trkpt>
      <trkpt lat="42.783793" lon="0.564324">
        <ele>1053.5</ele>
        <time>2018-09-16T07:53:19Z</time>
      </trkpt>
      <trkpt lat="42.783700" lon="0.564316">
        <ele>1053.3</ele>
        <time>2018-09-16T07:53:28Z</time>
      </trkpt>
      <trkpt lat="42.783609" lon="0.564306">
        <ele>1053.5</ele>
        <time>2018-09-16T07:53:39Z</time>
      </trkpt>
      <trkpt lat="42.783514" lon="0.564323">
        <ele>1054.0</ele>
        <time>2018-09-16T07:53:51Z</time>
      </trkpt>
      <trkpt lat="42.783446" lon="0.564265">
        <ele>1053.7</ele>
        <time>2018-09-16T07:54:08Z</time>
      </trkpt>
      <trkpt lat="42.783335" lon="0.564257">
        <ele>1054.3</ele>
        <time>2018-09-16T07:54:20Z</time>
      </trkpt>
      <trkpt lat="42.783218" lon="0.564209">
        <ele>1055.0</ele>
        <time>2018-09-16T07:54:31Z</time>
      </trkpt>
      <trkpt lat="42.783120" lon="0.564169">
        <ele>1055.9</ele>
        <time>2018-09-16T07:54:42Z</time>
      </trkpt>
      <trkpt lat="42.783019" lon="0.564108">
        <ele>1056.5</ele>
        <time>2018-09-16T07:54:54Z</time>
      </trkpt>
      <trkpt lat="42.782921" lon="0.564052">
        <ele>1056.7</ele>
        <time>2018-09-16T07:55:06Z</time>
      </trkpt>
      <trkpt lat="42.782802" lon="0.564000">
        <ele>1056.3</ele>
        <time>2018-09-16T07:55:19Z</time>
      </trkpt>
      <trkpt lat="42.782703" lon="0.563991">
        <ele>1055.8</ele>
        <time>2018-09-16T07:55:29Z</time>
      </trkpt>
      <trkpt lat="42.782586" lon="0.563988">
        <ele>1055.5</ele>
        <time>2018-09-16T07:55:40Z</time>
      </trkpt>
      <trkpt lat="42.782465" lon="0.563984">
        <ele>1055.4</ele>
        <time>2018-09-16T07:55:52Z</time>
      </trkpt>
      <trkpt lat="42.782320" lon="0.563958">
        <ele>1055.4</ele>
        <time>2018-09-16T07:56:03Z</time>
      </trkpt>
      <trkpt lat="42.782205" lon="0.564003">
        <ele>1055.8</ele>
        <time>2018-09-16T07:56:14Z</time>
      </trkpt>
      <trkpt lat="42.782137" lon="0.564313">
        <ele>1054.7</ele>
        <time>2018-09-16T07:56:48Z</time>
      </trkpt>
      <trkpt lat="42.782118" lon="0.564679">
        <ele>1050.4</ele>
        <time>2018-09-16T07:57:27Z</time>
      </trkpt>
      <trkpt lat="42.781868" lon="0.564932">
        <ele>1050.3</ele>
        <time>2018-09-16T07:58:11Z</time>
      </trkpt>
      <trkpt lat="42.781606" lon="0.565228">
        <ele>1052.3</ele>
        <time>2018-09-16T07:59:00Z</time>
      </trkpt>
      <trkpt lat="42.781465" lon="0.565612">
        <ele>1054.0</ele>
        <time>2018-09-16T07:59:45Z</time>
      </trkpt>
      <trkpt lat="42.781260" lon="0.566144">
        <ele>1058.1</ele>
        <time>2018-09-16T08:00:49Z</time>
      </trkpt>
      <trkpt lat="42.781171" lon="0.566754">
        <ele>1060.3</ele>
        <time>2018-09-16T08:01:55Z</time>
      </trkpt>
      <trkpt lat="42.781094" lon="0.567085">
        <ele>1063.3</ele>
        <time>2018-09-16T08:02:31Z</time>
      </trkpt>
      <trkpt lat="42.781081" lon="0.567451">
        <ele>1064.7</ele>
        <time>2018-09-16T08:03:10Z</time>
      </trkpt>
      <trkpt lat="42.781164" lon="0.567748">
        <ele>1066.2</ele>
        <time>2018-09-16T08:03:43Z</time>
      </trkpt>
      <trkpt lat="42.781203" lon="0.568036">
        <ele>1069.4</ele>
        <time>2018-09-16T08:04:15Z</time>
      </trkpt>
      <trkpt lat="42.780947" lon="0.568262">
        <ele>1080.4</ele>
        <time>2018-09-16T08:05:01Z</time>
      </trkpt>
      <trkpt lat="42.780851" lon="0.568532">
        <ele>1089.1</ele>
        <time>2018-09-16T08:05:34Z</time>
      </trkpt>
      <trkpt lat="42.781062" lon="0.568654">
        <ele>1085.6</ele>
        <time>2018-09-16T08:06:07Z</time>
      </trkpt>
      <trkpt lat="42.781260" lon="0.568855">
        <ele>1084.7</ele>
        <time>2018-09-16T08:06:43Z</time>
      </trkpt>
      <trkpt lat="42.781427" lon="0.568986">
        <ele>1082.8</ele>
        <time>2018-09-16T08:07:11Z</time>
      </trkpt>
      <trkpt lat="42.781772" lon="0.569526">
        <ele>1083.7</ele>
        <time>2018-09-16T08:08:26Z</time>
      </trkpt>
      <trkpt lat="42.781460" lon="0.569326">
        <ele>1090.3</ele>
        <time>2018-09-16T08:09:16Z</time>
      </trkpt>
      <trkpt lat="42.781349" lon="0.569203">
        <ele>1090.2</ele>
        <time>2018-09-16T08:09:37Z</time>
      </trkpt>
      <trkpt lat="42.781209" lon="0.569099">
        <ele>1091.8</ele>
        <time>2018-09-16T08:10:00Z</time>
      </trkpt>
      <trkpt lat="42.780928" lon="0.569099">
        <ele>1100.3</ele>
        <time>2018-09-16T08:10:42Z</time>
      </trkpt>
      <trkpt lat="42.780621" lon="0.569239">
        <ele>1111.9</ele>
        <time>2018-09-16T08:11:30Z</time>
      </trkpt>
      <trkpt lat="42.780365" lon="0.569457">
        <ele>1125.9</ele>
        <time>2018-09-16T08:12:17Z</time>
      </trkpt>
      <trkpt lat="42.780147" lon="0.569736">
        <ele>1142.0</ele>
        <time>2018-09-16T08:13:05Z</time>
      </trkpt>
      <trkpt lat="42.779866" lon="0.570023">
        <ele>1158.5</ele>
        <time>2018-09-16T08:14:00Z</time>
      </trkpt>
      <trkpt lat="42.779590" lon="0.570276">
        <ele>1170.1</ele>
        <time>2018-09-16T08:14:50Z</time>
      </trkpt>
      <trkpt lat="42.779328" lon="0.570259">
        <ele>1172.5</ele>
        <time>2018-09-16T08:15:28Z</time>
      </trkpt>
      <trkpt lat="42.779206" lon="0.570137">
        <ele>1168.8</ele>
        <time>2018-09-16T08:15:50Z</time>
      </trkpt>
      <trkpt lat="42.779174" lon="0.569805">
        <ele>1157.3</ele>
        <time>2018-09-16T08:16:28Z</time>
      </trkpt>
      <trkpt lat="42.779104" lon="0.569430">
        <ele>1147.7</ele>
        <time>2018-09-16T08:17:10Z</time>
      </trkpt>
      <trkpt lat="42.779014" lon="0.569134">
        <ele>1144.1</ele>
        <time>2018-09-16T08:17:45Z</time>
      </trkpt>
      <trkpt lat="42.778855" lon="0.568960">
        <ele>1151.4</ele>
        <time>2018-09-16T08:18:15Z</time>
      </trkpt>
      <trkpt lat="42.778707" lon="0.568454">
        <ele>1153.5</ele>
        <time>2018-09-16T08:19:13Z</time>
      </trkpt>
      <trkpt lat="42.778534" lon="0.568428">
        <ele>1162.0</ele>
        <time>2018-09-16T08:19:40Z</time>
      </trkpt>
      <trkpt lat="42.778330" lon="0.568559">
        <ele>1174.3</ele>
        <time>2018-09-16T08:20:16Z</time>
      </trkpt>
      <trkpt lat="42.778061" lon="0.568855">
        <ele>1189.7</ele>
        <time>2018-09-16T08:21:10Z</time>
      </trkpt>
      <trkpt lat="42.777869" lon="0.569064">
        <ele>1202.0</ele>
        <time>2018-09-16T08:21:48Z</time>
      </trkpt>
      <trkpt lat="42.777613" lon="0.569378">
        <ele>1219.2</ele>
        <time>2018-09-16T08:22:42Z</time>
      </trkpt>
      <trkpt lat="42.777312" lon="0.569831">
        <ele>1238.2</ele>
        <time>2018-09-16T08:23:51Z</time>
      </trkpt>
      <trkpt lat="42.777127" lon="0.569797">
        <ele>1242.7</ele>
        <time>2018-09-16T08:24:19Z</time>
      </trkpt>
      <trkpt lat="42.777197" lon="0.569273">
        <ele>1230.0</ele>
        <time>2018-09-16T08:25:17Z</time>
      </trkpt>
      <trkpt lat="42.777159" lon="0.568855">
        <ele>1221.2</ele>
        <time>2018-09-16T08:26:03Z</time>
      </trkpt>
      <trkpt lat="42.776973" lon="0.568768">
        <ele>1223.5</ele>
        <time>2018-09-16T08:26:31Z</time>
      </trkpt>
      <trkpt lat="42.776839" lon="0.568846">
        <ele>1228.5</ele>
        <time>2018-09-16T08:26:53Z</time>
      </trkpt>
      <trkpt lat="42.776628" lon="0.569116">
        <ele>1240.3</ele>
        <time>2018-09-16T08:27:38Z</time>
      </trkpt>
      <trkpt lat="42.776333" lon="0.569291">
        <ele>1255.6</ele>
        <time>2018-09-16T08:28:28Z</time>
      </trkpt>
      <trkpt lat="42.776231" lon="0.568951">
        <ele>1251.8</ele>
        <time>2018-09-16T08:29:07Z</time>
      </trkpt>
      <trkpt lat="42.776000" lon="0.568742">
        <ele>1256.1</ele>
        <time>2018-09-16T08:29:47Z</time>
      </trkpt>
      <trkpt lat="42.775674" lon="0.568567">
        <ele>1266.0</ele>
        <time>2018-09-16T08:30:39Z</time>
      </trkpt>
      <trkpt lat="42.775693" lon="0.568271">
        <ele>1260.2</ele>
        <time>2018-09-16T08:31:11Z</time>
      </trkpt>
      <trkpt lat="42.775642" lon="0.567931">
        <ele>1261.6</ele>
        <time>2018-09-16T08:31:48Z</time>
      </trkpt>
      <trkpt lat="42.775424" lon="0.567626">
        <ele>1271.7</ele>
        <time>2018-09-16T08:32:34Z</time>
      </trkpt>
      <trkpt lat="42.775277" lon="0.567486">
        <ele>1278.9</ele>
        <time>2018-09-16T08:33:02Z</time>
      </trkpt>
      <trkpt lat="42.775220" lon="0.567294">
        <ele>1281.8</ele>
        <time>2018-09-16T08:33:24Z</time>
      </trkpt>
      <trkpt lat="42.775258" lon="0.566815">
        <ele>1279.9</ele>
        <time>2018-09-16T08:34:15Z</time>
      </trkpt>
      <trkpt lat="42.775213" lon="0.566318">
        <ele>1280.6</ele>
        <time>2018-09-16T08:35:07Z</time>
      </trkpt>
      <trkpt lat="42.774989" lon="0.565917">
        <ele>1289.9</ele>
        <time>2018-09-16T08:36:02Z</time>
      </trkpt>
      <trkpt lat="42.774746" lon="0.565326">
        <ele>1317.4</ele>
        <time>2018-09-16T08:37:22Z</time>
      </trkpt>
      <trkpt lat="42.774676" lon="0.565273">
        <ele>1318.6</ele>
        <time>2018-09-16T08:37:39Z</time>
      </trkpt>
      <trkpt lat="42.774622" lon="0.565134">
        <ele>1320.7</ele>
        <time>2018-09-16T08:37:56Z</time>
      </trkpt>
      <trkpt lat="42.774657" lon="0.564955">
        <ele>1322.6</ele>
        <time>2018-09-16T08:38:11Z</time>
      </trkpt>
      <trkpt lat="42.774654" lon="0.564807">
        <ele>1324.3</ele>
        <time>2018-09-16T08:38:24Z</time>
      </trkpt>
      <trkpt lat="42.774628" lon="0.564703">
        <ele>1326.7</ele>
        <time>2018-09-16T08:38:41Z</time>
      </trkpt>
      <trkpt lat="42.774561" lon="0.564591">
        <ele>1329.7</ele>
        <time>2018-09-16T08:38:59Z</time>
      </trkpt>
      <trkpt lat="42.774540" lon="0.564471">
        <ele>1332.1</ele>
        <time>2018-09-16T08:39:14Z</time>
      </trkpt>
      <trkpt lat="42.774469" lon="0.564341">
        <ele>1335.4</ele>
        <time>2018-09-16T08:39:30Z</time>
      </trkpt>
      <trkpt lat="42.774423" lon="0.564167">
        <ele>1338.6</ele>
        <time>2018-09-16T08:39:47Z</time>
      </trkpt>
      <trkpt lat="42.774406" lon="0.564033">
        <ele>1342.1</ele>
        <time>2018-09-16T08:40:05Z</time>
      </trkpt>
      <trkpt lat="42.774363" lon="0.563914">
        <ele>1345.1</ele>
        <time>2018-09-16T08:40:22Z</time>
      </trkpt>
      <trkpt lat="42.774319" lon="0.563773">
        <ele>1348.6</ele>
        <time>2018-09-16T08:40:40Z</time>
      </trkpt>
      <trkpt lat="42.774279" lon="0.563623">
        <ele>1352.6</ele>
        <time>2018-09-16T08:41:00Z</time>
      </trkpt>
      <trkpt lat="42.774206" lon="0.563501">
        <ele>1355.7</ele>
        <time>2018-09-16T08:41:18Z</time>
      </trkpt>
      <trkpt lat="42.774128" lon="0.563388">
        <ele>1359.2</ele>
        <time>2018-09-16T08:41:37Z</time>
      </trkpt>
      <trkpt lat="42.774042" lon="0.563351">
        <ele>1361.0</ele>
        <time>2018-09-16T08:41:54Z</time>
      </trkpt>
      <trkpt lat="42.773939" lon="0.563301">
        <ele>1363.4</ele>
        <time>2018-09-16T08:42:10Z</time>
      </trkpt>
      <trkpt lat="42.773848" lon="0.563211">
        <ele>1366.7</ele>
        <time>2018-09-16T08:42:29Z</time>
      </trkpt>
      <trkpt lat="42.773737" lon="0.563169">
        <ele>1370.1</ele>
        <time>2018-09-16T08:42:45Z</time>
      </trkpt>
      <trkpt lat="42.773601" lon="0.563132">
        <ele>1374.1</ele>
        <time>2018-09-16T08:43:05Z</time>
      </trkpt>
      <trkpt lat="42.773457" lon="0.563147">
        <ele>1378.0</ele>
        <time>2018-09-16T08:43:23Z</time>
      </trkpt>
      <trkpt lat="42.773356" lon="0.563166">
        <ele>1380.8</ele>
        <time>2018-09-16T08:43:39Z</time>
      </trkpt>
      <trkpt lat="42.773236" lon="0.563202">
        <ele>1385.0</ele>
        <time>2018-09-16T08:43:59Z</time>
      </trkpt>
      <trkpt lat="42.773123" lon="0.563206">
        <ele>1387.9</ele>
        <time>2018-09-16T08:44:15Z</time>
      </trkpt>
      <trkpt lat="42.773006" lon="0.563275">
        <ele>1390.8</ele>
        <time>2018-09-16T08:44:30Z</time>
      </trkpt>
      <trkpt lat="42.772902" lon="0.563324">
        <ele>1393.7</ele>
        <time>2018-09-16T08:44:45Z</time>
      </trkpt>
      <trkpt lat="42.772841" lon="0.563386">
        <ele>1397.1</ele>
        <time>2018-09-16T08:45:00Z</time>
      </trkpt>
      <trkpt lat="42.772727" lon="0.563451">
        <ele>1401.1</ele>
        <time>2018-09-16T08:45:18Z</time>
      </trkpt>
      <trkpt lat="42.772638" lon="0.563569">
        <ele>1403.6</ele>
        <time>2018-09-16T08:45:33Z</time>
      </trkpt>
      <trkpt lat="42.772564" lon="0.563700">
        <ele>1406.9</ele>
        <time>2018-09-16T08:45:49Z</time>
      </trkpt>
      <trkpt lat="42.772486" lon="0.563848">
        <ele>1409.6</ele>
        <time>2018-09-16T08:46:05Z</time>
      </trkpt>
      <trkpt lat="42.772401" lon="0.563955">
        <ele>1412.1</ele>
        <time>2018-09-16T08:46:20Z</time>
      </trkpt>
      <trkpt lat="42.772337" lon="0.564046">
        <ele>1414.2</ele>
        <time>2018-09-16T08:46:33Z</time>
      </trkpt>
      <trkpt lat="42.772250" lon="0.564090">
        <ele>1416.3</ele>
        <time>2018-09-16T08:46:47Z</time>
      </trkpt>
      <trkpt lat="42.772162" lon="0.564149">
        <ele>1418.5</ele>
        <time>2018-09-16T08:47:00Z</time>
      </trkpt>
      <trkpt lat="42.772065" lon="0.564192">
        <ele>1420.8</ele>
        <time>2018-09-16T08:47:16Z</time>
      </trkpt>
      <trkpt lat="42.771976" lon="0.564143">
        <ele>1424.3</ele>
        <time>2018-09-16T08:49:01Z</time>
      </trkpt>
      <trkpt lat="42.771896" lon="0.564088">
        <ele>1425.2</ele>
        <time>2018-09-16T08:49:56Z</time>
      </trkpt>
      <trkpt lat="42.771798" lon="0.564062">
        <ele>1425.5</ele>
        <time>2018-09-16T08:50:11Z</time>
      </trkpt>
      <trkpt lat="42.771719" lon="0.563961">
        <ele>1426.1</ele>
        <time>2018-09-16T08:50:26Z</time>
      </trkpt>
      <trkpt lat="42.771643" lon="0.563839">
        <ele>1426.4</ele>
        <time>2018-09-16T08:50:39Z</time>
      </trkpt>
      <trkpt lat="42.771565" lon="0.563747">
        <ele>1428.1</ele>
        <time>2018-09-16T08:50:52Z</time>
      </trkpt>
      <trkpt lat="42.771503" lon="0.563639">
        <ele>1430.1</ele>
        <time>2018-09-16T08:51:06Z</time>
      </trkpt>
      <trkpt lat="42.771416" lon="0.563561">
        <ele>1431.8</ele>
        <time>2018-09-16T08:51:21Z</time>
      </trkpt>
      <trkpt lat="42.771323" lon="0.563530">
        <ele>1433.2</ele>
        <time>2018-09-16T08:51:35Z</time>
      </trkpt>
      <trkpt lat="42.771214" lon="0.563505">
        <ele>1435.2</ele>
        <time>2018-09-16T08:52:02Z</time>
      </trkpt>
      <trkpt lat="42.771109" lon="0.563494">
        <ele>1436.9</ele>
        <time>2018-09-16T08:52:21Z</time>
      </trkpt>
      <trkpt lat="42.770994" lon="0.563493">
        <ele>1438.2</ele>
        <time>2018-09-16T08:52:35Z</time>
      </trkpt>
      <trkpt lat="42.770882" lon="0.563484">
        <ele>1440.0</ele>
        <time>2018-09-16T08:52:49Z</time>
      </trkpt>
      <trkpt lat="42.770771" lon="0.563485">
        <ele>1442.4</ele>
        <time>2018-09-16T08:53:04Z</time>
      </trkpt>
      <trkpt lat="42.770716" lon="0.563595">
        <ele>1444.9</ele>
        <time>2018-09-16T08:53:22Z</time>
      </trkpt>
      <trkpt lat="42.770671" lon="0.563683">
        <ele>1447.7</ele>
        <time>2018-09-16T08:53:44Z</time>
      </trkpt>
      <trkpt lat="42.770605" lon="0.563774">
        <ele>1448.2</ele>
        <time>2018-09-16T08:53:57Z</time>
      </trkpt>
      <trkpt lat="42.770503" lon="0.563846">
        <ele>1448.9</ele>
        <time>2018-09-16T08:54:11Z</time>
      </trkpt>
      <trkpt lat="42.770449" lon="0.563908">
        <ele>1451.0</ele>
        <time>2018-09-16T08:54:32Z</time>
      </trkpt>
      <trkpt lat="42.770495" lon="0.563920">
        <ele>1452.2</ele>
        <time>2018-09-16T08:56:36Z</time>
      </trkpt>
      <trkpt lat="42.770470" lon="0.564015">
        <ele>1452.1</ele>
        <time>2018-09-16T08:57:09Z</time>
      </trkpt>
      <trkpt lat="42.770421" lon="0.564104">
        <ele>1451.9</ele>
        <time>2018-09-16T08:57:26Z</time>
      </trkpt>
      <trkpt lat="42.770347" lon="0.564177">
        <ele>1452.6</ele>
        <time>2018-09-16T08:57:45Z</time>
      </trkpt>
      <trkpt lat="42.770264" lon="0.564265">
        <ele>1453.4</ele>
        <time>2018-09-16T08:57:58Z</time>
      </trkpt>
      <trkpt lat="42.770194" lon="0.564354">
        <ele>1454.3</ele>
        <time>2018-09-16T08:58:11Z</time>
      </trkpt>
      <trkpt lat="42.770133" lon="0.564467">
        <ele>1455.0</ele>
        <time>2018-09-16T08:58:23Z</time>
      </trkpt>
      <trkpt lat="42.770075" lon="0.564557">
        <ele>1455.8</ele>
        <time>2018-09-16T08:58:35Z</time>
      </trkpt>
      <trkpt lat="42.770043" lon="0.564676">
        <ele>1456.8</ele>
        <time>2018-09-16T08:58:48Z</time>
      </trkpt>
      <trkpt lat="42.770005" lon="0.564811">
        <ele>1458.3</ele>
        <time>2018-09-16T08:59:02Z</time>
      </trkpt>
      <trkpt lat="42.769937" lon="0.564899">
        <ele>1460.4</ele>
        <time>2018-09-16T08:59:16Z</time>
      </trkpt>
      <trkpt lat="42.769884" lon="0.564995">
        <ele>1462.9</ele>
        <time>2018-09-16T08:59:31Z</time>
      </trkpt>
      <trkpt lat="42.769821" lon="0.565098">
        <ele>1465.7</ele>
        <time>2018-09-16T08:59:45Z</time>
      </trkpt>
      <trkpt lat="42.769756" lon="0.565202">
        <ele>1468.2</ele>
        <time>2018-09-16T08:59:59Z</time>
      </trkpt>
      <trkpt lat="42.769698" lon="0.565290">
        <ele>1471.0</ele>
        <time>2018-09-16T09:00:14Z</time>
      </trkpt>
      <trkpt lat="42.769627" lon="0.565382">
        <ele>1474.1</ele>
        <time>2018-09-16T09:00:32Z</time>
      </trkpt>
      <trkpt lat="42.769534" lon="0.565437">
        <ele>1476.7</ele>
        <time>2018-09-16T09:00:47Z</time>
      </trkpt>
      <trkpt lat="42.769452" lon="0.565497">
        <ele>1479.5</ele>
        <time>2018-09-16T09:01:02Z</time>
      </trkpt>
      <trkpt lat="42.769379" lon="0.565602">
        <ele>1482.1</ele>
        <time>2018-09-16T09:01:16Z</time>
      </trkpt>
      <trkpt lat="42.769313" lon="0.565691">
        <ele>1484.8</ele>
        <time>2018-09-16T09:01:30Z</time>
      </trkpt>
      <trkpt lat="42.769246" lon="0.565787">
        <ele>1487.2</ele>
        <time>2018-09-16T09:01:43Z</time>
      </trkpt>
      <trkpt lat="42.769162" lon="0.565868">
        <ele>1489.9</ele>
        <time>2018-09-16T09:01:59Z</time>
      </trkpt>
      <trkpt lat="42.769093" lon="0.565952">
        <ele>1492.5</ele>
        <time>2018-09-16T09:02:15Z</time>
      </trkpt>
      <trkpt lat="42.769007" lon="0.566044">
        <ele>1495.9</ele>
        <time>2018-09-16T09:02:31Z</time>
      </trkpt>
      <trkpt lat="42.768966" lon="0.566162">
        <ele>1498.7</ele>
        <time>2018-09-16T09:02:48Z</time>
      </trkpt>
      <trkpt lat="42.768902" lon="0.566261">
        <ele>1501.4</ele>
        <time>2018-09-16T09:03:03Z</time>
      </trkpt>
      <trkpt lat="42.768846" lon="0.566347">
        <ele>1504.0</ele>
        <time>2018-09-16T09:03:24Z</time>
      </trkpt>
      <trkpt lat="42.768775" lon="0.566411">
        <ele>1506.5</ele>
        <time>2018-09-16T09:03:41Z</time>
      </trkpt>
      <trkpt lat="42.768679" lon="0.566459">
        <ele>1509.9</ele>
        <time>2018-09-16T09:03:58Z</time>
      </trkpt>
      <trkpt lat="42.768595" lon="0.566508">
        <ele>1513.0</ele>
        <time>2018-09-16T09:04:14Z</time>
      </trkpt>
      <trkpt lat="42.768510" lon="0.566577">
        <ele>1516.5</ele>
        <time>2018-09-16T09:04:31Z</time>
      </trkpt>
      <trkpt lat="42.768431" lon="0.566646">
        <ele>1519.7</ele>
        <time>2018-09-16T09:04:48Z</time>
      </trkpt>
      <trkpt lat="42.768351" lon="0.566709">
        <ele>1522.8</ele>
        <time>2018-09-16T09:05:05Z</time>
      </trkpt>
      <trkpt lat="42.768275" lon="0.566782">
        <ele>1525.6</ele>
        <time>2018-09-16T09:05:20Z</time>
      </trkpt>
      <trkpt lat="42.768191" lon="0.566852">
        <ele>1529.0</ele>
        <time>2018-09-16T09:05:36Z</time>
      </trkpt>
      <trkpt lat="42.768104" lon="0.566916">
        <ele>1532.3</ele>
        <time>2018-09-16T09:05:50Z</time>
      </trkpt>
      <trkpt lat="42.768033" lon="0.566994">
        <ele>1535.0</ele>
        <time>2018-09-16T09:06:04Z</time>
      </trkpt>
      <trkpt lat="42.767964" lon="0.567092">
        <ele>1538.3</ele>
        <time>2018-09-16T09:06:19Z</time>
      </trkpt>
      <trkpt lat="42.767908" lon="0.567196">
        <ele>1541.1</ele>
        <time>2018-09-16T09:06:32Z</time>
      </trkpt>
      <trkpt lat="42.767863" lon="0.567311">
        <ele>1543.3</ele>
        <time>2018-09-16T09:06:44Z</time>
      </trkpt>
      <trkpt lat="42.767815" lon="0.567419">
        <ele>1545.5</ele>
        <time>2018-09-16T09:06:57Z</time>
      </trkpt>
      <trkpt lat="42.767767" lon="0.567542">
        <ele>1547.9</ele>
        <time>2018-09-16T09:07:11Z</time>
      </trkpt>
      <trkpt lat="42.767713" lon="0.567653">
        <ele>1550.6</ele>
        <time>2018-09-16T09:07:26Z</time>
      </trkpt>
      <trkpt lat="42.767672" lon="0.567782">
        <ele>1553.3</ele>
        <time>2018-09-16T09:07:40Z</time>
      </trkpt>
      <trkpt lat="42.767649" lon="0.567911">
        <ele>1555.7</ele>
        <time>2018-09-16T09:07:53Z</time>
      </trkpt>
      <trkpt lat="42.767604" lon="0.568034">
        <ele>1559.5</ele>
        <time>2018-09-16T09:08:11Z</time>
      </trkpt>
      <trkpt lat="42.767561" lon="0.568170">
        <ele>1562.7</ele>
        <time>2018-09-16T09:08:26Z</time>
      </trkpt>
      <trkpt lat="42.767512" lon="0.568289">
        <ele>1566.4</ele>
        <time>2018-09-16T09:08:41Z</time>
      </trkpt>
      <trkpt lat="42.767453" lon="0.568401">
        <ele>1569.7</ele>
        <time>2018-09-16T09:08:56Z</time>
      </trkpt>
      <trkpt lat="42.767393" lon="0.568491">
        <ele>1573.4</ele>
        <time>2018-09-16T09:09:10Z</time>
      </trkpt>
      <trkpt lat="42.767320" lon="0.568577">
        <ele>1577.0</ele>
        <time>2018-09-16T09:09:27Z</time>
      </trkpt>
      <trkpt lat="42.767265" lon="0.568662">
        <ele>1580.6</ele>
        <time>2018-09-16T09:09:44Z</time>
      </trkpt>
      <trkpt lat="42.767194" lon="0.568749">
        <ele>1584.8</ele>
        <time>2018-09-16T09:10:03Z</time>
      </trkpt>
      <trkpt lat="42.767149" lon="0.568840">
        <ele>1588.3</ele>
        <time>2018-09-16T09:10:54Z</time>
      </trkpt>
      <trkpt lat="42.767082" lon="0.568936">
        <ele>1591.1</ele>
        <time>2018-09-16T09:11:11Z</time>
      </trkpt>
      <trkpt lat="42.767008" lon="0.569027">
        <ele>1593.8</ele>
        <time>2018-09-16T09:11:25Z</time>
      </trkpt>
      <trkpt lat="42.766943" lon="0.569119">
        <ele>1596.2</ele>
        <time>2018-09-16T09:11:38Z</time>
      </trkpt>
      <trkpt lat="42.766884" lon="0.569198">
        <ele>1598.7</ele>
        <time>2018-09-16T09:11:52Z</time>
      </trkpt>
      <trkpt lat="42.766821" lon="0.569295">
        <ele>1602.6</ele>
        <time>2018-09-16T09:12:11Z</time>
      </trkpt>
      <trkpt lat="42.766751" lon="0.569384">
        <ele>1606.0</ele>
        <time>2018-09-16T09:12:28Z</time>
      </trkpt>
      <trkpt lat="42.766693" lon="0.569468">
        <ele>1609.7</ele>
        <time>2018-09-16T09:12:46Z</time>
      </trkpt>
      <trkpt lat="42.766629" lon="0.569567">
        <ele>1613.0</ele>
        <time>2018-09-16T09:13:02Z</time>
      </trkpt>
      <trkpt lat="42.766582" lon="0.569656">
        <ele>1616.3</ele>
        <time>2018-09-16T09:13:17Z</time>
      </trkpt>
      <trkpt lat="42.766536" lon="0.569766">
        <ele>1619.0</ele>
        <time>2018-09-16T09:13:34Z</time>
      </trkpt>
      <trkpt lat="42.766475" lon="0.569871">
        <ele>1621.5</ele>
        <time>2018-09-16T09:13:48Z</time>
      </trkpt>
      <trkpt lat="42.766453" lon="0.570010">
        <ele>1623.3</ele>
        <time>2018-09-16T09:14:00Z</time>
      </trkpt>
      <trkpt lat="42.766452" lon="0.570149">
        <ele>1624.3</ele>
        <time>2018-09-16T09:14:12Z</time>
      </trkpt>
      <trkpt lat="42.766437" lon="0.570271">
        <ele>1625.6</ele>
        <time>2018-09-16T09:14:25Z</time>
      </trkpt>
      <trkpt lat="42.766408" lon="0.570403">
        <ele>1627.7</ele>
        <time>2018-09-16T09:14:40Z</time>
      </trkpt>
      <trkpt lat="42.766381" lon="0.570532">
        <ele>1630.4</ele>
        <time>2018-09-16T09:14:54Z</time>
      </trkpt>
      <trkpt lat="42.766348" lon="0.570655">
        <ele>1633.0</ele>
        <time>2018-09-16T09:15:08Z</time>
      </trkpt>
      <trkpt lat="42.766329" lon="0.570789">
        <ele>1636.1</ele>
        <time>2018-09-16T09:15:22Z</time>
      </trkpt>
      <trkpt lat="42.766311" lon="0.570914">
        <ele>1638.8</ele>
        <time>2018-09-16T09:15:36Z</time>
      </trkpt>
      <trkpt lat="42.766273" lon="0.571049">
        <ele>1642.1</ele>
        <time>2018-09-16T09:15:53Z</time>
      </trkpt>
      <trkpt lat="42.766264" lon="0.571186">
        <ele>1645.6</ele>
        <time>2018-09-16T09:16:09Z</time>
      </trkpt>
      <trkpt lat="42.766236" lon="0.571306">
        <ele>1649.0</ele>
        <time>2018-09-16T09:16:25Z</time>
      </trkpt>
      <trkpt lat="42.766211" lon="0.571430">
        <ele>1651.8</ele>
        <time>2018-09-16T09:16:40Z</time>
      </trkpt>
      <trkpt lat="42.766190" lon="0.571557">
        <ele>1653.8</ele>
        <time>2018-09-16T09:16:53Z</time>
      </trkpt>
      <trkpt lat="42.766167" lon="0.571693">
        <ele>1656.7</ele>
        <time>2018-09-16T09:17:07Z</time>
      </trkpt>
      <trkpt lat="42.766138" lon="0.571817">
        <ele>1658.6</ele>
        <time>2018-09-16T09:17:19Z</time>
      </trkpt>
      <trkpt lat="42.766097" lon="0.571929">
        <ele>1661.1</ele>
        <time>2018-09-16T09:17:32Z</time>
      </trkpt>
      <trkpt lat="42.766072" lon="0.572051">
        <ele>1663.6</ele>
        <time>2018-09-16T09:17:47Z</time>
      </trkpt>
      <trkpt lat="42.766051" lon="0.572192">
        <ele>1666.6</ele>
        <time>2018-09-16T09:18:02Z</time>
      </trkpt>
      <trkpt lat="42.766019" lon="0.572305">
        <ele>1669.4</ele>
        <time>2018-09-16T09:18:17Z</time>
      </trkpt>
      <trkpt lat="42.765954" lon="0.572408">
        <ele>1672.3</ele>
        <time>2018-09-16T09:18:34Z</time>
      </trkpt>
      <trkpt lat="42.765888" lon="0.572489">
        <ele>1675.4</ele>
        <time>2018-09-16T09:18:51Z</time>
      </trkpt>
      <trkpt lat="42.765831" lon="0.572604">
        <ele>1678.7</ele>
        <time>2018-09-16T09:19:06Z</time>
      </trkpt>
      <trkpt lat="42.765766" lon="0.572714">
        <ele>1681.6</ele>
        <time>2018-09-16T09:19:20Z</time>
      </trkpt>
      <trkpt lat="42.765694" lon="0.572804">
        <ele>1684.9</ele>
        <time>2018-09-16T09:19:33Z</time>
      </trkpt>
      <trkpt lat="42.765637" lon="0.572913">
        <ele>1687.7</ele>
        <time>2018-09-16T09:19:46Z</time>
      </trkpt>
      <trkpt lat="42.765583" lon="0.573012">
        <ele>1691.5</ele>
        <time>2018-09-16T09:20:42Z</time>
      </trkpt>
      <trkpt lat="42.765533" lon="0.573128">
        <ele>1694.7</ele>
        <time>2018-09-16T09:20:59Z</time>
      </trkpt>
      <trkpt lat="42.765493" lon="0.573249">
        <ele>1697.1</ele>
        <time>2018-09-16T09:21:15Z</time>
      </trkpt>
      <trkpt lat="42.765432" lon="0.573362">
        <ele>1701.3</ele>
        <time>2018-09-16T09:21:39Z</time>
      </trkpt>
      <trkpt lat="42.765368" lon="0.573473">
        <ele>1704.3</ele>
        <time>2018-09-16T09:21:58Z</time>
      </trkpt>
      <trkpt lat="42.765293" lon="0.573555">
        <ele>1707.3</ele>
        <time>2018-09-16T09:22:13Z</time>
      </trkpt>
      <trkpt lat="42.765217" lon="0.573623">
        <ele>1710.4</ele>
        <time>2018-09-16T09:22:27Z</time>
      </trkpt>
      <trkpt lat="42.765135" lon="0.573691">
        <ele>1713.8</ele>
        <time>2018-09-16T09:22:42Z</time>
      </trkpt>
      <trkpt lat="42.765052" lon="0.573734">
        <ele>1716.5</ele>
        <time>2018-09-16T09:22:56Z</time>
      </trkpt>
      <trkpt lat="42.764966" lon="0.573802">
        <ele>1719.4</ele>
        <time>2018-09-16T09:23:12Z</time>
      </trkpt>
      <trkpt lat="42.764867" lon="0.573809">
        <ele>1723.1</ele>
        <time>2018-09-16T09:24:25Z</time>
      </trkpt>
      <trkpt lat="42.764766" lon="0.573770">
        <ele>1724.7</ele>
        <time>2018-09-16T09:24:40Z</time>
      </trkpt>
      <trkpt lat="42.764651" lon="0.573738">
        <ele>1727.2</ele>
        <time>2018-09-16T09:24:55Z</time>
      </trkpt>
      <trkpt lat="42.764539" lon="0.573704">
        <ele>1730.3</ele>
        <time>2018-09-16T09:25:12Z</time>
      </trkpt>
      <trkpt lat="42.764445" lon="0.573687">
        <ele>1732.8</ele>
        <time>2018-09-16T09:25:27Z</time>
      </trkpt>
      <trkpt lat="42.764391" lon="0.573574">
        <ele>1734.6</ele>
        <time>2018-09-16T09:25:41Z</time>
      </trkpt>
      <trkpt lat="42.764354" lon="0.573452">
        <ele>1735.3</ele>
        <time>2018-09-16T09:25:53Z</time>
      </trkpt>
      <trkpt lat="42.764317" lon="0.573339">
        <ele>1736.2</ele>
        <time>2018-09-16T09:26:03Z</time>
      </trkpt>
      <trkpt lat="42.764249" lon="0.573261">
        <ele>1737.3</ele>
        <time>2018-09-16T09:26:15Z</time>
      </trkpt>
      <trkpt lat="42.764166" lon="0.573184">
        <ele>1740.3</ele>
        <time>2018-09-16T09:26:28Z</time>
      </trkpt>
      <trkpt lat="42.764102" lon="0.573089">
        <ele>1742.2</ele>
        <time>2018-09-16T09:26:40Z</time>
      </trkpt>
      <trkpt lat="42.764042" lon="0.572970">
        <ele>1744.8</ele>
        <time>2018-09-16T09:26:53Z</time>
      </trkpt>
      <trkpt lat="42.764015" lon="0.572839">
        <ele>1746.8</ele>
        <time>2018-09-16T09:27:05Z</time>
      </trkpt>
      <trkpt lat="42.763998" lon="0.572712">
        <ele>1748.0</ele>
        <time>2018-09-16T09:27:16Z</time>
      </trkpt>
      <trkpt lat="42.763987" lon="0.572573">
        <ele>1749.6</ele>
        <time>2018-09-16T09:27:32Z</time>
      </trkpt>
      <trkpt lat="42.764004" lon="0.572435">
        <ele>1751.3</ele>
        <time>2018-09-16T09:27:44Z</time>
      </trkpt>
      <trkpt lat="42.764027" lon="0.572288">
        <ele>1753.9</ele>
        <time>2018-09-16T09:27:57Z</time>
      </trkpt>
      <trkpt lat="42.764020" lon="0.572131">
        <ele>1756.4</ele>
        <time>2018-09-16T09:28:09Z</time>
      </trkpt>
      <trkpt lat="42.764034" lon="0.571992">
        <ele>1758.6</ele>
        <time>2018-09-16T09:28:22Z</time>
      </trkpt>
      <trkpt lat="42.764050" lon="0.571866">
        <ele>1760.5</ele>
        <time>2018-09-16T09:28:33Z</time>
      </trkpt>
      <trkpt lat="42.764048" lon="0.571729">
        <ele>1762.4</ele>
        <time>2018-09-16T09:28:45Z</time>
      </trkpt>
      <trkpt lat="42.764052" lon="0.571584">
        <ele>1764.0</ele>
        <time>2018-09-16T09:28:57Z</time>
      </trkpt>
      <trkpt lat="42.764083" lon="0.571456">
        <ele>1766.0</ele>
        <time>2018-09-16T09:29:09Z</time>
      </trkpt>
      <trkpt lat="42.764094" lon="0.571325">
        <ele>1768.3</ele>
        <time>2018-09-16T09:29:21Z</time>
      </trkpt>
      <trkpt lat="42.764071" lon="0.571192">
        <ele>1770.5</ele>
        <time>2018-09-16T09:29:33Z</time>
      </trkpt>
      <trkpt lat="42.764036" lon="0.571053">
        <ele>1772.9</ele>
        <time>2018-09-16T09:29:45Z</time>
      </trkpt>
      <trkpt lat="42.764005" lon="0.570912">
        <ele>1775.2</ele>
        <time>2018-09-16T09:29:57Z</time>
      </trkpt>
      <trkpt lat="42.763972" lon="0.570796">
        <ele>1777.5</ele>
        <time>2018-09-16T09:30:08Z</time>
      </trkpt>
      <trkpt lat="42.763932" lon="0.570680">
        <ele>1779.1</ele>
        <time>2018-09-16T09:30:18Z</time>
      </trkpt>
      <trkpt lat="42.763906" lon="0.570555">
        <ele>1780.7</ele>
        <time>2018-09-16T09:30:28Z</time>
      </trkpt>
      <trkpt lat="42.763878" lon="0.570438">
        <ele>1782.3</ele>
        <time>2018-09-16T09:30:38Z</time>
      </trkpt>
      <trkpt lat="42.763850" lon="0.570310">
        <ele>1783.8</ele>
        <time>2018-09-16T09:30:49Z</time>
      </trkpt>
      <trkpt lat="42.763810" lon="0.570175">
        <ele>1785.2</ele>
        <time>2018-09-16T09:31:00Z</time>
      </trkpt>
      <trkpt lat="42.763758" lon="0.570035">
        <ele>1786.7</ele>
        <time>2018-09-16T09:31:39Z</time>
      </trkpt>
      <trkpt lat="42.763716" lon="0.569914">
        <ele>1787.5</ele>
        <time>2018-09-16T09:31:49Z</time>
      </trkpt>
      <trkpt lat="42.763668" lon="0.569788">
        <ele>1788.3</ele>
        <time>2018-09-16T09:31:59Z</time>
      </trkpt>
      <trkpt lat="42.763616" lon="0.569675">
        <ele>1789.6</ele>
        <time>2018-09-16T09:32:09Z</time>
      </trkpt>
      <trkpt lat="42.763572" lon="0.569579">
        <ele>1791.9</ele>
        <time>2018-09-16T09:32:25Z</time>
      </trkpt>
      <trkpt lat="42.763526" lon="0.569454">
        <ele>1792.8</ele>
        <time>2018-09-16T09:32:35Z</time>
      </trkpt>
      <trkpt lat="42.763487" lon="0.569321">
        <ele>1794.1</ele>
        <time>2018-09-16T09:32:45Z</time>
      </trkpt>
      <trkpt lat="42.763457" lon="0.569201">
        <ele>1795.2</ele>
        <time>2018-09-16T09:32:55Z</time>
      </trkpt>
      <trkpt lat="42.763439" lon="0.569067">
        <ele>1796.4</ele>
        <time>2018-09-16T09:33:05Z</time>
      </trkpt>
      <trkpt lat="42.763426" lon="0.568946">
        <ele>1797.2</ele>
        <time>2018-09-16T09:33:14Z</time>
      </trkpt>
      <trkpt lat="42.763405" lon="0.568815">
        <ele>1798.2</ele>
        <time>2018-09-16T09:33:25Z</time>
      </trkpt>
      <trkpt lat="42.763396" lon="0.568678">
        <ele>1799.7</ele>
        <time>2018-09-16T09:33:36Z</time>
      </trkpt>
      <trkpt lat="42.763384" lon="0.568548">
        <ele>1800.7</ele>
        <time>2018-09-16T09:33:46Z</time>
      </trkpt>
      <trkpt lat="42.763375" lon="0.568413">
        <ele>1802.2</ele>
        <time>2018-09-16T09:33:56Z</time>
      </trkpt>
      <trkpt lat="42.763358" lon="0.568286">
        <ele>1803.6</ele>
        <time>2018-09-16T09:34:05Z</time>
      </trkpt>
      <trkpt lat="42.763349" lon="0.568152">
        <ele>1805.1</ele>
        <time>2018-09-16T09:34:15Z</time>
      </trkpt>
      <trkpt lat="42.763358" lon="0.568022">
        <ele>1806.7</ele>
        <time>2018-09-16T09:34:25Z</time>
      </trkpt>
      <trkpt lat="42.763347" lon="0.567880">
        <ele>1808.3</ele>
        <time>2018-09-16T09:34:36Z</time>
      </trkpt>
      <trkpt lat="42.763327" lon="0.567750">
        <ele>1809.5</ele>
        <time>2018-09-16T09:34:45Z</time>
      </trkpt>
      <trkpt lat="42.763302" lon="0.567624">
        <ele>1810.6</ele>
        <time>2018-09-16T09:34:54Z</time>
      </trkpt>
      <trkpt lat="42.763269" lon="0.567498">
        <ele>1812.0</ele>
        <time>2018-09-16T09:35:04Z</time>
      </trkpt>
      <trkpt lat="42.763237" lon="0.567375">
        <ele>1813.1</ele>
        <time>2018-09-16T09:35:14Z</time>
      </trkpt>
      <trkpt lat="42.763193" lon="0.567259">
        <ele>1814.3</ele>
        <time>2018-09-16T09:35:23Z</time>
      </trkpt>
      <trkpt lat="42.763139" lon="0.567139">
        <ele>1815.2</ele>
        <time>2018-09-16T09:35:32Z</time>
      </trkpt>
      <trkpt lat="42.763097" lon="0.567028">
        <ele>1816.1</ele>
        <time>2018-09-16T09:35:40Z</time>
      </trkpt>
      <trkpt lat="42.763052" lon="0.566913">
        <ele>1816.9</ele>
        <time>2018-09-16T09:35:48Z</time>
      </trkpt>
      <trkpt lat="42.762989" lon="0.566823">
        <ele>1818.2</ele>
        <time>2018-09-16T09:35:58Z</time>
      </trkpt>
      <trkpt lat="42.762928" lon="0.566745">
        <ele>1819.4</ele>
        <time>2018-09-16T09:36:07Z</time>
      </trkpt>
      <trkpt lat="42.762838" lon="0.566660">
        <ele>1821.4</ele>
        <time>2018-09-16T09:36:19Z</time>
      </trkpt>
      <trkpt lat="42.762740" lon="0.566591">
        <ele>1823.5</ele>
        <time>2018-09-16T09:36:30Z</time>
      </trkpt>
      <trkpt lat="42.762674" lon="0.566514">
        <ele>1824.6</ele>
        <time>2018-09-16T09:36:39Z</time>
      </trkpt>
      <trkpt lat="42.762594" lon="0.566425">
        <ele>1825.9</ele>
        <time>2018-09-16T09:36:49Z</time>
      </trkpt>
      <trkpt lat="42.762537" lon="0.566326">
        <ele>1826.7</ele>
        <time>2018-09-16T09:36:59Z</time>
      </trkpt>
      <trkpt lat="42.762470" lon="0.566300">
        <ele>1828.3</ele>
        <time>2018-09-16T09:37:44Z</time>
      </trkpt>
      <trkpt lat="42.762443" lon="0.566291">
        <ele>1828.8</ele>
        <time>2018-09-16T09:37:59Z</time>
      </trkpt>
      <trkpt lat="42.762483" lon="0.566313">
        <ele>1830.6</ele>
        <time>2018-09-16T09:44:21Z</time>
      </trkpt>
      <trkpt lat="42.762438" lon="0.566203">
        <ele>1830.7</ele>
        <time>2018-09-16T09:44:53Z</time>
      </trkpt>
      <trkpt lat="42.762418" lon="0.566063">
        <ele>1831.9</ele>
        <time>2018-09-16T09:45:10Z</time>
      </trkpt>
      <trkpt lat="42.762402" lon="0.565931">
        <ele>1833.4</ele>
        <time>2018-09-16T09:45:23Z</time>
      </trkpt>
      <trkpt lat="42.762407" lon="0.565798">
        <ele>1834.4</ele>
        <time>2018-09-16T09:45:35Z</time>
      </trkpt>
      <trkpt lat="42.762420" lon="0.565665">
        <ele>1835.3</ele>
        <time>2018-09-16T09:45:46Z</time>
      </trkpt>
      <trkpt lat="42.762410" lon="0.565533">
        <ele>1835.8</ele>
        <time>2018-09-16T09:45:57Z</time>
      </trkpt>
      <trkpt lat="42.762388" lon="0.565421">
        <ele>1836.2</ele>
        <time>2018-09-16T09:46:07Z</time>
      </trkpt>
      <trkpt lat="42.762361" lon="0.565299">
        <ele>1836.6</ele>
        <time>2018-09-16T09:46:17Z</time>
      </trkpt>
      <trkpt lat="42.762316" lon="0.565185">
        <ele>1836.9</ele>
        <time>2018-09-16T09:46:27Z</time>
      </trkpt>
      <trkpt lat="42.762283" lon="0.565054">
        <ele>1837.5</ele>
        <time>2018-09-16T09:46:37Z</time>
      </trkpt>
      <trkpt lat="42.762246" lon="0.564925">
        <ele>1838.2</ele>
        <time>2018-09-16T09:46:47Z</time>
      </trkpt>
      <trkpt lat="42.762208" lon="0.564805">
        <ele>1839.3</ele>
        <time>2018-09-16T09:46:58Z</time>
      </trkpt>
      <trkpt lat="42.762165" lon="0.564678">
        <ele>1840.6</ele>
        <time>2018-09-16T09:47:10Z</time>
      </trkpt>
      <trkpt lat="42.762142" lon="0.564543">
        <ele>1841.7</ele>
        <time>2018-09-16T09:47:21Z</time>
      </trkpt>
      <trkpt lat="42.762133" lon="0.564417">
        <ele>1842.4</ele>
        <time>2018-09-16T09:47:31Z</time>
      </trkpt>
      <trkpt lat="42.762117" lon="0.564282">
        <ele>1842.6</ele>
        <time>2018-09-16T09:47:41Z</time>
      </trkpt>
      <trkpt lat="42.762105" lon="0.564160">
        <ele>1842.6</ele>
        <time>2018-09-16T09:47:50Z</time>
      </trkpt>
      <trkpt lat="42.762074" lon="0.564023">
        <ele>1842.6</ele>
        <time>2018-09-16T09:47:59Z</time>
      </trkpt>
      <trkpt lat="42.762048" lon="0.563897">
        <ele>1842.9</ele>
        <time>2018-09-16T09:48:08Z</time>
      </trkpt>
      <trkpt lat="42.762013" lon="0.563781">
        <ele>1843.4</ele>
        <time>2018-09-16T09:48:17Z</time>
      </trkpt>
      <trkpt lat="42.761985" lon="0.563676">
        <ele>1843.8</ele>
        <time>2018-09-16T09:48:26Z</time>
      </trkpt>
      <trkpt lat="42.761951" lon="0.563558">
        <ele>1844.7</ele>
        <time>2018-09-16T09:48:35Z</time>
      </trkpt>
      <trkpt lat="42.761911" lon="0.563441">
        <ele>1846.3</ele>
        <time>2018-09-16T09:48:45Z</time>
      </trkpt>
      <trkpt lat="42.761888" lon="0.563319">
        <ele>1847.4</ele>
        <time>2018-09-16T09:48:54Z</time>
      </trkpt>
      <trkpt lat="42.761882" lon="0.563194">
        <ele>1848.4</ele>
        <time>2018-09-16T09:49:03Z</time>
      </trkpt>
      <trkpt lat="42.761867" lon="0.563067">
        <ele>1848.9</ele>
        <time>2018-09-16T09:49:12Z</time>
      </trkpt>
      <trkpt lat="42.761852" lon="0.562936">
        <ele>1849.5</ele>
        <time>2018-09-16T09:49:21Z</time>
      </trkpt>
      <trkpt lat="42.761825" lon="0.562809">
        <ele>1849.8</ele>
        <time>2018-09-16T09:49:30Z</time>
      </trkpt>
      <trkpt lat="42.761799" lon="0.562692">
        <ele>1850.7</ele>
        <time>2018-09-16T09:49:40Z</time>
      </trkpt>
      <trkpt lat="42.761774" lon="0.562568">
        <ele>1851.3</ele>
        <time>2018-09-16T09:49:49Z</time>
      </trkpt>
      <trkpt lat="42.761750" lon="0.562432">
        <ele>1851.5</ele>
        <time>2018-09-16T09:49:58Z</time>
      </trkpt>
      <trkpt lat="42.761724" lon="0.562309">
        <ele>1851.5</ele>
        <time>2018-09-16T09:50:06Z</time>
      </trkpt>
      <trkpt lat="42.761715" lon="0.562190">
        <ele>1852.2</ele>
        <time>2018-09-16T09:50:16Z</time>
      </trkpt>
      <trkpt lat="42.761691" lon="0.562064">
        <ele>1853.9</ele>
        <time>2018-09-16T09:50:26Z</time>
      </trkpt>
      <trkpt lat="42.761659" lon="0.561944">
        <ele>1855.4</ele>
        <time>2018-09-16T09:50:37Z</time>
      </trkpt>
      <trkpt lat="42.761622" lon="0.561825">
        <ele>1857.0</ele>
        <time>2018-09-16T09:50:47Z</time>
      </trkpt>
      <trkpt lat="42.761565" lon="0.561715">
        <ele>1858.4</ele>
        <time>2018-09-16T09:50:57Z</time>
      </trkpt>
      <trkpt lat="42.761516" lon="0.561614">
        <ele>1859.6</ele>
        <time>2018-09-16T09:51:06Z</time>
      </trkpt>
      <trkpt lat="42.761461" lon="0.561516">
        <ele>1860.5</ele>
        <time>2018-09-16T09:51:15Z</time>
      </trkpt>
      <trkpt lat="42.761405" lon="0.561411">
        <ele>1861.5</ele>
        <time>2018-09-16T09:51:24Z</time>
      </trkpt>
      <trkpt lat="42.761364" lon="0.561306">
        <ele>1862.4</ele>
        <time>2018-09-16T09:51:34Z</time>
      </trkpt>
      <trkpt lat="42.761323" lon="0.561199">
        <ele>1863.4</ele>
        <time>2018-09-16T09:51:43Z</time>
      </trkpt>
      <trkpt lat="42.761273" lon="0.561083">
        <ele>1864.2</ele>
        <time>2018-09-16T09:51:52Z</time>
      </trkpt>
      <trkpt lat="42.761231" lon="0.560962">
        <ele>1864.8</ele>
        <time>2018-09-16T09:52:01Z</time>
      </trkpt>
      <trkpt lat="42.761164" lon="0.560866">
        <ele>1865.0</ele>
        <time>2018-09-16T09:52:13Z</time>
      </trkpt>
      <trkpt lat="42.761120" lon="0.560752">
        <ele>1864.5</ele>
        <time>2018-09-16T09:52:23Z</time>
      </trkpt>
      <trkpt lat="42.761095" lon="0.560616">
        <ele>1863.9</ele>
        <time>2018-09-16T09:52:31Z</time>
      </trkpt>
      <trkpt lat="42.761081" lon="0.560494">
        <ele>1864.2</ele>
        <time>2018-09-16T09:52:40Z</time>
      </trkpt>
      <trkpt lat="42.761066" lon="0.560366">
        <ele>1865.0</ele>
        <time>2018-09-16T09:52:49Z</time>
      </trkpt>
      <trkpt lat="42.761034" lon="0.560242">
        <ele>1866.1</ele>
        <time>2018-09-16T09:52:59Z</time>
      </trkpt>
      <trkpt lat="42.760998" lon="0.560115">
        <ele>1866.7</ele>
        <time>2018-09-16T09:53:08Z</time>
      </trkpt>
      <trkpt lat="42.760959" lon="0.560005">
        <ele>1866.7</ele>
        <time>2018-09-16T09:53:17Z</time>
      </trkpt>
      <trkpt lat="42.760929" lon="0.559882">
        <ele>1866.6</ele>
        <time>2018-09-16T09:53:26Z</time>
      </trkpt>
      <trkpt lat="42.760895" lon="0.559765">
        <ele>1866.4</ele>
        <time>2018-09-16T09:53:35Z</time>
      </trkpt>
      <trkpt lat="42.760871" lon="0.559652">
        <ele>1866.2</ele>
        <time>2018-09-16T09:54:02Z</time>
      </trkpt>
      <trkpt lat="42.760826" lon="0.559538">
        <ele>1865.8</ele>
        <time>2018-09-16T09:54:11Z</time>
      </trkpt>
      <trkpt lat="42.760796" lon="0.559411">
        <ele>1865.2</ele>
        <time>2018-09-16T09:54:20Z</time>
      </trkpt>
      <trkpt lat="42.760765" lon="0.559280">
        <ele>1864.9</ele>
        <time>2018-09-16T09:54:29Z</time>
      </trkpt>
      <trkpt lat="42.760744" lon="0.559150">
        <ele>1863.9</ele>
        <time>2018-09-16T09:54:39Z</time>
      </trkpt>
      <trkpt lat="42.760714" lon="0.559030">
        <ele>1863.6</ele>
        <time>2018-09-16T09:54:48Z</time>
      </trkpt>
      <trkpt lat="42.760699" lon="0.558904">
        <ele>1865.3</ele>
        <time>2018-09-16T09:55:00Z</time>
      </trkpt>
      <trkpt lat="42.760679" lon="0.558787">
        <ele>1867.7</ele>
        <time>2018-09-16T09:55:13Z</time>
      </trkpt>
      <trkpt lat="42.760683" lon="0.558665">
        <ele>1870.2</ele>
        <time>2018-09-16T09:55:29Z</time>
      </trkpt>
      <trkpt lat="42.760684" lon="0.558531">
        <ele>1872.9</ele>
        <time>2018-09-16T09:55:48Z</time>
      </trkpt>
      <trkpt lat="42.760685" lon="0.558395">
        <ele>1876.2</ele>
        <time>2018-09-16T09:56:06Z</time>
      </trkpt>
      <trkpt lat="42.760648" lon="0.558266">
        <ele>1879.6</ele>
        <time>2018-09-16T09:56:25Z</time>
      </trkpt>
      <trkpt lat="42.760603" lon="0.558146">
        <ele>1883.7</ele>
        <time>2018-09-16T09:56:48Z</time>
      </trkpt>
      <trkpt lat="42.760541" lon="0.558055">
        <ele>1887.7</ele>
        <time>2018-09-16T09:57:12Z</time>
      </trkpt>
      <trkpt lat="42.760515" lon="0.557997">
        <ele>1893.4</ele>
        <time>2018-09-16T09:57:58Z</time>
      </trkpt>
      <trkpt lat="42.760428" lon="0.557892">
        <ele>1905.3</ele>
        <time>2018-09-16T09:59:58Z</time>
      </trkpt>
      <trkpt lat="42.760447" lon="0.557800">
        <ele>1908.4</ele>
        <time>2018-09-16T10:00:22Z</time>
      </trkpt>
      <trkpt lat="42.760476" lon="0.557691">
        <ele>1912.8</ele>
        <time>2018-09-16T10:00:53Z</time>
      </trkpt>
      <trkpt lat="42.760471" lon="0.557575">
        <ele>1916.1</ele>
        <time>2018-09-16T10:01:31Z</time>
      </trkpt>
      <trkpt lat="42.760455" lon="0.557452">
        <ele>1916.5</ele>
        <time>2018-09-16T10:01:49Z</time>
      </trkpt>
      <trkpt lat="42.760442" lon="0.557334">
        <ele>1918.6</ele>
        <time>2018-09-16T10:02:25Z</time>
      </trkpt>
      <trkpt lat="42.760406" lon="0.557262">
        <ele>1918.3</ele>
        <time>2018-09-16T10:03:12Z</time>
      </trkpt>
      <trkpt lat="42.760383" lon="0.557128">
        <ele>1918.1</ele>
        <time>2018-09-16T10:03:25Z</time>
      </trkpt>
      <trkpt lat="42.760330" lon="0.557028">
        <ele>1917.4</ele>
        <time>2018-09-16T10:03:38Z</time>
      </trkpt>
      <trkpt lat="42.760284" lon="0.556962">
        <ele>1920.7</ele>
        <time>2018-09-16T10:03:59Z</time>
      </trkpt>
      <trkpt lat="42.760240" lon="0.556836">
        <ele>1921.6</ele>
        <time>2018-09-16T10:04:15Z</time>
      </trkpt>
      <trkpt lat="42.760194" lon="0.556722">
        <ele>1921.8</ele>
        <time>2018-09-16T10:04:31Z</time>
      </trkpt>
      <trkpt lat="42.760123" lon="0.556637">
        <ele>1924.0</ele>
        <time>2018-09-16T10:04:49Z</time>
      </trkpt>
      <trkpt lat="42.760070" lon="0.556524">
        <ele>1928.2</ele>
        <time>2018-09-16T10:05:42Z</time>
      </trkpt>
      <trkpt lat="42.760015" lon="0.556424">
        <ele>1928.7</ele>
        <time>2018-09-16T10:05:51Z</time>
      </trkpt>
      <trkpt lat="42.759982" lon="0.556317">
        <ele>1929.7</ele>
        <time>2018-09-16T10:06:02Z</time>
      </trkpt>
      <trkpt lat="42.759954" lon="0.556193">
        <ele>1931.7</ele>
        <time>2018-09-16T10:06:14Z</time>
      </trkpt>
      <trkpt lat="42.759904" lon="0.556092">
        <ele>1932.4</ele>
        <time>2018-09-16T10:06:25Z</time>
      </trkpt>
      <trkpt lat="42.759865" lon="0.555982">
        <ele>1933.5</ele>
        <time>2018-09-16T10:06:35Z</time>
      </trkpt>
      <trkpt lat="42.759830" lon="0.555863">
        <ele>1933.9</ele>
        <time>2018-09-16T10:06:45Z</time>
      </trkpt>
      <trkpt lat="42.759784" lon="0.555743">
        <ele>1933.1</ele>
        <time>2018-09-16T10:06:55Z</time>
      </trkpt>
      <trkpt lat="42.759753" lon="0.555626">
        <ele>1933.7</ele>
        <time>2018-09-16T10:07:06Z</time>
      </trkpt>
      <trkpt lat="42.759721" lon="0.555513">
        <ele>1935.5</ele>
        <time>2018-09-16T10:07:17Z</time>
      </trkpt>
      <trkpt lat="42.759673" lon="0.555403">
        <ele>1935.9</ele>
        <time>2018-09-16T10:07:27Z</time>
      </trkpt>
      <trkpt lat="42.759616" lon="0.555290">
        <ele>1935.4</ele>
        <time>2018-09-16T10:07:37Z</time>
      </trkpt>
      <trkpt lat="42.759573" lon="0.555179">
        <ele>1935.3</ele>
        <time>2018-09-16T10:07:46Z</time>
      </trkpt>
      <trkpt lat="42.759541" lon="0.555062">
        <ele>1936.6</ele>
        <time>2018-09-16T10:07:58Z</time>
      </trkpt>
      <trkpt lat="42.759494" lon="0.554951">
        <ele>1938.6</ele>
        <time>2018-09-16T10:08:11Z</time>
      </trkpt>
      <trkpt lat="42.759441" lon="0.554853">
        <ele>1940.4</ele>
        <time>2018-09-16T10:08:22Z</time>
      </trkpt>
      <trkpt lat="42.759397" lon="0.554736">
        <ele>1941.8</ele>
        <time>2018-09-16T10:08:33Z</time>
      </trkpt>
      <trkpt lat="42.759337" lon="0.554647">
        <ele>1942.7</ele>
        <time>2018-09-16T10:08:43Z</time>
      </trkpt>
      <trkpt lat="42.759288" lon="0.554543">
        <ele>1943.7</ele>
        <time>2018-09-16T10:08:54Z</time>
      </trkpt>
      <trkpt lat="42.759235" lon="0.554451">
        <ele>1945.8</ele>
        <time>2018-09-16T10:09:08Z</time>
      </trkpt>
      <trkpt lat="42.759177" lon="0.554372">
        <ele>1949.2</ele>
        <time>2018-09-16T10:09:24Z</time>
      </trkpt>
      <trkpt lat="42.759140" lon="0.554263">
        <ele>1952.3</ele>
        <time>2018-09-16T10:09:41Z</time>
      </trkpt>
      <trkpt lat="42.759164" lon="0.554176">
        <ele>1954.9</ele>
        <time>2018-09-16T10:10:44Z</time>
      </trkpt>
      <trkpt lat="42.759105" lon="0.554088">
        <ele>1958.0</ele>
        <time>2018-09-16T10:11:02Z</time>
      </trkpt>
      <trkpt lat="42.759077" lon="0.553965">
        <ele>1960.8</ele>
        <time>2018-09-16T10:11:16Z</time>
      </trkpt>
      <trkpt lat="42.759043" lon="0.553866">
        <ele>1963.5</ele>
        <time>2018-09-16T10:11:30Z</time>
      </trkpt>
      <trkpt lat="42.758994" lon="0.553768">
        <ele>1965.7</ele>
        <time>2018-09-16T10:11:45Z</time>
      </trkpt>
      <trkpt lat="42.758966" lon="0.553650">
        <ele>1967.1</ele>
        <time>2018-09-16T10:11:57Z</time>
      </trkpt>
      <trkpt lat="42.758930" lon="0.553528">
        <ele>1967.7</ele>
        <time>2018-09-16T10:12:08Z</time>
      </trkpt>
      <trkpt lat="42.758901" lon="0.553410">
        <ele>1967.0</ele>
        <time>2018-09-16T10:12:19Z</time>
      </trkpt>
      <trkpt lat="42.758849" lon="0.553314">
        <ele>1966.1</ele>
        <time>2018-09-16T10:12:29Z</time>
      </trkpt>
      <trkpt lat="42.758802" lon="0.553210">
        <ele>1964.1</ele>
        <time>2018-09-16T10:12:40Z</time>
      </trkpt>
      <trkpt lat="42.758770" lon="0.553083">
        <ele>1962.0</ele>
        <time>2018-09-16T10:12:51Z</time>
      </trkpt>
      <trkpt lat="42.758719" lon="0.552976">
        <ele>1959.9</ele>
        <time>2018-09-16T10:13:02Z</time>
      </trkpt>
      <trkpt lat="42.758682" lon="0.552858">
        <ele>1958.8</ele>
        <time>2018-09-16T10:13:12Z</time>
      </trkpt>
      <trkpt lat="42.758660" lon="0.552731">
        <ele>1958.5</ele>
        <time>2018-09-16T10:13:24Z</time>
      </trkpt>
      <trkpt lat="42.758662" lon="0.552597">
        <ele>1960.1</ele>
        <time>2018-09-16T10:13:37Z</time>
      </trkpt>
      <trkpt lat="42.758645" lon="0.552487">
        <ele>1961.4</ele>
        <time>2018-09-16T10:13:49Z</time>
      </trkpt>
      <trkpt lat="42.758661" lon="0.552390">
        <ele>1963.7</ele>
        <time>2018-09-16T10:14:09Z</time>
      </trkpt>
      <trkpt lat="42.758669" lon="0.552248">
        <ele>1966.6</ele>
        <time>2018-09-16T10:14:28Z</time>
      </trkpt>
      <trkpt lat="42.758609" lon="0.552146">
        <ele>1965.6</ele>
        <time>2018-09-16T10:14:40Z</time>
      </trkpt>
      <trkpt lat="42.758541" lon="0.552058">
        <ele>1963.7</ele>
        <time>2018-09-16T10:14:50Z</time>
      </trkpt>
      <trkpt lat="42.758474" lon="0.551967">
        <ele>1963.8</ele>
        <time>2018-09-16T10:15:02Z</time>
      </trkpt>
      <trkpt lat="42.758434" lon="0.551849">
        <ele>1964.8</ele>
        <time>2018-09-16T10:15:15Z</time>
      </trkpt>
      <trkpt lat="42.758395" lon="0.551730">
        <ele>1966.1</ele>
        <time>2018-09-16T10:15:26Z</time>
      </trkpt>
      <trkpt lat="42.758373" lon="0.551607">
        <ele>1967.2</ele>
        <time>2018-09-16T10:15:37Z</time>
      </trkpt>
      <trkpt lat="42.758369" lon="0.551487">
        <ele>1969.6</ele>
        <time>2018-09-16T10:15:53Z</time>
      </trkpt>
      <trkpt lat="42.758338" lon="0.551373">
        <ele>1972.0</ele>
        <time>2018-09-16T10:16:08Z</time>
      </trkpt>
      <trkpt lat="42.758312" lon="0.551252">
        <ele>1975.2</ele>
        <time>2018-09-16T10:16:25Z</time>
      </trkpt>
      <trkpt lat="42.758264" lon="0.551141">
        <ele>1976.9</ele>
        <time>2018-09-16T10:16:38Z</time>
      </trkpt>
      <trkpt lat="42.758246" lon="0.551026">
        <ele>1978.2</ele>
        <time>2018-09-16T10:16:52Z</time>
      </trkpt>
      <trkpt lat="42.758183" lon="0.550926">
        <ele>1980.6</ele>
        <time>2018-09-16T10:17:10Z</time>
      </trkpt>
      <trkpt lat="42.758114" lon="0.550842">
        <ele>1983.9</ele>
        <time>2018-09-16T10:17:30Z</time>
      </trkpt>
      <trkpt lat="42.758075" lon="0.550729">
        <ele>1987.0</ele>
        <time>2018-09-16T10:17:48Z</time>
      </trkpt>
      <trkpt lat="42.758029" lon="0.550617">
        <ele>1989.7</ele>
        <time>2018-09-16T10:18:03Z</time>
      </trkpt>
      <trkpt lat="42.757994" lon="0.550501">
        <ele>1992.3</ele>
        <time>2018-09-16T10:18:20Z</time>
      </trkpt>
      <trkpt lat="42.757944" lon="0.550390">
        <ele>1995.8</ele>
        <time>2018-09-16T10:18:39Z</time>
      </trkpt>
      <trkpt lat="42.757902" lon="0.550295">
        <ele>1998.0</ele>
        <time>2018-09-16T10:18:54Z</time>
      </trkpt>
      <trkpt lat="42.757851" lon="0.550207">
        <ele>2000.2</ele>
        <time>2018-09-16T10:19:08Z</time>
      </trkpt>
      <trkpt lat="42.757793" lon="0.550119">
        <ele>2001.8</ele>
        <time>2018-09-16T10:19:22Z</time>
      </trkpt>
      <trkpt lat="42.757708" lon="0.550047">
        <ele>2002.8</ele>
        <time>2018-09-16T10:19:35Z</time>
      </trkpt>
      <trkpt lat="42.757619" lon="0.550002">
        <ele>2003.6</ele>
        <time>2018-09-16T10:19:47Z</time>
      </trkpt>
      <trkpt lat="42.757531" lon="0.549987">
        <ele>2004.3</ele>
        <time>2018-09-16T10:19:59Z</time>
      </trkpt>
      <trkpt lat="42.757476" lon="0.549908">
        <ele>2005.7</ele>
        <time>2018-09-16T10:20:13Z</time>
      </trkpt>
      <trkpt lat="42.757443" lon="0.549828">
        <ele>2007.4</ele>
        <time>2018-09-16T10:20:35Z</time>
      </trkpt>
      <trkpt lat="42.757390" lon="0.549711">
        <ele>2007.6</ele>
        <time>2018-09-16T10:21:23Z</time>
      </trkpt>
      <trkpt lat="42.757344" lon="0.549591">
        <ele>2008.9</ele>
        <time>2018-09-16T10:21:55Z</time>
      </trkpt>
      <trkpt lat="42.757300" lon="0.549500">
        <ele>2010.8</ele>
        <time>2018-09-16T10:22:10Z</time>
      </trkpt>
      <trkpt lat="42.757251" lon="0.549391">
        <ele>2015.1</ele>
        <time>2018-09-16T10:22:29Z</time>
      </trkpt>
      <trkpt lat="42.757223" lon="0.549281">
        <ele>2017.7</ele>
        <time>2018-09-16T10:22:46Z</time>
      </trkpt>
      <trkpt lat="42.757206" lon="0.549144">
        <ele>2020.2</ele>
        <time>2018-09-16T10:23:06Z</time>
      </trkpt>
      <trkpt lat="42.757179" lon="0.549027">
        <ele>2023.6</ele>
        <time>2018-09-16T10:23:23Z</time>
      </trkpt>
      <trkpt lat="42.757153" lon="0.548923">
        <ele>2026.9</ele>
        <time>2018-09-16T10:23:43Z</time>
      </trkpt>
      <trkpt lat="42.757105" lon="0.548824">
        <ele>2028.4</ele>
        <time>2018-09-16T10:23:57Z</time>
      </trkpt>
      <trkpt lat="42.757078" lon="0.548720">
        <ele>2030.9</ele>
        <time>2018-09-16T10:24:15Z</time>
      </trkpt>
      <trkpt lat="42.757042" lon="0.548605">
        <ele>2034.2</ele>
        <time>2018-09-16T10:24:35Z</time>
      </trkpt>
      <trkpt lat="42.757020" lon="0.548489">
        <ele>2037.4</ele>
        <time>2018-09-16T10:24:55Z</time>
      </trkpt>
      <trkpt lat="42.757008" lon="0.548366">
        <ele>2041.1</ele>
        <time>2018-09-16T10:25:19Z</time>
      </trkpt>
      <trkpt lat="42.756968" lon="0.548249">
        <ele>2045.0</ele>
        <time>2018-09-16T10:25:42Z</time>
      </trkpt>
      <trkpt lat="42.756920" lon="0.548138">
        <ele>2048.9</ele>
        <time>2018-09-16T10:26:04Z</time>
      </trkpt>
      <trkpt lat="42.756882" lon="0.548023">
        <ele>2051.5</ele>
        <time>2018-09-16T10:26:21Z</time>
      </trkpt>
      <trkpt lat="42.756843" lon="0.547911">
        <ele>2054.4</ele>
        <time>2018-09-16T10:26:41Z</time>
      </trkpt>
      <trkpt lat="42.756822" lon="0.547811">
        <ele>2056.9</ele>
        <time>2018-09-16T10:27:01Z</time>
      </trkpt>
      <trkpt lat="42.756799" lon="0.547718">
        <ele>2060.0</ele>
        <time>2018-09-16T10:27:23Z</time>
      </trkpt>
      <trkpt lat="42.756739" lon="0.547655">
        <ele>2065.8</ele>
        <time>2018-09-16T10:27:53Z</time>
      </trkpt>
      <trkpt lat="42.756662" lon="0.547596">
        <ele>2068.9</ele>
        <time>2018-09-16T10:28:22Z</time>
      </trkpt>
      <trkpt lat="42.756584" lon="0.547496">
        <ele>2072.9</ele>
        <time>2018-09-16T10:28:46Z</time>
      </trkpt>
      <trkpt lat="42.756505" lon="0.547435">
        <ele>2078.4</ele>
        <time>2018-09-16T10:29:21Z</time>
      </trkpt>
      <trkpt lat="42.756418" lon="0.547355">
        <ele>2082.8</ele>
        <time>2018-09-16T10:30:56Z</time>
      </trkpt>
      <trkpt lat="42.756365" lon="0.547243">
        <ele>2088.7</ele>
        <time>2018-09-16T10:31:33Z</time>
      </trkpt>
      <trkpt lat="42.756341" lon="0.547138">
        <ele>2094.0</ele>
        <time>2018-09-16T10:32:02Z</time>
      </trkpt>
      <trkpt lat="42.756323" lon="0.547037">
        <ele>2098.5</ele>
        <time>2018-09-16T10:32:46Z</time>
      </trkpt>
      <trkpt lat="42.756267" lon="0.546949">
        <ele>2103.1</ele>
        <time>2018-09-16T10:33:27Z</time>
      </trkpt>
      <trkpt lat="42.756227" lon="0.546793">
        <ele>2110.5</ele>
        <time>2018-09-16T10:34:30Z</time>
      </trkpt>
      <trkpt lat="42.756226" lon="0.546676">
        <ele>2112.2</ele>
        <time>2018-09-16T10:34:46Z</time>
      </trkpt>
      <trkpt lat="42.756204" lon="0.546540">
        <ele>2113.8</ele>
        <time>2018-09-16T10:35:05Z</time>
      </trkpt>
      <trkpt lat="42.756169" lon="0.546417">
        <ele>2116.1</ele>
        <time>2018-09-16T10:35:25Z</time>
      </trkpt>
      <trkpt lat="42.756146" lon="0.546314">
        <ele>2117.2</ele>
        <time>2018-09-16T10:35:39Z</time>
      </trkpt>
      <trkpt lat="42.756164" lon="0.546202">
        <ele>2118.9</ele>
        <time>2018-09-16T10:36:05Z</time>
      </trkpt>
      <trkpt lat="42.756136" lon="0.546087">
        <ele>2121.6</ele>
        <time>2018-09-16T10:36:30Z</time>
      </trkpt>
      <trkpt lat="42.756103" lon="0.545977">
        <ele>2128.6</ele>
        <time>2018-09-16T10:39:05Z</time>
      </trkpt>
      <trkpt lat="42.756063" lon="0.545863">
        <ele>2132.3</ele>
        <time>2018-09-16T10:39:52Z</time>
      </trkpt>
      <trkpt lat="42.756030" lon="0.545721">
        <ele>2131.7</ele>
        <time>2018-09-16T10:40:51Z</time>
      </trkpt>
      <trkpt lat="42.755997" lon="0.545715">
        <ele>2131.3</ele>
        <time>2018-09-16T10:41:41Z</time>
      </trkpt>
      <trkpt lat="42.755985" lon="0.545604">
        <ele>2134.4</ele>
        <time>2018-09-16T10:42:13Z</time>
      </trkpt>
      <trkpt lat="42.755965" lon="0.545533">
        <ele>2135.3</ele>
        <time>2018-09-16T10:43:13Z</time>
      </trkpt>
      <trkpt lat="42.755916" lon="0.545439">
        <ele>2138.6</ele>
        <time>2018-09-16T10:43:42Z</time>
      </trkpt>
      <trkpt lat="42.755892" lon="0.545378">
        <ele>2144.9</ele>
        <time>2018-09-16T10:44:48Z</time>
      </trkpt>
      <trkpt lat="42.755887" lon="0.545290">
        <ele>2152.2</ele>
        <time>2018-09-16T10:46:17Z</time>
      </trkpt>
      <trkpt lat="42.755914" lon="0.545190">
        <ele>2153.6</ele>
        <time>2018-09-16T10:46:48Z</time>
      </trkpt>
      <trkpt lat="42.755928" lon="0.545083">
        <ele>2156.5</ele>
        <time>2018-09-16T10:47:19Z</time>
      </trkpt>
      <trkpt lat="42.755933" lon="0.544976">
        <ele>2161.2</ele>
        <time>2018-09-16T10:48:16Z</time>
      </trkpt>
      <trkpt lat="42.755914" lon="0.544857">
        <ele>2162.1</ele>
        <time>2018-09-16T10:48:31Z</time>
      </trkpt>
      <trkpt lat="42.755922" lon="0.544732">
        <ele>2164.4</ele>
        <time>2018-09-16T10:48:53Z</time>
      </trkpt>
      <trkpt lat="42.755919" lon="0.544645">
        <ele>2167.0</ele>
        <time>2018-09-16T10:50:22Z</time>
      </trkpt>
      <trkpt lat="42.755885" lon="0.544515">
        <ele>2172.8</ele>
        <time>2018-09-16T10:51:05Z</time>
      </trkpt>
      <trkpt lat="42.755895" lon="0.544460">
        <ele>2177.4</ele>
        <time>2018-09-16T10:53:19Z</time>
      </trkpt>
      <trkpt lat="42.755908" lon="0.544366">
        <ele>2178.2</ele>
        <time>2018-09-16T10:55:51Z</time>
      </trkpt>
      <trkpt lat="42.755907" lon="0.544346">
        <ele>2179.6</ele>
        <time>2018-09-16T10:56:22Z</time>
      </trkpt>
      <trkpt lat="42.755900" lon="0.544347">
        <ele>2179.3</ele>
        <time>2018-09-16T10:56:47Z</time>
      </trkpt>
      <trkpt lat="42.755875" lon="0.544232">
        <ele>2177.3</ele>
        <time>2018-09-16T10:57:43Z</time>
      </trkpt>
      <trkpt lat="42.755829" lon="0.544163">
        <ele>2174.6</ele>
        <time>2018-09-16T10:58:38Z</time>
      </trkpt>
      <trkpt lat="42.755821" lon="0.544043">
        <ele>2175.8</ele>
        <time>2018-09-16T10:59:08Z</time>
      </trkpt>
      <trkpt lat="42.755777" lon="0.544002">
        <ele>2184.4</ele>
        <time>2018-09-16T11:00:28Z</time>
      </trkpt>
      <trkpt lat="42.755755" lon="0.543901">
        <ele>2191.8</ele>
        <time>2018-09-16T11:01:41Z</time>
      </trkpt>
      <trkpt lat="42.755818" lon="0.543802">
        <ele>2197.5</ele>
        <time>2018-09-16T11:02:41Z</time>
      </trkpt>
      <trkpt lat="42.755850" lon="0.543728">
        <ele>2201.8</ele>
        <time>2018-09-16T11:04:04Z</time>
      </trkpt>
      <trkpt lat="42.755862" lon="0.543603">
        <ele>2203.9</ele>
        <time>2018-09-16T11:04:25Z</time>
      </trkpt>
      <trkpt lat="42.755851" lon="0.543470">
        <ele>2208.7</ele>
        <time>2018-09-16T11:04:59Z</time>
      </trkpt>
      <trkpt lat="42.755853" lon="0.543360">
        <ele>2213.5</ele>
        <time>2018-09-16T11:05:36Z</time>
      </trkpt>
      <trkpt lat="42.755827" lon="0.543241">
        <ele>2217.9</ele>
        <time>2018-09-16T11:06:36Z</time>
      </trkpt>
      <trkpt lat="42.755771" lon="0.543137">
        <ele>2223.4</ele>
        <time>2018-09-16T11:07:36Z</time>
      </trkpt>
      <trkpt lat="42.755738" lon="0.543060">
        <ele>2229.5</ele>
        <time>2018-09-16T11:08:37Z</time>
      </trkpt>
      <trkpt lat="42.755754" lon="0.542942">
        <ele>2233.8</ele>
        <time>2018-09-16T11:09:04Z</time>
      </trkpt>
      <trkpt lat="42.755758" lon="0.542829">
        <ele>2240.0</ele>
        <time>2018-09-16T11:10:22Z</time>
      </trkpt>
      <trkpt lat="42.755761" lon="0.542712">
        <ele>2244.6</ele>
        <time>2018-09-16T11:10:51Z</time>
      </trkpt>
      <trkpt lat="42.755733" lon="0.542609">
        <ele>2250.6</ele>
        <time>2018-09-16T11:11:44Z</time>
      </trkpt>
      <trkpt lat="42.755698" lon="0.542514">
        <ele>2255.8</ele>
        <time>2018-09-16T11:12:17Z</time>
      </trkpt>
      <trkpt lat="42.755708" lon="0.542400">
        <ele>2259.8</ele>
        <time>2018-09-16T11:12:40Z</time>
      </trkpt>
      <trkpt lat="42.755725" lon="0.542313">
        <ele>2263.2</ele>
        <time>2018-09-16T11:13:23Z</time>
      </trkpt>
      <trkpt lat="42.755717" lon="0.542182">
        <ele>2262.7</ele>
        <time>2018-09-16T11:14:18Z</time>
      </trkpt>
      <trkpt lat="42.755717" lon="0.542156">
        <ele>2263.1</ele>
        <time>2018-09-16T11:18:45Z</time>
      </trkpt>
      <trkpt lat="42.755720" lon="0.542066">
        <ele>2266.1</ele>
        <time>2018-09-16T11:20:12Z</time>
      </trkpt>
      <trkpt lat="42.755737" lon="0.541946">
        <ele>2272.1</ele>
        <time>2018-09-16T11:20:47Z</time>
      </trkpt>
      <trkpt lat="42.755735" lon="0.541822">
        <ele>2279.5</ele>
        <time>2018-09-16T11:22:14Z</time>
      </trkpt>
      <trkpt lat="42.755767" lon="0.541748">
        <ele>2285.9</ele>
        <time>2018-09-16T11:23:38Z</time>
      </trkpt>
      <trkpt lat="42.755803" lon="0.541766">
        <ele>2291.8</ele>
        <time>2018-09-16T11:25:36Z</time>
      </trkpt>
      <trkpt lat="42.755810" lon="0.541654">
        <ele>2295.5</ele>
        <time>2018-09-16T11:26:06Z</time>
      </trkpt>
      <trkpt lat="42.755806" lon="0.541540">
        <ele>2298.6</ele>
        <time>2018-09-16T11:26:41Z</time>
      </trkpt>
      <trkpt lat="42.755851" lon="0.541438">
        <ele>2301.0</ele>
        <time>2018-09-16T11:27:00Z</time>
      </trkpt>
      <trkpt lat="42.755895" lon="0.541330">
        <ele>2304.0</ele>
        <time>2018-09-16T11:27:24Z</time>
      </trkpt>
      <trkpt lat="42.755932" lon="0.541227">
        <ele>2307.6</ele>
        <time>2018-09-16T11:27:47Z</time>
      </trkpt>
      <trkpt lat="42.755949" lon="0.541121">
        <ele>2311.6</ele>
        <time>2018-09-16T11:29:08Z</time>
      </trkpt>
      <trkpt lat="42.755981" lon="0.541000">
        <ele>2314.9</ele>
        <time>2018-09-16T11:29:39Z</time>
      </trkpt>
      <trkpt lat="42.755943" lon="0.540884">
        <ele>2314.4</ele>
        <time>2018-09-16T11:31:13Z</time>
      </trkpt>
      <trkpt lat="42.755941" lon="0.540768">
        <ele>2314.4</ele>
        <time>2018-09-16T11:31:28Z</time>
      </trkpt>
      <trkpt lat="42.755936" lon="0.540643">
        <ele>2313.3</ele>
        <time>2018-09-16T11:31:42Z</time>
      </trkpt>
      <trkpt lat="42.755948" lon="0.540545">
        <ele>2313.1</ele>
        <time>2018-09-16T11:32:27Z</time>
      </trkpt>
      <trkpt lat="42.755994" lon="0.540434">
        <ele>2315.5</ele>
        <time>2018-09-16T11:33:04Z</time>
      </trkpt>
      <trkpt lat="42.756044" lon="0.540340">
        <ele>2318.1</ele>
        <time>2018-09-16T11:33:22Z</time>
      </trkpt>
      <trkpt lat="42.756081" lon="0.540248">
        <ele>2318.8</ele>
        <time>2018-09-16T11:33:52Z</time>
      </trkpt>
      <trkpt lat="42.756091" lon="0.540138">
        <ele>2320.2</ele>
        <time>2018-09-16T11:34:16Z</time>
      </trkpt>
      <trkpt lat="42.756109" lon="0.540025">
        <ele>2322.3</ele>
        <time>2018-09-16T11:34:37Z</time>
      </trkpt>
      <trkpt lat="42.756121" lon="0.539930">
        <ele>2323.1</ele>
        <time>2018-09-16T11:35:02Z</time>
      </trkpt>
      <trkpt lat="42.756117" lon="0.539804">
        <ele>2322.8</ele>
        <time>2018-09-16T11:35:17Z</time>
      </trkpt>
      <trkpt lat="42.756107" lon="0.539686">
        <ele>2323.1</ele>
        <time>2018-09-16T11:35:32Z</time>
      </trkpt>
      <trkpt lat="42.756082" lon="0.539568">
        <ele>2322.8</ele>
        <time>2018-09-16T11:35:46Z</time>
      </trkpt>
      <trkpt lat="42.756082" lon="0.539447">
        <ele>2322.1</ele>
        <time>2018-09-16T11:36:05Z</time>
      </trkpt>
      <trkpt lat="42.756094" lon="0.539346">
        <ele>2325.6</ele>
        <time>2018-09-16T11:36:40Z</time>
      </trkpt>
      <trkpt lat="42.756165" lon="0.539312">
        <ele>2331.6</ele>
        <time>2018-09-16T11:37:48Z</time>
      </trkpt>
      <trkpt lat="42.756189" lon="0.539203">
        <ele>2334.6</ele>
        <time>2018-09-16T11:38:36Z</time>
      </trkpt>
      <trkpt lat="42.756263" lon="0.539132">
        <ele>2338.7</ele>
        <time>2018-09-16T11:39:40Z</time>
      </trkpt>
      <trkpt lat="42.756325" lon="0.539040">
        <ele>2342.5</ele>
        <time>2018-09-16T11:40:04Z</time>
      </trkpt>
      <trkpt lat="42.756382" lon="0.538945">
        <ele>2348.1</ele>
        <time>2018-09-16T11:40:55Z</time>
      </trkpt>
      <trkpt lat="42.756450" lon="0.538870">
        <ele>2353.2</ele>
        <time>2018-09-16T11:41:28Z</time>
      </trkpt>
      <trkpt lat="42.756529" lon="0.538808">
        <ele>2356.7</ele>
        <time>2018-09-16T11:41:57Z</time>
      </trkpt>
      <trkpt lat="42.756589" lon="0.538723">
        <ele>2360.9</ele>
        <time>2018-09-16T11:42:27Z</time>
      </trkpt>
      <trkpt lat="42.756669" lon="0.538709">
        <ele>2364.6</ele>
        <time>2018-09-16T11:43:33Z</time>
      </trkpt>
      <trkpt lat="42.756738" lon="0.538699">
        <ele>2369.1</ele>
        <time>2018-09-16T11:43:56Z</time>
      </trkpt>
      <trkpt lat="42.756823" lon="0.538690">
        <ele>2373.9</ele>
        <time>2018-09-16T11:44:19Z</time>
      </trkpt>
      <trkpt lat="42.756875" lon="0.538722">
        <ele>2378.3</ele>
        <time>2018-09-16T11:46:29Z</time>
      </trkpt>
      <trkpt lat="42.756918" lon="0.538642">
        <ele>2380.4</ele>
        <time>2018-09-16T11:46:46Z</time>
      </trkpt>
      <trkpt lat="42.756981" lon="0.538582">
        <ele>2383.3</ele>
        <time>2018-09-16T11:47:23Z</time>
      </trkpt>
      <trkpt lat="42.756996" lon="0.538481">
        <ele>2387.1</ele>
        <time>2018-09-16T11:47:56Z</time>
      </trkpt>
      <trkpt lat="42.757021" lon="0.538365">
        <ele>2389.3</ele>
        <time>2018-09-16T11:48:17Z</time>
      </trkpt>
      <trkpt lat="42.757003" lon="0.538254">
        <ele>2392.3</ele>
        <time>2018-09-16T11:48:37Z</time>
      </trkpt>
      <trkpt lat="42.757008" lon="0.538129">
        <ele>2392.6</ele>
        <time>2018-09-16T11:48:50Z</time>
      </trkpt>
      <trkpt lat="42.757075" lon="0.538040">
        <ele>2393.5</ele>
        <time>2018-09-16T11:49:03Z</time>
      </trkpt>
      <trkpt lat="42.757152" lon="0.537994">
        <ele>2395.7</ele>
        <time>2018-09-16T11:49:22Z</time>
      </trkpt>
      <trkpt lat="42.757256" lon="0.538022">
        <ele>2396.7</ele>
        <time>2018-09-16T11:49:56Z</time>
      </trkpt>
      <trkpt lat="42.757285" lon="0.538034">
        <ele>2397.2</ele>
        <time>2018-09-16T11:50:53Z</time>
      </trkpt>
      <trkpt lat="42.757252" lon="0.538025">
        <ele>2397.9</ele>
        <time>2018-09-16T11:52:52Z</time>
      </trkpt>
      <trkpt lat="42.757328" lon="0.538014">
        <ele>2397.2</ele>
        <time>2018-09-16T11:53:37Z</time>
      </trkpt>
      <trkpt lat="42.757398" lon="0.537932">
        <ele>2395.7</ele>
        <time>2018-09-16T11:53:50Z</time>
      </trkpt>
      <trkpt lat="42.757487" lon="0.537864">
        <ele>2394.2</ele>
        <time>2018-09-16T11:54:02Z</time>
      </trkpt>
      <trkpt lat="42.757566" lon="0.537815">
        <ele>2393.6</ele>
        <time>2018-09-16T11:54:23Z</time>
      </trkpt>
      <trkpt lat="42.757659" lon="0.537766">
        <ele>2391.6</ele>
        <time>2018-09-16T11:54:36Z</time>
      </trkpt>
      <trkpt lat="42.757742" lon="0.537683">
        <ele>2390.8</ele>
        <time>2018-09-16T11:54:51Z</time>
      </trkpt>
      <trkpt lat="42.757753" lon="0.537653">
        <ele>2390.8</ele>
        <time>2018-09-16T11:55:40Z</time>
      </trkpt>
      <trkpt lat="42.757741" lon="0.537525">
        <ele>2388.9</ele>
        <time>2018-09-16T11:55:58Z</time>
      </trkpt>
      <trkpt lat="42.757769" lon="0.537405">
        <ele>2386.8</ele>
        <time>2018-09-16T11:56:13Z</time>
      </trkpt>
      <trkpt lat="42.757778" lon="0.537277">
        <ele>2383.4</ele>
        <time>2018-09-16T11:56:29Z</time>
      </trkpt>
      <trkpt lat="42.757859" lon="0.537212">
        <ele>2381.6</ele>
        <time>2018-09-16T11:56:42Z</time>
      </trkpt>
      <trkpt lat="42.757938" lon="0.537127">
        <ele>2382.7</ele>
        <time>2018-09-16T11:56:56Z</time>
      </trkpt>
      <trkpt lat="42.758028" lon="0.537083">
        <ele>2383.7</ele>
        <time>2018-09-16T11:57:30Z</time>
      </trkpt>
      <trkpt lat="42.758089" lon="0.536969">
        <ele>2382.2</ele>
        <time>2018-09-16T11:57:42Z</time>
      </trkpt>
      <trkpt lat="42.758180" lon="0.536975">
        <ele>2380.3</ele>
        <time>2018-09-16T11:57:52Z</time>
      </trkpt>
      <trkpt lat="42.758236" lon="0.537074">
        <ele>2381.8</ele>
        <time>2018-09-16T11:58:16Z</time>
      </trkpt>
      <trkpt lat="42.758298" lon="0.537147">
        <ele>2383.9</ele>
        <time>2018-09-16T11:59:38Z</time>
      </trkpt>
      <trkpt lat="42.758324" lon="0.537167">
        <ele>2387.5</ele>
        <time>2018-09-16T13:28:05Z</time>
      </trkpt>
      <trkpt lat="42.758353" lon="0.537226">
        <ele>2388.0</ele>
        <time>2018-09-16T13:29:42Z</time>
      </trkpt>
      <trkpt lat="42.758423" lon="0.537181">
        <ele>2385.8</ele>
        <time>2018-09-16T13:29:55Z</time>
      </trkpt>
      <trkpt lat="42.758497" lon="0.537209">
        <ele>2381.4</ele>
        <time>2018-09-16T13:30:11Z</time>
      </trkpt>
      <trkpt lat="42.758565" lon="0.537193">
        <ele>2377.6</ele>
        <time>2018-09-16T13:30:25Z</time>
      </trkpt>
      <trkpt lat="42.758623" lon="0.537224">
        <ele>2372.9</ele>
        <time>2018-09-16T13:30:42Z</time>
      </trkpt>
      <trkpt lat="42.758684" lon="0.537162">
        <ele>2368.2</ele>
        <time>2018-09-16T13:31:00Z</time>
      </trkpt>
      <trkpt lat="42.758753" lon="0.537195">
        <ele>2363.7</ele>
        <time>2018-09-16T13:31:18Z</time>
      </trkpt>
      <trkpt lat="42.758823" lon="0.537210">
        <ele>2359.1</ele>
        <time>2018-09-16T13:31:38Z</time>
      </trkpt>
      <trkpt lat="42.758915" lon="0.537223">
        <ele>2355.4</ele>
        <time>2018-09-16T13:31:54Z</time>
      </trkpt>
      <trkpt lat="42.759000" lon="0.537194">
        <ele>2350.9</ele>
        <time>2018-09-16T13:32:11Z</time>
      </trkpt>
      <trkpt lat="42.759062" lon="0.537231">
        <ele>2347.6</ele>
        <time>2018-09-16T13:32:57Z</time>
      </trkpt>
      <trkpt lat="42.759166" lon="0.537221">
        <ele>2346.9</ele>
        <time>2018-09-16T13:33:39Z</time>
      </trkpt>
      <trkpt lat="42.759254" lon="0.537238">
        <ele>2345.5</ele>
        <time>2018-09-16T13:33:48Z</time>
      </trkpt>
      <trkpt lat="42.759352" lon="0.537280">
        <ele>2344.6</ele>
        <time>2018-09-16T13:33:58Z</time>
      </trkpt>
      <trkpt lat="42.759438" lon="0.537334">
        <ele>2343.9</ele>
        <time>2018-09-16T13:34:08Z</time>
      </trkpt>
      <trkpt lat="42.759524" lon="0.537378">
        <ele>2344.7</ele>
        <time>2018-09-16T13:34:20Z</time>
      </trkpt>
      <trkpt lat="42.759612" lon="0.537318">
        <ele>2345.0</ele>
        <time>2018-09-16T13:34:35Z</time>
      </trkpt>
      <trkpt lat="42.759693" lon="0.537261">
        <ele>2342.1</ele>
        <time>2018-09-16T13:34:51Z</time>
      </trkpt>
      <trkpt lat="42.759780" lon="0.537266">
        <ele>2337.8</ele>
        <time>2018-09-16T13:35:19Z</time>
      </trkpt>
      <trkpt lat="42.759812" lon="0.537213">
        <ele>2333.2</ele>
        <time>2018-09-16T13:35:42Z</time>
      </trkpt>
      <trkpt lat="42.759863" lon="0.537154">
        <ele>2328.2</ele>
        <time>2018-09-16T13:36:03Z</time>
      </trkpt>
      <trkpt lat="42.759952" lon="0.537196">
        <ele>2326.0</ele>
        <time>2018-09-16T13:37:48Z</time>
      </trkpt>
      <trkpt lat="42.760032" lon="0.537188">
        <ele>2323.1</ele>
        <time>2018-09-16T13:37:59Z</time>
      </trkpt>
      <trkpt lat="42.760114" lon="0.537176">
        <ele>2319.9</ele>
        <time>2018-09-16T13:38:12Z</time>
      </trkpt>
      <trkpt lat="42.760181" lon="0.537101">
        <ele>2316.8</ele>
        <time>2018-09-16T13:38:26Z</time>
      </trkpt>
      <trkpt lat="42.760250" lon="0.537122">
        <ele>2314.3</ele>
        <time>2018-09-16T13:38:49Z</time>
      </trkpt>
      <trkpt lat="42.760320" lon="0.537205">
        <ele>2310.9</ele>
        <time>2018-09-16T13:39:03Z</time>
      </trkpt>
      <trkpt lat="42.760380" lon="0.537201">
        <ele>2307.5</ele>
        <time>2018-09-16T13:39:21Z</time>
      </trkpt>
      <trkpt lat="42.760450" lon="0.537268">
        <ele>2303.2</ele>
        <time>2018-09-16T13:40:32Z</time>
      </trkpt>
      <trkpt lat="42.760524" lon="0.537343">
        <ele>2299.6</ele>
        <time>2018-09-16T13:40:51Z</time>
      </trkpt>
      <trkpt lat="42.760567" lon="0.537374">
        <ele>2294.8</ele>
        <time>2018-09-16T13:42:03Z</time>
      </trkpt>
      <trkpt lat="42.760642" lon="0.537336">
        <ele>2291.0</ele>
        <time>2018-09-16T13:42:24Z</time>
      </trkpt>
      <trkpt lat="42.760680" lon="0.537337">
        <ele>2287.2</ele>
        <time>2018-09-16T13:43:08Z</time>
      </trkpt>
      <trkpt lat="42.760706" lon="0.537418">
        <ele>2283.5</ele>
        <time>2018-09-16T13:43:48Z</time>
      </trkpt>
      <trkpt lat="42.760783" lon="0.537492">
        <ele>2281.1</ele>
        <time>2018-09-16T13:44:01Z</time>
      </trkpt>
      <trkpt lat="42.760866" lon="0.537522">
        <ele>2277.2</ele>
        <time>2018-09-16T13:44:17Z</time>
      </trkpt>
      <trkpt lat="42.760903" lon="0.537589">
        <ele>2273.2</ele>
        <time>2018-09-16T13:45:03Z</time>
      </trkpt>
      <trkpt lat="42.760971" lon="0.537644">
        <ele>2269.8</ele>
        <time>2018-09-16T13:45:21Z</time>
      </trkpt>
      <trkpt lat="42.761032" lon="0.537661">
        <ele>2265.1</ele>
        <time>2018-09-16T13:45:56Z</time>
      </trkpt>
      <trkpt lat="42.761113" lon="0.537682">
        <ele>2260.7</ele>
        <time>2018-09-16T13:46:17Z</time>
      </trkpt>
      <trkpt lat="42.761188" lon="0.537755">
        <ele>2257.7</ele>
        <time>2018-09-16T13:46:50Z</time>
      </trkpt>
      <trkpt lat="42.761269" lon="0.537807">
        <ele>2254.4</ele>
        <time>2018-09-16T13:47:01Z</time>
      </trkpt>
      <trkpt lat="42.761355" lon="0.537867">
        <ele>2252.0</ele>
        <time>2018-09-16T13:47:12Z</time>
      </trkpt>
      <trkpt lat="42.761436" lon="0.537909">
        <ele>2249.2</ele>
        <time>2018-09-16T13:47:22Z</time>
      </trkpt>
      <trkpt lat="42.761527" lon="0.537904">
        <ele>2247.3</ele>
        <time>2018-09-16T13:47:32Z</time>
      </trkpt>
      <trkpt lat="42.761614" lon="0.537918">
        <ele>2246.1</ele>
        <time>2018-09-16T13:47:44Z</time>
      </trkpt>
      <trkpt lat="42.761711" lon="0.537975">
        <ele>2245.3</ele>
        <time>2018-09-16T13:47:57Z</time>
      </trkpt>
      <trkpt lat="42.761791" lon="0.538048">
        <ele>2244.4</ele>
        <time>2018-09-16T13:48:11Z</time>
      </trkpt>
      <trkpt lat="42.761871" lon="0.538126">
        <ele>2244.1</ele>
        <time>2018-09-16T13:48:23Z</time>
      </trkpt>
      <trkpt lat="42.761959" lon="0.538183">
        <ele>2243.9</ele>
        <time>2018-09-16T13:48:33Z</time>
      </trkpt>
      <trkpt lat="42.762036" lon="0.538255">
        <ele>2243.4</ele>
        <time>2018-09-16T13:48:44Z</time>
      </trkpt>
      <trkpt lat="42.762142" lon="0.538289">
        <ele>2242.9</ele>
        <time>2018-09-16T13:49:17Z</time>
      </trkpt>
      <trkpt lat="42.762225" lon="0.538350">
        <ele>2241.8</ele>
        <time>2018-09-16T13:49:27Z</time>
      </trkpt>
      <trkpt lat="42.762310" lon="0.538403">
        <ele>2240.9</ele>
        <time>2018-09-16T13:49:35Z</time>
      </trkpt>
      <trkpt lat="42.762382" lon="0.538472">
        <ele>2239.0</ele>
        <time>2018-09-16T13:49:45Z</time>
      </trkpt>
      <trkpt lat="42.762428" lon="0.538543">
        <ele>2236.1</ele>
        <time>2018-09-16T13:51:13Z</time>
      </trkpt>
      <trkpt lat="42.762491" lon="0.538639">
        <ele>2234.3</ele>
        <time>2018-09-16T13:51:54Z</time>
      </trkpt>
      <trkpt lat="42.762559" lon="0.538733">
        <ele>2232.0</ele>
        <time>2018-09-16T13:52:08Z</time>
      </trkpt>
      <trkpt lat="42.762632" lon="0.538813">
        <ele>2229.5</ele>
        <time>2018-09-16T13:52:28Z</time>
      </trkpt>
      <trkpt lat="42.762717" lon="0.538877">
        <ele>2227.4</ele>
        <time>2018-09-16T13:52:39Z</time>
      </trkpt>
      <trkpt lat="42.762795" lon="0.538957">
        <ele>2226.1</ele>
        <time>2018-09-16T13:52:49Z</time>
      </trkpt>
      <trkpt lat="42.762872" lon="0.539030">
        <ele>2225.4</ele>
        <time>2018-09-16T13:52:59Z</time>
      </trkpt>
      <trkpt lat="42.762951" lon="0.539094">
        <ele>2225.1</ele>
        <time>2018-09-16T13:53:31Z</time>
      </trkpt>
      <trkpt lat="42.763045" lon="0.539149">
        <ele>2225.5</ele>
        <time>2018-09-16T13:53:40Z</time>
      </trkpt>
      <trkpt lat="42.763135" lon="0.539217">
        <ele>2225.0</ele>
        <time>2018-09-16T13:53:49Z</time>
      </trkpt>
      <trkpt lat="42.763229" lon="0.539265">
        <ele>2225.2</ele>
        <time>2018-09-16T13:53:58Z</time>
      </trkpt>
      <trkpt lat="42.763317" lon="0.539298">
        <ele>2226.6</ele>
        <time>2018-09-16T13:54:07Z</time>
      </trkpt>
      <trkpt lat="42.763402" lon="0.539346">
        <ele>2228.2</ele>
        <time>2018-09-16T13:54:17Z</time>
      </trkpt>
      <trkpt lat="42.763461" lon="0.539425">
        <ele>2229.6</ele>
        <time>2018-09-16T13:54:30Z</time>
      </trkpt>
      <trkpt lat="42.763529" lon="0.539514">
        <ele>2231.3</ele>
        <time>2018-09-16T13:54:40Z</time>
      </trkpt>
      <trkpt lat="42.763615" lon="0.539538">
        <ele>2232.3</ele>
        <time>2018-09-16T13:54:50Z</time>
      </trkpt>
      <trkpt lat="42.763677" lon="0.539613">
        <ele>2233.1</ele>
        <time>2018-09-16T13:55:39Z</time>
      </trkpt>
      <trkpt lat="42.763738" lon="0.539688">
        <ele>2231.8</ele>
        <time>2018-09-16T13:55:51Z</time>
      </trkpt>
      <trkpt lat="42.763832" lon="0.539735">
        <ele>2229.8</ele>
        <time>2018-09-16T13:56:02Z</time>
      </trkpt>
      <trkpt lat="42.763930" lon="0.539756">
        <ele>2226.9</ele>
        <time>2018-09-16T13:56:14Z</time>
      </trkpt>
      <trkpt lat="42.764030" lon="0.539757">
        <ele>2225.3</ele>
        <time>2018-09-16T13:56:26Z</time>
      </trkpt>
      <trkpt lat="42.764113" lon="0.539792">
        <ele>2222.4</ele>
        <time>2018-09-16T13:56:38Z</time>
      </trkpt>
      <trkpt lat="42.764200" lon="0.539800">
        <ele>2218.8</ele>
        <time>2018-09-16T13:56:50Z</time>
      </trkpt>
      <trkpt lat="42.764285" lon="0.539817">
        <ele>2216.0</ele>
        <time>2018-09-16T13:57:00Z</time>
      </trkpt>
      <trkpt lat="42.764374" lon="0.539811">
        <ele>2214.2</ele>
        <time>2018-09-16T13:57:09Z</time>
      </trkpt>
      <trkpt lat="42.764453" lon="0.539863">
        <ele>2211.8</ele>
        <time>2018-09-16T13:57:18Z</time>
      </trkpt>
      <trkpt lat="42.764537" lon="0.539938">
        <ele>2209.6</ele>
        <time>2018-09-16T13:57:28Z</time>
      </trkpt>
      <trkpt lat="42.764616" lon="0.539892">
        <ele>2206.3</ele>
        <time>2018-09-16T13:57:41Z</time>
      </trkpt>
      <trkpt lat="42.764704" lon="0.539915">
        <ele>2202.3</ele>
        <time>2018-09-16T13:57:54Z</time>
      </trkpt>
      <trkpt lat="42.764769" lon="0.539902">
        <ele>2197.7</ele>
        <time>2018-09-16T13:58:10Z</time>
      </trkpt>
      <trkpt lat="42.764839" lon="0.539985">
        <ele>2193.6</ele>
        <time>2018-09-16T13:58:25Z</time>
      </trkpt>
      <trkpt lat="42.764915" lon="0.540012">
        <ele>2189.3</ele>
        <time>2018-09-16T13:58:41Z</time>
      </trkpt>
      <trkpt lat="42.764961" lon="0.540098">
        <ele>2185.9</ele>
        <time>2018-09-16T13:58:51Z</time>
      </trkpt>
      <trkpt lat="42.765005" lon="0.540068">
        <ele>2182.7</ele>
        <time>2018-09-16T13:59:13Z</time>
      </trkpt>
      <trkpt lat="42.765091" lon="0.540067">
        <ele>2179.3</ele>
        <time>2018-09-16T13:59:30Z</time>
      </trkpt>
      <trkpt lat="42.765180" lon="0.540025">
        <ele>2176.8</ele>
        <time>2018-09-16T13:59:43Z</time>
      </trkpt>
      <trkpt lat="42.765257" lon="0.540039">
        <ele>2173.8</ele>
        <time>2018-09-16T13:59:59Z</time>
      </trkpt>
      <trkpt lat="42.765339" lon="0.540097">
        <ele>2170.9</ele>
        <time>2018-09-16T14:00:12Z</time>
      </trkpt>
      <trkpt lat="42.765404" lon="0.540131">
        <ele>2166.1</ele>
        <time>2018-09-16T14:01:49Z</time>
      </trkpt>
      <trkpt lat="42.765491" lon="0.540168">
        <ele>2165.3</ele>
        <time>2018-09-16T14:02:00Z</time>
      </trkpt>
      <trkpt lat="42.765575" lon="0.540172">
        <ele>2163.9</ele>
        <time>2018-09-16T14:02:11Z</time>
      </trkpt>
      <trkpt lat="42.765632" lon="0.540124">
        <ele>2161.2</ele>
        <time>2018-09-16T14:02:23Z</time>
      </trkpt>
      <trkpt lat="42.765721" lon="0.540107">
        <ele>2157.6</ele>
        <time>2018-09-16T14:02:36Z</time>
      </trkpt>
      <trkpt lat="42.765810" lon="0.540111">
        <ele>2153.9</ele>
        <time>2018-09-16T14:02:49Z</time>
      </trkpt>
      <trkpt lat="42.765909" lon="0.540117">
        <ele>2150.8</ele>
        <time>2018-09-16T14:03:03Z</time>
      </trkpt>
      <trkpt lat="42.765989" lon="0.540170">
        <ele>2149.0</ele>
        <time>2018-09-16T14:03:14Z</time>
      </trkpt>
      <trkpt lat="42.766086" lon="0.540203">
        <ele>2147.6</ele>
        <time>2018-09-16T14:03:24Z</time>
      </trkpt>
      <trkpt lat="42.766174" lon="0.540228">
        <ele>2147.1</ele>
        <time>2018-09-16T14:03:34Z</time>
      </trkpt>
      <trkpt lat="42.766227" lon="0.540146">
        <ele>2145.5</ele>
        <time>2018-09-16T14:03:47Z</time>
      </trkpt>
      <trkpt lat="42.766315" lon="0.540195">
        <ele>2142.0</ele>
        <time>2018-09-16T14:04:00Z</time>
      </trkpt>
      <trkpt lat="42.766403" lon="0.540189">
        <ele>2137.6</ele>
        <time>2018-09-16T14:04:14Z</time>
      </trkpt>
      <trkpt lat="42.766495" lon="0.540230">
        <ele>2133.8</ele>
        <time>2018-09-16T14:04:26Z</time>
      </trkpt>
      <trkpt lat="42.766587" lon="0.540247">
        <ele>2131.2</ele>
        <time>2018-09-16T14:04:38Z</time>
      </trkpt>
      <trkpt lat="42.766664" lon="0.540194">
        <ele>2129.1</ele>
        <time>2018-09-16T14:05:09Z</time>
      </trkpt>
      <trkpt lat="42.766759" lon="0.540177">
        <ele>2129.2</ele>
        <time>2018-09-16T14:05:18Z</time>
      </trkpt>
      <trkpt lat="42.766850" lon="0.540226">
        <ele>2128.5</ele>
        <time>2018-09-16T14:05:27Z</time>
      </trkpt>
      <trkpt lat="42.766938" lon="0.540277">
        <ele>2127.5</ele>
        <time>2018-09-16T14:05:36Z</time>
      </trkpt>
      <trkpt lat="42.767011" lon="0.540351">
        <ele>2125.9</ele>
        <time>2018-09-16T14:05:47Z</time>
      </trkpt>
      <trkpt lat="42.767078" lon="0.540442">
        <ele>2124.5</ele>
        <time>2018-09-16T14:05:57Z</time>
      </trkpt>
      <trkpt lat="42.767141" lon="0.540537">
        <ele>2122.6</ele>
        <time>2018-09-16T14:06:10Z</time>
      </trkpt>
      <trkpt lat="42.767217" lon="0.540607">
        <ele>2119.8</ele>
        <time>2018-09-16T14:06:19Z</time>
      </trkpt>
      <trkpt lat="42.767286" lon="0.540692">
        <ele>2117.8</ele>
        <time>2018-09-16T14:06:29Z</time>
      </trkpt>
      <trkpt lat="42.767336" lon="0.540801">
        <ele>2115.4</ele>
        <time>2018-09-16T14:06:40Z</time>
      </trkpt>
      <trkpt lat="42.767404" lon="0.540892">
        <ele>2113.5</ele>
        <time>2018-09-16T14:06:50Z</time>
      </trkpt>
      <trkpt lat="42.767476" lon="0.540962">
        <ele>2110.1</ele>
        <time>2018-09-16T14:07:02Z</time>
      </trkpt>
      <trkpt lat="42.767552" lon="0.541025">
        <ele>2106.4</ele>
        <time>2018-09-16T14:07:14Z</time>
      </trkpt>
      <trkpt lat="42.767595" lon="0.541150">
        <ele>2103.6</ele>
        <time>2018-09-16T14:07:26Z</time>
      </trkpt>
      <trkpt lat="42.767647" lon="0.541259">
        <ele>2102.0</ele>
        <time>2018-09-16T14:07:37Z</time>
      </trkpt>
      <trkpt lat="42.767717" lon="0.541344">
        <ele>2100.4</ele>
        <time>2018-09-16T14:07:48Z</time>
      </trkpt>
      <trkpt lat="42.767784" lon="0.541415">
        <ele>2098.8</ele>
        <time>2018-09-16T14:07:58Z</time>
      </trkpt>
      <trkpt lat="42.767876" lon="0.541434">
        <ele>2096.0</ele>
        <time>2018-09-16T14:08:08Z</time>
      </trkpt>
      <trkpt lat="42.767952" lon="0.541438">
        <ele>2093.1</ele>
        <time>2018-09-16T14:08:50Z</time>
      </trkpt>
      <trkpt lat="42.768034" lon="0.541387">
        <ele>2090.5</ele>
        <time>2018-09-16T14:09:01Z</time>
      </trkpt>
      <trkpt lat="42.768111" lon="0.541356">
        <ele>2085.9</ele>
        <time>2018-09-16T14:09:28Z</time>
      </trkpt>
      <trkpt lat="42.768194" lon="0.541289">
        <ele>2084.3</ele>
        <time>2018-09-16T14:09:40Z</time>
      </trkpt>
      <trkpt lat="42.768257" lon="0.541244">
        <ele>2080.8</ele>
        <time>2018-09-16T14:09:54Z</time>
      </trkpt>
      <trkpt lat="42.768323" lon="0.541185">
        <ele>2077.0</ele>
        <time>2018-09-16T14:10:09Z</time>
      </trkpt>
      <trkpt lat="42.768407" lon="0.541236">
        <ele>2074.0</ele>
        <time>2018-09-16T14:10:22Z</time>
      </trkpt>
      <trkpt lat="42.768490" lon="0.541194">
        <ele>2069.6</ele>
        <time>2018-09-16T14:10:36Z</time>
      </trkpt>
      <trkpt lat="42.768553" lon="0.541110">
        <ele>2065.8</ele>
        <time>2018-09-16T14:10:50Z</time>
      </trkpt>
      <trkpt lat="42.768607" lon="0.541002">
        <ele>2061.4</ele>
        <time>2018-09-16T14:11:04Z</time>
      </trkpt>
      <trkpt lat="42.768651" lon="0.540921">
        <ele>2058.1</ele>
        <time>2018-09-16T14:11:16Z</time>
      </trkpt>
      <trkpt lat="42.768755" lon="0.540950">
        <ele>2053.5</ele>
        <time>2018-09-16T14:11:31Z</time>
      </trkpt>
      <trkpt lat="42.768839" lon="0.541005">
        <ele>2049.1</ele>
        <time>2018-09-16T14:11:45Z</time>
      </trkpt>
      <trkpt lat="42.768921" lon="0.541081">
        <ele>2045.1</ele>
        <time>2018-09-16T14:11:59Z</time>
      </trkpt>
      <trkpt lat="42.768997" lon="0.541015">
        <ele>2040.1</ele>
        <time>2018-09-16T14:12:16Z</time>
      </trkpt>
      <trkpt lat="42.769063" lon="0.540939">
        <ele>2035.1</ele>
        <time>2018-09-16T14:12:34Z</time>
      </trkpt>
      <trkpt lat="42.769133" lon="0.540842">
        <ele>2030.1</ele>
        <time>2018-09-16T14:12:50Z</time>
      </trkpt>
      <trkpt lat="42.769202" lon="0.540793">
        <ele>2024.8</ele>
        <time>2018-09-16T14:13:06Z</time>
      </trkpt>
      <trkpt lat="42.769290" lon="0.540857">
        <ele>2021.5</ele>
        <time>2018-09-16T14:13:20Z</time>
      </trkpt>
      <trkpt lat="42.769372" lon="0.540918">
        <ele>2019.1</ele>
        <time>2018-09-16T14:13:33Z</time>
      </trkpt>
      <trkpt lat="42.769459" lon="0.540979">
        <ele>2016.8</ele>
        <time>2018-09-16T14:13:46Z</time>
      </trkpt>
      <trkpt lat="42.769542" lon="0.541038">
        <ele>2013.9</ele>
        <time>2018-09-16T14:13:59Z</time>
      </trkpt>
      <trkpt lat="42.769629" lon="0.541058">
        <ele>2010.4</ele>
        <time>2018-09-16T14:14:14Z</time>
      </trkpt>
      <trkpt lat="42.769702" lon="0.541011">
        <ele>2006.9</ele>
        <time>2018-09-16T14:14:27Z</time>
      </trkpt>
      <trkpt lat="42.769787" lon="0.541053">
        <ele>2003.7</ele>
        <time>2018-09-16T14:14:39Z</time>
      </trkpt>
      <trkpt lat="42.769875" lon="0.541096">
        <ele>1999.4</ele>
        <time>2018-09-16T14:15:02Z</time>
      </trkpt>
      <trkpt lat="42.769959" lon="0.541122">
        <ele>1996.1</ele>
        <time>2018-09-16T14:15:14Z</time>
      </trkpt>
      <trkpt lat="42.770038" lon="0.541199">
        <ele>1993.4</ele>
        <time>2018-09-16T14:15:25Z</time>
      </trkpt>
      <trkpt lat="42.770121" lon="0.541241">
        <ele>1990.2</ele>
        <time>2018-09-16T14:15:39Z</time>
      </trkpt>
      <trkpt lat="42.770206" lon="0.541281">
        <ele>1987.6</ele>
        <time>2018-09-16T14:15:50Z</time>
      </trkpt>
      <trkpt lat="42.770290" lon="0.541304">
        <ele>1983.4</ele>
        <time>2018-09-16T14:16:04Z</time>
      </trkpt>
      <trkpt lat="42.770372" lon="0.541242">
        <ele>1979.6</ele>
        <time>2018-09-16T14:16:18Z</time>
      </trkpt>
      <trkpt lat="42.770459" lon="0.541205">
        <ele>1975.0</ele>
        <time>2018-09-16T14:16:33Z</time>
      </trkpt>
      <trkpt lat="42.770541" lon="0.541276">
        <ele>1969.3</ele>
        <time>2018-09-16T14:16:52Z</time>
      </trkpt>
      <trkpt lat="42.770618" lon="0.541245">
        <ele>1965.7</ele>
        <time>2018-09-16T14:17:07Z</time>
      </trkpt>
      <trkpt lat="42.770679" lon="0.541153">
        <ele>1961.6</ele>
        <time>2018-09-16T14:17:20Z</time>
      </trkpt>
      <trkpt lat="42.770758" lon="0.541091">
        <ele>1956.7</ele>
        <time>2018-09-16T14:17:35Z</time>
      </trkpt>
      <trkpt lat="42.770843" lon="0.541067">
        <ele>1952.4</ele>
        <time>2018-09-16T14:17:49Z</time>
      </trkpt>
      <trkpt lat="42.770927" lon="0.541048">
        <ele>1947.8</ele>
        <time>2018-09-16T14:18:03Z</time>
      </trkpt>
      <trkpt lat="42.771016" lon="0.541088">
        <ele>1943.7</ele>
        <time>2018-09-16T14:18:14Z</time>
      </trkpt>
      <trkpt lat="42.771090" lon="0.541150">
        <ele>1938.5</ele>
        <time>2018-09-16T14:18:46Z</time>
      </trkpt>
      <trkpt lat="42.771186" lon="0.541193">
        <ele>1937.8</ele>
        <time>2018-09-16T14:19:53Z</time>
      </trkpt>
      <trkpt lat="42.771269" lon="0.541282">
        <ele>1936.3</ele>
        <time>2018-09-16T14:20:01Z</time>
      </trkpt>
      <trkpt lat="42.771359" lon="0.541369">
        <ele>1935.2</ele>
        <time>2018-09-16T14:20:09Z</time>
      </trkpt>
      <trkpt lat="42.771437" lon="0.541446">
        <ele>1934.0</ele>
        <time>2018-09-16T14:20:19Z</time>
      </trkpt>
      <trkpt lat="42.771526" lon="0.541517">
        <ele>1933.4</ele>
        <time>2018-09-16T14:20:28Z</time>
      </trkpt>
      <trkpt lat="42.771623" lon="0.541550">
        <ele>1932.5</ele>
        <time>2018-09-16T14:20:37Z</time>
      </trkpt>
      <trkpt lat="42.771715" lon="0.541610">
        <ele>1931.6</ele>
        <time>2018-09-16T14:20:46Z</time>
      </trkpt>
      <trkpt lat="42.771798" lon="0.541659">
        <ele>1930.8</ele>
        <time>2018-09-16T14:20:56Z</time>
      </trkpt>
      <trkpt lat="42.771893" lon="0.541718">
        <ele>1928.8</ele>
        <time>2018-09-16T14:21:08Z</time>
      </trkpt>
      <trkpt lat="42.771945" lon="0.541813">
        <ele>1927.9</ele>
        <time>2018-09-16T14:21:27Z</time>
      </trkpt>
      <trkpt lat="42.772028" lon="0.541872">
        <ele>1926.9</ele>
        <time>2018-09-16T14:21:47Z</time>
      </trkpt>
      <trkpt lat="42.772108" lon="0.541954">
        <ele>1924.7</ele>
        <time>2018-09-16T14:22:02Z</time>
      </trkpt>
      <trkpt lat="42.772185" lon="0.542031">
        <ele>1923.4</ele>
        <time>2018-09-16T14:22:15Z</time>
      </trkpt>
      <trkpt lat="42.772272" lon="0.542078">
        <ele>1921.1</ele>
        <time>2018-09-16T14:22:26Z</time>
      </trkpt>
      <trkpt lat="42.772334" lon="0.542163">
        <ele>1919.2</ele>
        <time>2018-09-16T14:22:37Z</time>
      </trkpt>
      <trkpt lat="42.772393" lon="0.542253">
        <ele>1917.9</ele>
        <time>2018-09-16T14:22:49Z</time>
      </trkpt>
      <trkpt lat="42.772437" lon="0.542328">
        <ele>1916.4</ele>
        <time>2018-09-16T14:23:06Z</time>
      </trkpt>
      <trkpt lat="42.772519" lon="0.542338">
        <ele>1914.9</ele>
        <time>2018-09-16T14:23:20Z</time>
      </trkpt>
      <trkpt lat="42.772595" lon="0.542390">
        <ele>1913.2</ele>
        <time>2018-09-16T14:23:53Z</time>
      </trkpt>
      <trkpt lat="42.772682" lon="0.542437">
        <ele>1912.3</ele>
        <time>2018-09-16T14:24:03Z</time>
      </trkpt>
      <trkpt lat="42.772775" lon="0.542468">
        <ele>1911.1</ele>
        <time>2018-09-16T14:24:13Z</time>
      </trkpt>
      <trkpt lat="42.772880" lon="0.542476">
        <ele>1909.2</ele>
        <time>2018-09-16T14:24:24Z</time>
      </trkpt>
      <trkpt lat="42.772970" lon="0.542460">
        <ele>1907.1</ele>
        <time>2018-09-16T14:24:34Z</time>
      </trkpt>
      <trkpt lat="42.773059" lon="0.542474">
        <ele>1905.7</ele>
        <time>2018-09-16T14:24:43Z</time>
      </trkpt>
      <trkpt lat="42.773141" lon="0.542488">
        <ele>1902.8</ele>
        <time>2018-09-16T14:25:05Z</time>
      </trkpt>
      <trkpt lat="42.773228" lon="0.542473">
        <ele>1901.8</ele>
        <time>2018-09-16T14:25:17Z</time>
      </trkpt>
      <trkpt lat="42.773329" lon="0.542456">
        <ele>1900.3</ele>
        <time>2018-09-16T14:25:26Z</time>
      </trkpt>
      <trkpt lat="42.773426" lon="0.542444">
        <ele>1899.1</ele>
        <time>2018-09-16T14:25:35Z</time>
      </trkpt>
      <trkpt lat="42.773502" lon="0.542402">
        <ele>1897.5</ele>
        <time>2018-09-16T14:25:55Z</time>
      </trkpt>
      <trkpt lat="42.773621" lon="0.542384">
        <ele>1895.8</ele>
        <time>2018-09-16T14:26:35Z</time>
      </trkpt>
      <trkpt lat="42.773709" lon="0.542351">
        <ele>1895.9</ele>
        <time>2018-09-16T14:26:45Z</time>
      </trkpt>
      <trkpt lat="42.773811" lon="0.542343">
        <ele>1895.4</ele>
        <time>2018-09-16T14:26:54Z</time>
      </trkpt>
      <trkpt lat="42.773899" lon="0.542366">
        <ele>1894.7</ele>
        <time>2018-09-16T14:27:03Z</time>
      </trkpt>
      <trkpt lat="42.773987" lon="0.542375">
        <ele>1894.6</ele>
        <time>2018-09-16T14:27:12Z</time>
      </trkpt>
      <trkpt lat="42.774079" lon="0.542358">
        <ele>1894.4</ele>
        <time>2018-09-16T14:27:23Z</time>
      </trkpt>
      <trkpt lat="42.774168" lon="0.542338">
        <ele>1894.8</ele>
        <time>2018-09-16T14:27:32Z</time>
      </trkpt>
      <trkpt lat="42.774251" lon="0.542288">
        <ele>1895.6</ele>
        <time>2018-09-16T14:27:43Z</time>
      </trkpt>
      <trkpt lat="42.774338" lon="0.542273">
        <ele>1896.3</ele>
        <time>2018-09-16T14:27:55Z</time>
      </trkpt>
      <trkpt lat="42.774436" lon="0.542299">
        <ele>1897.2</ele>
        <time>2018-09-16T14:28:06Z</time>
      </trkpt>
      <trkpt lat="42.774528" lon="0.542306">
        <ele>1897.4</ele>
        <time>2018-09-16T14:28:15Z</time>
      </trkpt>
      <trkpt lat="42.774619" lon="0.542328">
        <ele>1896.5</ele>
        <time>2018-09-16T14:28:25Z</time>
      </trkpt>
      <trkpt lat="42.774722" lon="0.542356">
        <ele>1895.8</ele>
        <time>2018-09-16T14:28:35Z</time>
      </trkpt>
      <trkpt lat="42.774817" lon="0.542327">
        <ele>1895.8</ele>
        <time>2018-09-16T14:28:45Z</time>
      </trkpt>
      <trkpt lat="42.774902" lon="0.542280">
        <ele>1895.8</ele>
        <time>2018-09-16T14:28:56Z</time>
      </trkpt>
      <trkpt lat="42.774986" lon="0.542247">
        <ele>1894.8</ele>
        <time>2018-09-16T14:29:07Z</time>
      </trkpt>
      <trkpt lat="42.775080" lon="0.542219">
        <ele>1893.6</ele>
        <time>2018-09-16T14:29:18Z</time>
      </trkpt>
      <trkpt lat="42.775146" lon="0.542140">
        <ele>1891.6</ele>
        <time>2018-09-16T14:29:29Z</time>
      </trkpt>
      <trkpt lat="42.775218" lon="0.542104">
        <ele>1889.1</ele>
        <time>2018-09-16T14:29:43Z</time>
      </trkpt>
      <trkpt lat="42.775311" lon="0.542037">
        <ele>1887.8</ele>
        <time>2018-09-16T14:29:53Z</time>
      </trkpt>
      <trkpt lat="42.775402" lon="0.541978">
        <ele>1886.7</ele>
        <time>2018-09-16T14:30:04Z</time>
      </trkpt>
      <trkpt lat="42.775501" lon="0.541924">
        <ele>1887.0</ele>
        <time>2018-09-16T14:30:15Z</time>
      </trkpt>
      <trkpt lat="42.775587" lon="0.541872">
        <ele>1886.3</ele>
        <time>2018-09-16T14:30:25Z</time>
      </trkpt>
      <trkpt lat="42.775668" lon="0.541822">
        <ele>1886.3</ele>
        <time>2018-09-16T14:30:35Z</time>
      </trkpt>
      <trkpt lat="42.775764" lon="0.541781">
        <ele>1886.4</ele>
        <time>2018-09-16T14:31:12Z</time>
      </trkpt>
      <trkpt lat="42.775849" lon="0.541714">
        <ele>1885.6</ele>
        <time>2018-09-16T14:31:23Z</time>
      </trkpt>
      <trkpt lat="42.775938" lon="0.541703">
        <ele>1883.1</ele>
        <time>2018-09-16T14:31:36Z</time>
      </trkpt>
      <trkpt lat="42.776020" lon="0.541673">
        <ele>1880.8</ele>
        <time>2018-09-16T14:31:49Z</time>
      </trkpt>
      <trkpt lat="42.776099" lon="0.541619">
        <ele>1878.6</ele>
        <time>2018-09-16T14:32:01Z</time>
      </trkpt>
      <trkpt lat="42.776194" lon="0.541646">
        <ele>1875.3</ele>
        <time>2018-09-16T14:32:20Z</time>
      </trkpt>
      <trkpt lat="42.776292" lon="0.541660">
        <ele>1873.2</ele>
        <time>2018-09-16T14:32:36Z</time>
      </trkpt>
      <trkpt lat="42.776395" lon="0.541664">
        <ele>1871.6</ele>
        <time>2018-09-16T14:32:46Z</time>
      </trkpt>
      <trkpt lat="42.776487" lon="0.541655">
        <ele>1869.8</ele>
        <time>2018-09-16T14:32:55Z</time>
      </trkpt>
      <trkpt lat="42.776576" lon="0.541611">
        <ele>1869.0</ele>
        <time>2018-09-16T14:33:04Z</time>
      </trkpt>
      <trkpt lat="42.776660" lon="0.541555">
        <ele>1868.7</ele>
        <time>2018-09-16T14:33:14Z</time>
      </trkpt>
      <trkpt lat="42.776748" lon="0.541494">
        <ele>1870.4</ele>
        <time>2018-09-16T14:34:12Z</time>
      </trkpt>
      <trkpt lat="42.776839" lon="0.541448">
        <ele>1872.0</ele>
        <time>2018-09-16T14:34:24Z</time>
      </trkpt>
      <trkpt lat="42.776934" lon="0.541416">
        <ele>1874.2</ele>
        <time>2018-09-16T14:34:56Z</time>
      </trkpt>
      <trkpt lat="42.777026" lon="0.541391">
        <ele>1875.2</ele>
        <time>2018-09-16T14:35:11Z</time>
      </trkpt>
      <trkpt lat="42.777131" lon="0.541387">
        <ele>1876.1</ele>
        <time>2018-09-16T14:35:23Z</time>
      </trkpt>
      <trkpt lat="42.777231" lon="0.541369">
        <ele>1875.7</ele>
        <time>2018-09-16T14:35:34Z</time>
      </trkpt>
      <trkpt lat="42.777328" lon="0.541353">
        <ele>1874.6</ele>
        <time>2018-09-16T14:35:45Z</time>
      </trkpt>
      <trkpt lat="42.777420" lon="0.541351">
        <ele>1872.5</ele>
        <time>2018-09-16T14:35:56Z</time>
      </trkpt>
      <trkpt lat="42.777506" lon="0.541300">
        <ele>1869.4</ele>
        <time>2018-09-16T14:36:08Z</time>
      </trkpt>
      <trkpt lat="42.777593" lon="0.541287">
        <ele>1867.2</ele>
        <time>2018-09-16T14:36:18Z</time>
      </trkpt>
      <trkpt lat="42.777685" lon="0.541304">
        <ele>1864.4</ele>
        <time>2018-09-16T14:36:27Z</time>
      </trkpt>
      <trkpt lat="42.777775" lon="0.541321">
        <ele>1861.3</ele>
        <time>2018-09-16T14:36:37Z</time>
      </trkpt>
      <trkpt lat="42.777867" lon="0.541309">
        <ele>1858.2</ele>
        <time>2018-09-16T14:36:48Z</time>
      </trkpt>
      <trkpt lat="42.777960" lon="0.541320">
        <ele>1855.6</ele>
        <time>2018-09-16T14:37:00Z</time>
      </trkpt>
      <trkpt lat="42.778044" lon="0.541257">
        <ele>1853.0</ele>
        <time>2018-09-16T14:37:11Z</time>
      </trkpt>
      <trkpt lat="42.778132" lon="0.541230">
        <ele>1850.9</ele>
        <time>2018-09-16T14:37:22Z</time>
      </trkpt>
      <trkpt lat="42.778220" lon="0.541194">
        <ele>1848.4</ele>
        <time>2018-09-16T14:37:34Z</time>
      </trkpt>
      <trkpt lat="42.778316" lon="0.541165">
        <ele>1845.7</ele>
        <time>2018-09-16T14:37:46Z</time>
      </trkpt>
      <trkpt lat="42.778378" lon="0.541106">
        <ele>1842.6</ele>
        <time>2018-09-16T14:37:58Z</time>
      </trkpt>
      <trkpt lat="42.778448" lon="0.541077">
        <ele>1838.8</ele>
        <time>2018-09-16T14:38:15Z</time>
      </trkpt>
      <trkpt lat="42.778544" lon="0.541071">
        <ele>1834.2</ele>
        <time>2018-09-16T14:38:32Z</time>
      </trkpt>
      <trkpt lat="42.778636" lon="0.541069">
        <ele>1830.3</ele>
        <time>2018-09-16T14:38:48Z</time>
      </trkpt>
      <trkpt lat="42.778727" lon="0.541036">
        <ele>1828.7</ele>
        <time>2018-09-16T14:39:01Z</time>
      </trkpt>
      <trkpt lat="42.778809" lon="0.540991">
        <ele>1827.2</ele>
        <time>2018-09-16T14:39:33Z</time>
      </trkpt>
      <trkpt lat="42.778895" lon="0.540953">
        <ele>1826.8</ele>
        <time>2018-09-16T14:39:42Z</time>
      </trkpt>
      <trkpt lat="42.778981" lon="0.540921">
        <ele>1825.3</ele>
        <time>2018-09-16T14:39:50Z</time>
      </trkpt>
      <trkpt lat="42.779082" lon="0.540880">
        <ele>1824.6</ele>
        <time>2018-09-16T14:40:02Z</time>
      </trkpt>
      <trkpt lat="42.779169" lon="0.540867">
        <ele>1826.4</ele>
        <time>2018-09-16T14:40:19Z</time>
      </trkpt>
      <trkpt lat="42.779270" lon="0.540829">
        <ele>1827.7</ele>
        <time>2018-09-16T14:40:33Z</time>
      </trkpt>
      <trkpt lat="42.779365" lon="0.540800">
        <ele>1829.4</ele>
        <time>2018-09-16T14:40:43Z</time>
      </trkpt>
      <trkpt lat="42.779461" lon="0.540792">
        <ele>1830.4</ele>
        <time>2018-09-16T14:41:04Z</time>
      </trkpt>
      <trkpt lat="42.779556" lon="0.540776">
        <ele>1829.6</ele>
        <time>2018-09-16T14:41:22Z</time>
      </trkpt>
      <trkpt lat="42.779639" lon="0.540794">
        <ele>1827.7</ele>
        <time>2018-09-16T14:42:17Z</time>
      </trkpt>
      <trkpt lat="42.779728" lon="0.540757">
        <ele>1826.8</ele>
        <time>2018-09-16T14:42:28Z</time>
      </trkpt>
      <trkpt lat="42.779822" lon="0.540748">
        <ele>1824.5</ele>
        <time>2018-09-16T14:42:36Z</time>
      </trkpt>
      <trkpt lat="42.779908" lon="0.540746">
        <ele>1822.9</ele>
        <time>2018-09-16T14:42:43Z</time>
      </trkpt>
      <trkpt lat="42.780010" lon="0.540774">
        <ele>1821.6</ele>
        <time>2018-09-16T14:42:54Z</time>
      </trkpt>
      <trkpt lat="42.780121" lon="0.540790">
        <ele>1821.8</ele>
        <time>2018-09-16T14:43:05Z</time>
      </trkpt>
      <trkpt lat="42.780218" lon="0.540804">
        <ele>1823.9</ele>
        <time>2018-09-16T14:43:18Z</time>
      </trkpt>
      <trkpt lat="42.780306" lon="0.540816">
        <ele>1825.3</ele>
        <time>2018-09-16T14:43:29Z</time>
      </trkpt>
      <trkpt lat="42.780375" lon="0.540891">
        <ele>1825.2</ele>
        <time>2018-09-16T14:43:50Z</time>
      </trkpt>
      <trkpt lat="42.780446" lon="0.540965">
        <ele>1823.0</ele>
        <time>2018-09-16T14:44:01Z</time>
      </trkpt>
      <trkpt lat="42.780527" lon="0.541033">
        <ele>1818.9</ele>
        <time>2018-09-16T14:44:12Z</time>
      </trkpt>
      <trkpt lat="42.780592" lon="0.541126">
        <ele>1815.4</ele>
        <time>2018-09-16T14:44:23Z</time>
      </trkpt>
      <trkpt lat="42.780655" lon="0.541164">
        <ele>1811.1</ele>
        <time>2018-09-16T14:45:30Z</time>
      </trkpt>
      <trkpt lat="42.780728" lon="0.541216">
        <ele>1805.2</ele>
        <time>2018-09-16T14:46:07Z</time>
      </trkpt>
      <trkpt lat="42.780815" lon="0.541215">
        <ele>1802.8</ele>
        <time>2018-09-16T14:46:23Z</time>
      </trkpt>
      <trkpt lat="42.780874" lon="0.541276">
        <ele>1797.9</ele>
        <time>2018-09-16T14:46:44Z</time>
      </trkpt>
      <trkpt lat="42.780907" lon="0.541368">
        <ele>1794.7</ele>
        <time>2018-09-16T14:46:58Z</time>
      </trkpt>
      <trkpt lat="42.780989" lon="0.541351">
        <ele>1790.8</ele>
        <time>2018-09-16T14:47:13Z</time>
      </trkpt>
      <trkpt lat="42.781054" lon="0.541429">
        <ele>1786.2</ele>
        <time>2018-09-16T14:47:35Z</time>
      </trkpt>
      <trkpt lat="42.781113" lon="0.541482">
        <ele>1781.3</ele>
        <time>2018-09-16T14:47:57Z</time>
      </trkpt>
      <trkpt lat="42.781178" lon="0.541521">
        <ele>1777.6</ele>
        <time>2018-09-16T14:48:13Z</time>
      </trkpt>
      <trkpt lat="42.781237" lon="0.541562">
        <ele>1773.6</ele>
        <time>2018-09-16T14:48:30Z</time>
      </trkpt>
      <trkpt lat="42.781292" lon="0.541614">
        <ele>1769.5</ele>
        <time>2018-09-16T14:48:47Z</time>
      </trkpt>
      <trkpt lat="42.781382" lon="0.541589">
        <ele>1766.9</ele>
        <time>2018-09-16T14:49:04Z</time>
      </trkpt>
      <trkpt lat="42.781466" lon="0.541589">
        <ele>1763.6</ele>
        <time>2018-09-16T14:49:18Z</time>
      </trkpt>
      <trkpt lat="42.781559" lon="0.541565">
        <ele>1761.2</ele>
        <time>2018-09-16T14:49:31Z</time>
      </trkpt>
      <trkpt lat="42.781659" lon="0.541574">
        <ele>1758.7</ele>
        <time>2018-09-16T14:49:43Z</time>
      </trkpt>
      <trkpt lat="42.781752" lon="0.541582">
        <ele>1756.9</ele>
        <time>2018-09-16T14:49:53Z</time>
      </trkpt>
      <trkpt lat="42.781842" lon="0.541611">
        <ele>1755.4</ele>
        <time>2018-09-16T14:50:03Z</time>
      </trkpt>
      <trkpt lat="42.781932" lon="0.541630">
        <ele>1754.6</ele>
        <time>2018-09-16T14:50:14Z</time>
      </trkpt>
      <trkpt lat="42.782017" lon="0.541615">
        <ele>1754.8</ele>
        <time>2018-09-16T14:50:25Z</time>
      </trkpt>
      <trkpt lat="42.782099" lon="0.541644">
        <ele>1755.7</ele>
        <time>2018-09-16T14:50:36Z</time>
      </trkpt>
      <trkpt lat="42.782198" lon="0.541683">
        <ele>1757.6</ele>
        <time>2018-09-16T14:50:53Z</time>
      </trkpt>
      <trkpt lat="42.782292" lon="0.541746">
        <ele>1759.7</ele>
        <time>2018-09-16T14:51:08Z</time>
      </trkpt>
      <trkpt lat="42.782362" lon="0.541845">
        <ele>1762.1</ele>
        <time>2018-09-16T14:51:23Z</time>
      </trkpt>
      <trkpt lat="42.782439" lon="0.541895">
        <ele>1765.0</ele>
        <time>2018-09-16T14:51:40Z</time>
      </trkpt>
      <trkpt lat="42.782520" lon="0.541962">
        <ele>1768.0</ele>
        <time>2018-09-16T14:52:00Z</time>
      </trkpt>
      <trkpt lat="42.782812" lon="0.542139">
        <ele>1784.6</ele>
        <time>2018-09-16T14:52:53Z</time>
      </trkpt>
      <trkpt lat="42.783068" lon="0.542336">
        <ele>1790.1</ele>
        <time>2018-09-16T14:53:38Z</time>
      </trkpt>
      <trkpt lat="42.783342" lon="0.542589">
        <ele>1795.3</ele>
        <time>2018-09-16T14:54:29Z</time>
      </trkpt>
      <trkpt lat="42.783635" lon="0.542754">
        <ele>1791.1</ele>
        <time>2018-09-16T14:55:18Z</time>
      </trkpt>
      <trkpt lat="42.783895" lon="0.543134">
        <ele>1786.3</ele>
        <time>2018-09-16T14:56:16Z</time>
      </trkpt>
      <trkpt lat="42.784081" lon="0.543330">
        <ele>1782.0</ele>
        <time>2018-09-16T14:56:53Z</time>
      </trkpt>
      <trkpt lat="42.784244" lon="0.543634">
        <ele>1773.0</ele>
        <time>2018-09-16T14:57:36Z</time>
      </trkpt>
      <trkpt lat="42.784416" lon="0.544198">
        <ele>1757.8</ele>
        <time>2018-09-16T14:58:48Z</time>
      </trkpt>
      <trkpt lat="42.784449" lon="0.544484">
        <ele>1752.9</ele>
        <time>2018-09-16T14:59:21Z</time>
      </trkpt>
      <trkpt lat="42.784588" lon="0.544883">
        <ele>1742.1</ele>
        <time>2018-09-16T15:00:12Z</time>
      </trkpt>
      <trkpt lat="42.784988" lon="0.545839">
        <ele>1727.2</ele>
        <time>2018-09-16T15:02:17Z</time>
      </trkpt>
      <trkpt lat="42.785165" lon="0.546340">
        <ele>1719.6</ele>
        <time>2018-09-16T15:03:20Z</time>
      </trkpt>
      <trkpt lat="42.785276" lon="0.546581">
        <ele>1715.3</ele>
        <time>2018-09-16T15:03:52Z</time>
      </trkpt>
      <trkpt lat="42.785516" lon="0.546767">
        <ele>1737.0</ele>
        <time>2018-09-16T15:04:44Z</time>
      </trkpt>
      <trkpt lat="42.785604" lon="0.546812">
        <ele>1736.1</ele>
        <time>2018-09-16T15:04:54Z</time>
      </trkpt>
      <trkpt lat="42.785679" lon="0.546901">
        <ele>1735.3</ele>
        <time>2018-09-16T15:05:05Z</time>
      </trkpt>
      <trkpt lat="42.785758" lon="0.546970">
        <ele>1734.5</ele>
        <time>2018-09-16T15:05:16Z</time>
      </trkpt>
      <trkpt lat="42.785817" lon="0.547064">
        <ele>1733.5</ele>
        <time>2018-09-16T15:05:26Z</time>
      </trkpt>
      <trkpt lat="42.785885" lon="0.547161">
        <ele>1732.0</ele>
        <time>2018-09-16T15:05:37Z</time>
      </trkpt>
      <trkpt lat="42.785950" lon="0.547250">
        <ele>1730.7</ele>
        <time>2018-09-16T15:05:47Z</time>
      </trkpt>
      <trkpt lat="42.785998" lon="0.547361">
        <ele>1728.2</ele>
        <time>2018-09-16T15:05:58Z</time>
      </trkpt>
      <trkpt lat="42.786041" lon="0.547481">
        <ele>1726.2</ele>
        <time>2018-09-16T15:06:09Z</time>
      </trkpt>
      <trkpt lat="42.786074" lon="0.547590">
        <ele>1723.8</ele>
        <time>2018-09-16T15:06:19Z</time>
      </trkpt>
      <trkpt lat="42.786152" lon="0.547661">
        <ele>1721.4</ele>
        <time>2018-09-16T15:06:29Z</time>
      </trkpt>
      <trkpt lat="42.786220" lon="0.547753">
        <ele>1718.5</ele>
        <time>2018-09-16T15:06:40Z</time>
      </trkpt>
      <trkpt lat="42.786267" lon="0.547844">
        <ele>1715.7</ele>
        <time>2018-09-16T15:06:51Z</time>
      </trkpt>
      <trkpt lat="42.786362" lon="0.547890">
        <ele>1713.7</ele>
        <time>2018-09-16T15:07:01Z</time>
      </trkpt>
      <trkpt lat="42.786427" lon="0.548002">
        <ele>1711.3</ele>
        <time>2018-09-16T15:07:11Z</time>
      </trkpt>
      <trkpt lat="42.786449" lon="0.548112">
        <ele>1708.6</ele>
        <time>2018-09-16T15:08:53Z</time>
      </trkpt>
      <trkpt lat="42.786490" lon="0.548236">
        <ele>1707.8</ele>
        <time>2018-09-16T15:09:04Z</time>
      </trkpt>
      <trkpt lat="42.786527" lon="0.548355">
        <ele>1706.7</ele>
        <time>2018-09-16T15:09:14Z</time>
      </trkpt>
      <trkpt lat="42.786582" lon="0.548432">
        <ele>1706.0</ele>
        <time>2018-09-16T15:09:29Z</time>
      </trkpt>
      <trkpt lat="42.786620" lon="0.548551">
        <ele>1705.1</ele>
        <time>2018-09-16T15:09:39Z</time>
      </trkpt>
      <trkpt lat="42.786671" lon="0.548670">
        <ele>1703.5</ele>
        <time>2018-09-16T15:09:49Z</time>
      </trkpt>
      <trkpt lat="42.786741" lon="0.548760">
        <ele>1702.5</ele>
        <time>2018-09-16T15:09:59Z</time>
      </trkpt>
      <trkpt lat="42.786809" lon="0.548851">
        <ele>1701.2</ele>
        <time>2018-09-16T15:10:09Z</time>
      </trkpt>
      <trkpt lat="42.786873" lon="0.548922">
        <ele>1700.1</ele>
        <time>2018-09-16T15:10:20Z</time>
      </trkpt>
      <trkpt lat="42.786931" lon="0.549020">
        <ele>1698.7</ele>
        <time>2018-09-16T15:11:06Z</time>
      </trkpt>
      <trkpt lat="42.786960" lon="0.549147">
        <ele>1695.9</ele>
        <time>2018-09-16T15:11:20Z</time>
      </trkpt>
      <trkpt lat="42.787020" lon="0.549219">
        <ele>1692.8</ele>
        <time>2018-09-16T15:11:32Z</time>
      </trkpt>
      <trkpt lat="42.787065" lon="0.549259">
        <ele>1689.6</ele>
        <time>2018-09-16T15:12:11Z</time>
      </trkpt>
      <trkpt lat="42.787124" lon="0.549371">
        <ele>1687.3</ele>
        <time>2018-09-16T15:12:22Z</time>
      </trkpt>
      <trkpt lat="42.787163" lon="0.549487">
        <ele>1684.8</ele>
        <time>2018-09-16T15:12:33Z</time>
      </trkpt>
      <trkpt lat="42.787173" lon="0.549495">
        <ele>1682.8</ele>
        <time>2018-09-16T15:13:08Z</time>
      </trkpt>
      <trkpt lat="42.787217" lon="0.549577">
        <ele>1681.8</ele>
        <time>2018-09-16T15:13:58Z</time>
      </trkpt>
      <trkpt lat="42.787275" lon="0.549707">
        <ele>1679.9</ele>
        <time>2018-09-16T15:14:09Z</time>
      </trkpt>
      <trkpt lat="42.787324" lon="0.549801">
        <ele>1678.1</ele>
        <time>2018-09-16T15:14:21Z</time>
      </trkpt>
      <trkpt lat="42.787415" lon="0.549875">
        <ele>1674.9</ele>
        <time>2018-09-16T15:14:44Z</time>
      </trkpt>
      <trkpt lat="42.787443" lon="0.550002">
        <ele>1673.1</ele>
        <time>2018-09-16T15:14:54Z</time>
      </trkpt>
      <trkpt lat="42.787484" lon="0.550089">
        <ele>1670.7</ele>
        <time>2018-09-16T15:15:05Z</time>
      </trkpt>
      <trkpt lat="42.787540" lon="0.550175">
        <ele>1667.9</ele>
        <time>2018-09-16T15:15:20Z</time>
      </trkpt>
      <trkpt lat="42.787576" lon="0.550267">
        <ele>1665.7</ele>
        <time>2018-09-16T15:15:32Z</time>
      </trkpt>
      <trkpt lat="42.787659" lon="0.550333">
        <ele>1663.1</ele>
        <time>2018-09-16T15:15:44Z</time>
      </trkpt>
      <trkpt lat="42.787706" lon="0.550409">
        <ele>1658.7</ele>
        <time>2018-09-16T15:16:05Z</time>
      </trkpt>
      <trkpt lat="42.787759" lon="0.550517">
        <ele>1656.7</ele>
        <time>2018-09-16T15:16:17Z</time>
      </trkpt>
      <trkpt lat="42.787829" lon="0.550549">
        <ele>1653.5</ele>
        <time>2018-09-16T15:16:35Z</time>
      </trkpt>
      <trkpt lat="42.787905" lon="0.550592">
        <ele>1651.5</ele>
        <time>2018-09-16T15:16:53Z</time>
      </trkpt>
      <trkpt lat="42.787964" lon="0.550691">
        <ele>1648.9</ele>
        <time>2018-09-16T15:17:06Z</time>
      </trkpt>
      <trkpt lat="42.788033" lon="0.550781">
        <ele>1645.4</ele>
        <time>2018-09-16T15:17:22Z</time>
      </trkpt>
      <trkpt lat="42.788127" lon="0.550836">
        <ele>1641.8</ele>
        <time>2018-09-16T15:17:45Z</time>
      </trkpt>
      <trkpt lat="42.788217" lon="0.550872">
        <ele>1639.4</ele>
        <time>2018-09-16T15:17:59Z</time>
      </trkpt>
      <trkpt lat="42.788293" lon="0.550920">
        <ele>1635.7</ele>
        <time>2018-09-16T15:18:10Z</time>
      </trkpt>
      <trkpt lat="42.788424" lon="0.550807">
        <ele>1630.9</ele>
        <time>2018-09-16T15:21:19Z</time>
      </trkpt>
      <trkpt lat="42.788568" lon="0.550663">
        <ele>1625.7</ele>
        <time>2018-09-16T15:22:28Z</time>
      </trkpt>
      <trkpt lat="42.788762" lon="0.550618">
        <ele>1620.6</ele>
        <time>2018-09-16T15:23:45Z</time>
      </trkpt>
      <trkpt lat="42.788908" lon="0.550754">
        <ele>1600.9</ele>
        <time>2018-09-16T15:25:47Z</time>
      </trkpt>
      <trkpt lat="42.788940" lon="0.550863">
        <ele>1599.7</ele>
        <time>2018-09-16T15:26:17Z</time>
      </trkpt>
      <trkpt lat="42.788962" lon="0.550978">
        <ele>1595.4</ele>
        <time>2018-09-16T15:26:34Z</time>
      </trkpt>
      <trkpt lat="42.789009" lon="0.551066">
        <ele>1591.3</ele>
        <time>2018-09-16T15:26:49Z</time>
      </trkpt>
      <trkpt lat="42.788983" lon="0.551172">
        <ele>1589.7</ele>
        <time>2018-09-16T15:27:07Z</time>
      </trkpt>
      <trkpt lat="42.789002" lon="0.551286">
        <ele>1586.7</ele>
        <time>2018-09-16T15:27:18Z</time>
      </trkpt>
      <trkpt lat="42.788999" lon="0.551391">
        <ele>1583.3</ele>
        <time>2018-09-16T15:27:32Z</time>
      </trkpt>
      <trkpt lat="42.788979" lon="0.551513">
        <ele>1581.9</ele>
        <time>2018-09-16T15:27:43Z</time>
      </trkpt>
      <trkpt lat="42.788955" lon="0.551638">
        <ele>1580.5</ele>
        <time>2018-09-16T15:27:54Z</time>
      </trkpt>
      <trkpt lat="42.788928" lon="0.551733">
        <ele>1579.0</ele>
        <time>2018-09-16T15:28:03Z</time>
      </trkpt>
      <trkpt lat="42.788930" lon="0.551822">
        <ele>1575.4</ele>
        <time>2018-09-16T15:28:21Z</time>
      </trkpt>
      <trkpt lat="42.788889" lon="0.551928">
        <ele>1574.3</ele>
        <time>2018-09-16T15:28:31Z</time>
      </trkpt>
      <trkpt lat="42.788877" lon="0.552047">
        <ele>1573.7</ele>
        <time>2018-09-16T15:28:40Z</time>
      </trkpt>
      <trkpt lat="42.788904" lon="0.552165">
        <ele>1573.7</ele>
        <time>2018-09-16T15:28:50Z</time>
      </trkpt>
      <trkpt lat="42.788946" lon="0.552278">
        <ele>1572.4</ele>
        <time>2018-09-16T15:29:01Z</time>
      </trkpt>
      <trkpt lat="42.788978" lon="0.552390">
        <ele>1569.6</ele>
        <time>2018-09-16T15:29:11Z</time>
      </trkpt>
      <trkpt lat="42.788957" lon="0.552501">
        <ele>1566.6</ele>
        <time>2018-09-16T15:29:35Z</time>
      </trkpt>
      <trkpt lat="42.788958" lon="0.552621">
        <ele>1565.1</ele>
        <time>2018-09-16T15:29:59Z</time>
      </trkpt>
      <trkpt lat="42.788959" lon="0.552754">
        <ele>1563.2</ele>
        <time>2018-09-16T15:30:10Z</time>
      </trkpt>
      <trkpt lat="42.788933" lon="0.552871">
        <ele>1561.1</ele>
        <time>2018-09-16T15:30:20Z</time>
      </trkpt>
      <trkpt lat="42.788915" lon="0.552990">
        <ele>1559.4</ele>
        <time>2018-09-16T15:30:31Z</time>
      </trkpt>
      <trkpt lat="42.788888" lon="0.553095">
        <ele>1557.2</ele>
        <time>2018-09-16T15:31:02Z</time>
      </trkpt>
      <trkpt lat="42.788867" lon="0.553214">
        <ele>1554.7</ele>
        <time>2018-09-16T15:31:52Z</time>
      </trkpt>
      <trkpt lat="42.788812" lon="0.553306">
        <ele>1553.4</ele>
        <time>2018-09-16T15:32:04Z</time>
      </trkpt>
      <trkpt lat="42.788789" lon="0.553437">
        <ele>1552.1</ele>
        <time>2018-09-16T15:32:17Z</time>
      </trkpt>
      <trkpt lat="42.788807" lon="0.553563">
        <ele>1550.1</ele>
        <time>2018-09-16T15:32:29Z</time>
      </trkpt>
      <trkpt lat="42.788781" lon="0.553666">
        <ele>1547.6</ele>
        <time>2018-09-16T15:32:41Z</time>
      </trkpt>
      <trkpt lat="42.788700" lon="0.553731">
        <ele>1546.1</ele>
        <time>2018-09-16T15:32:55Z</time>
      </trkpt>
      <trkpt lat="42.788611" lon="0.553759">
        <ele>1543.3</ele>
        <time>2018-09-16T15:33:09Z</time>
      </trkpt>
      <trkpt lat="42.788522" lon="0.553703">
        <ele>1542.0</ele>
        <time>2018-09-16T15:33:21Z</time>
      </trkpt>
      <trkpt lat="42.788450" lon="0.553735">
        <ele>1540.3</ele>
        <time>2018-09-16T15:33:31Z</time>
      </trkpt>
      <trkpt lat="42.788443" lon="0.553867">
        <ele>1538.1</ele>
        <time>2018-09-16T15:33:42Z</time>
      </trkpt>
      <trkpt lat="42.788468" lon="0.553994">
        <ele>1535.3</ele>
        <time>2018-09-16T15:34:06Z</time>
      </trkpt>
      <trkpt lat="42.788513" lon="0.554110">
        <ele>1533.9</ele>
        <time>2018-09-16T15:34:18Z</time>
      </trkpt>
      <trkpt lat="42.788546" lon="0.554226">
        <ele>1530.9</ele>
        <time>2018-09-16T15:34:29Z</time>
      </trkpt>
      <trkpt lat="42.788559" lon="0.554351">
        <ele>1528.2</ele>
        <time>2018-09-16T15:34:40Z</time>
      </trkpt>
      <trkpt lat="42.788575" lon="0.554472">
        <ele>1525.5</ele>
        <time>2018-09-16T15:34:50Z</time>
      </trkpt>
      <trkpt lat="42.788587" lon="0.554572">
        <ele>1521.9</ele>
        <time>2018-09-16T15:35:44Z</time>
      </trkpt>
      <trkpt lat="42.788585" lon="0.554685">
        <ele>1521.4</ele>
        <time>2018-09-16T15:35:54Z</time>
      </trkpt>
      <trkpt lat="42.788542" lon="0.554786">
        <ele>1520.6</ele>
        <time>2018-09-16T15:36:07Z</time>
      </trkpt>
      <trkpt lat="42.788563" lon="0.554900">
        <ele>1519.2</ele>
        <time>2018-09-16T15:36:23Z</time>
      </trkpt>
      <trkpt lat="42.788606" lon="0.554982">
        <ele>1516.9</ele>
        <time>2018-09-16T15:36:42Z</time>
      </trkpt>
      <trkpt lat="42.788644" lon="0.555126">
        <ele>1513.3</ele>
        <time>2018-09-16T15:37:01Z</time>
      </trkpt>
      <trkpt lat="42.788622" lon="0.555283">
        <ele>1509.6</ele>
        <time>2018-09-16T15:37:24Z</time>
      </trkpt>
      <trkpt lat="42.788583" lon="0.555436">
        <ele>1508.8</ele>
        <time>2018-09-16T15:37:43Z</time>
      </trkpt>
      <trkpt lat="42.788568" lon="0.555603">
        <ele>1505.7</ele>
        <time>2018-09-16T15:37:58Z</time>
      </trkpt>
      <trkpt lat="42.788583" lon="0.555763">
        <ele>1501.8</ele>
        <time>2018-09-16T15:38:16Z</time>
      </trkpt>
      <trkpt lat="42.788564" lon="0.555918">
        <ele>1499.2</ele>
        <time>2018-09-16T15:38:30Z</time>
      </trkpt>
      <trkpt lat="42.788561" lon="0.556060">
        <ele>1494.1</ele>
        <time>2018-09-16T15:38:53Z</time>
      </trkpt>
      <trkpt lat="42.788483" lon="0.556162">
        <ele>1490.3</ele>
        <time>2018-09-16T15:39:12Z</time>
      </trkpt>
      <trkpt lat="42.788464" lon="0.556232">
        <ele>1487.2</ele>
        <time>2018-09-16T15:39:53Z</time>
      </trkpt>
      <trkpt lat="42.788340" lon="0.556301">
        <ele>1484.4</ele>
        <time>2018-09-16T15:40:11Z</time>
      </trkpt>
      <trkpt lat="42.788246" lon="0.556404">
        <ele>1481.6</ele>
        <time>2018-09-16T15:40:22Z</time>
      </trkpt>
      <trkpt lat="42.788164" lon="0.556527">
        <ele>1479.6</ele>
        <time>2018-09-16T15:40:36Z</time>
      </trkpt>
      <trkpt lat="42.788109" lon="0.556651">
        <ele>1477.9</ele>
        <time>2018-09-16T15:40:56Z</time>
      </trkpt>
      <trkpt lat="42.788147" lon="0.556781">
        <ele>1476.1</ele>
        <time>2018-09-16T15:41:13Z</time>
      </trkpt>
      <trkpt lat="42.788105" lon="0.556906">
        <ele>1473.3</ele>
        <time>2018-09-16T15:41:34Z</time>
      </trkpt>
      <trkpt lat="42.788103" lon="0.557014">
        <ele>1470.1</ele>
        <time>2018-09-16T15:41:56Z</time>
      </trkpt>
      <trkpt lat="42.788078" lon="0.557128">
        <ele>1466.1</ele>
        <time>2018-09-16T15:42:29Z</time>
      </trkpt>
      <trkpt lat="42.788100" lon="0.557223">
        <ele>1463.8</ele>
        <time>2018-09-16T15:43:02Z</time>
      </trkpt>
      <trkpt lat="42.788092" lon="0.557377">
        <ele>1461.5</ele>
        <time>2018-09-16T15:43:28Z</time>
      </trkpt>
      <trkpt lat="42.788031" lon="0.557502">
        <ele>1459.9</ele>
        <time>2018-09-16T15:43:46Z</time>
      </trkpt>
      <trkpt lat="42.787994" lon="0.557622">
        <ele>1459.5</ele>
        <time>2018-09-16T15:44:06Z</time>
      </trkpt>
      <trkpt lat="42.787992" lon="0.557730">
        <ele>1460.3</ele>
        <time>2018-09-16T15:44:22Z</time>
      </trkpt>
      <trkpt lat="42.787982" lon="0.557831">
        <ele>1460.2</ele>
        <time>2018-09-16T15:44:40Z</time>
      </trkpt>
      <trkpt lat="42.787986" lon="0.557865">
        <ele>1460.1</ele>
        <time>2018-09-16T15:45:20Z</time>
      </trkpt>
      <trkpt lat="42.788060" lon="0.557967">
        <ele>1458.5</ele>
        <time>2018-09-16T15:45:39Z</time>
      </trkpt>
      <trkpt lat="42.788074" lon="0.558120">
        <ele>1455.9</ele>
        <time>2018-09-16T15:45:53Z</time>
      </trkpt>
      <trkpt lat="42.788091" lon="0.558280">
        <ele>1452.3</ele>
        <time>2018-09-16T15:46:09Z</time>
      </trkpt>
      <trkpt lat="42.788101" lon="0.558418">
        <ele>1448.8</ele>
        <time>2018-09-16T15:46:30Z</time>
      </trkpt>
      <trkpt lat="42.788116" lon="0.558561">
        <ele>1447.1</ele>
        <time>2018-09-16T15:46:46Z</time>
      </trkpt>
      <trkpt lat="42.788096" lon="0.558699">
        <ele>1443.4</ele>
        <time>2018-09-16T15:46:57Z</time>
      </trkpt>
      <trkpt lat="42.788076" lon="0.558841">
        <ele>1441.1</ele>
        <time>2018-09-16T15:47:10Z</time>
      </trkpt>
      <trkpt lat="42.788033" lon="0.558981">
        <ele>1437.3</ele>
        <time>2018-09-16T15:47:24Z</time>
      </trkpt>
      <trkpt lat="42.788043" lon="0.559110">
        <ele>1433.9</ele>
        <time>2018-09-16T15:47:36Z</time>
      </trkpt>
      <trkpt lat="42.788023" lon="0.559253">
        <ele>1429.1</ele>
        <time>2018-09-16T15:47:50Z</time>
      </trkpt>
      <trkpt lat="42.787998" lon="0.559410">
        <ele>1425.9</ele>
        <time>2018-09-16T15:48:07Z</time>
      </trkpt>
      <trkpt lat="42.788004" lon="0.559517">
        <ele>1419.5</ele>
        <time>2018-09-16T15:48:33Z</time>
      </trkpt>
      <trkpt lat="42.788022" lon="0.559629">
        <ele>1417.9</ele>
        <time>2018-09-16T15:49:27Z</time>
      </trkpt>
      <trkpt lat="42.788024" lon="0.559769">
        <ele>1413.7</ele>
        <time>2018-09-16T15:49:38Z</time>
      </trkpt>
      <trkpt lat="42.788086" lon="0.559878">
        <ele>1409.6</ele>
        <time>2018-09-16T15:49:49Z</time>
      </trkpt>
      <trkpt lat="42.788100" lon="0.559999">
        <ele>1405.3</ele>
        <time>2018-09-16T15:50:02Z</time>
      </trkpt>
      <trkpt lat="42.788061" lon="0.560147">
        <ele>1401.2</ele>
        <time>2018-09-16T15:50:14Z</time>
      </trkpt>
      <trkpt lat="42.788078" lon="0.560327">
        <ele>1397.4</ele>
        <time>2018-09-16T15:50:26Z</time>
      </trkpt>
      <trkpt lat="42.788065" lon="0.560467">
        <ele>1393.9</ele>
        <time>2018-09-16T15:50:38Z</time>
      </trkpt>
      <trkpt lat="42.788083" lon="0.560608">
        <ele>1390.1</ele>
        <time>2018-09-16T15:50:50Z</time>
      </trkpt>
      <trkpt lat="42.788081" lon="0.560724">
        <ele>1387.3</ele>
        <time>2018-09-16T15:50:59Z</time>
      </trkpt>
      <trkpt lat="42.788088" lon="0.560864">
        <ele>1384.3</ele>
        <time>2018-09-16T15:51:13Z</time>
      </trkpt>
      <trkpt lat="42.788078" lon="0.560997">
        <ele>1381.2</ele>
        <time>2018-09-16T15:51:27Z</time>
      </trkpt>
      <trkpt lat="42.788041" lon="0.561059">
        <ele>1375.4</ele>
        <time>2018-09-16T15:51:45Z</time>
      </trkpt>
      <trkpt lat="42.787997" lon="0.561103">
        <ele>1373.7</ele>
        <time>2018-09-16T15:55:46Z</time>
      </trkpt>
      <trkpt lat="42.787943" lon="0.561154">
        <ele>1372.6</ele>
        <time>2018-09-16T15:58:38Z</time>
      </trkpt>
      <trkpt lat="42.787937" lon="0.561301">
        <ele>1370.2</ele>
        <time>2018-09-16T15:58:51Z</time>
      </trkpt>
      <trkpt lat="42.787953" lon="0.561436">
        <ele>1367.3</ele>
        <time>2018-09-16T15:59:02Z</time>
      </trkpt>
      <trkpt lat="42.787959" lon="0.561567">
        <ele>1364.0</ele>
        <time>2018-09-16T15:59:14Z</time>
      </trkpt>
      <trkpt lat="42.787990" lon="0.561703">
        <ele>1359.9</ele>
        <time>2018-09-16T15:59:32Z</time>
      </trkpt>
      <trkpt lat="42.788012" lon="0.561838">
        <ele>1358.2</ele>
        <time>2018-09-16T15:59:42Z</time>
      </trkpt>
      <trkpt lat="42.788060" lon="0.561978">
        <ele>1356.4</ele>
        <time>2018-09-16T15:59:52Z</time>
      </trkpt>
      <trkpt lat="42.788123" lon="0.562061">
        <ele>1354.7</ele>
        <time>2018-09-16T16:00:00Z</time>
      </trkpt>
      <trkpt lat="42.788171" lon="0.562186">
        <ele>1353.1</ele>
        <time>2018-09-16T16:00:12Z</time>
      </trkpt>
      <trkpt lat="42.788235" lon="0.562304">
        <ele>1351.4</ele>
        <time>2018-09-16T16:00:25Z</time>
      </trkpt>
      <trkpt lat="42.788289" lon="0.562402">
        <ele>1349.5</ele>
        <time>2018-09-16T16:00:35Z</time>
      </trkpt>
      <trkpt lat="42.788329" lon="0.562525">
        <ele>1347.4</ele>
        <time>2018-09-16T16:00:45Z</time>
      </trkpt>
      <trkpt lat="42.788364" lon="0.562640">
        <ele>1344.7</ele>
        <time>2018-09-16T16:00:56Z</time>
      </trkpt>
      <trkpt lat="42.788472" lon="0.562639">
        <ele>1342.3</ele>
        <time>2018-09-16T16:01:09Z</time>
      </trkpt>
      <trkpt lat="42.788537" lon="0.562606">
        <ele>1339.6</ele>
        <time>2018-09-16T16:01:20Z</time>
      </trkpt>
      <trkpt lat="42.788544" lon="0.562578">
        <ele>1336.8</ele>
        <time>2018-09-16T16:01:58Z</time>
      </trkpt>
      <trkpt lat="42.788603" lon="0.562477">
        <ele>1335.0</ele>
        <time>2018-09-16T16:02:10Z</time>
      </trkpt>
      <trkpt lat="42.788634" lon="0.562340">
        <ele>1333.1</ele>
        <time>2018-09-16T16:02:24Z</time>
      </trkpt>
      <trkpt lat="42.788671" lon="0.562186">
        <ele>1331.3</ele>
        <time>2018-09-16T16:02:35Z</time>
      </trkpt>
      <trkpt lat="42.788725" lon="0.562069">
        <ele>1330.5</ele>
        <time>2018-09-16T16:02:44Z</time>
      </trkpt>
      <trkpt lat="42.788812" lon="0.561981">
        <ele>1330.0</ele>
        <time>2018-09-16T16:02:54Z</time>
      </trkpt>
      <trkpt lat="42.788877" lon="0.561858">
        <ele>1329.5</ele>
        <time>2018-09-16T16:03:04Z</time>
      </trkpt>
      <trkpt lat="42.788950" lon="0.561756">
        <ele>1328.3</ele>
        <time>2018-09-16T16:03:14Z</time>
      </trkpt>
      <trkpt lat="42.789019" lon="0.561649">
        <ele>1326.7</ele>
        <time>2018-09-16T16:03:23Z</time>
      </trkpt>
      <trkpt lat="42.789055" lon="0.561487">
        <ele>1324.1</ele>
        <time>2018-09-16T16:03:33Z</time>
      </trkpt>
      <trkpt lat="42.789076" lon="0.561330">
        <ele>1322.7</ele>
        <time>2018-09-16T16:03:41Z</time>
      </trkpt>
      <trkpt lat="42.789071" lon="0.561176">
        <ele>1320.6</ele>
        <time>2018-09-16T16:03:50Z</time>
      </trkpt>
      <trkpt lat="42.789115" lon="0.561020">
        <ele>1317.6</ele>
        <time>2018-09-16T16:04:00Z</time>
      </trkpt>
      <trkpt lat="42.789175" lon="0.560883">
        <ele>1315.5</ele>
        <time>2018-09-16T16:04:09Z</time>
      </trkpt>
      <trkpt lat="42.789233" lon="0.560717">
        <ele>1313.2</ele>
        <time>2018-09-16T16:04:19Z</time>
      </trkpt>
      <trkpt lat="42.789284" lon="0.560588">
        <ele>1311.5</ele>
        <time>2018-09-16T16:04:29Z</time>
      </trkpt>
      <trkpt lat="42.789355" lon="0.560497">
        <ele>1309.6</ele>
        <time>2018-09-16T16:04:40Z</time>
      </trkpt>
      <trkpt lat="42.789440" lon="0.560393">
        <ele>1307.4</ele>
        <time>2018-09-16T16:04:49Z</time>
      </trkpt>
      <trkpt lat="42.789513" lon="0.560273">
        <ele>1305.0</ele>
        <time>2018-09-16T16:04:59Z</time>
      </trkpt>
      <trkpt lat="42.789541" lon="0.560331">
        <ele>1302.1</ele>
        <time>2018-09-16T16:05:11Z</time>
      </trkpt>
      <trkpt lat="42.789523" lon="0.560478">
        <ele>1299.7</ele>
        <time>2018-09-16T16:05:23Z</time>
      </trkpt>
      <trkpt lat="42.789526" lon="0.560619">
        <ele>1297.2</ele>
        <time>2018-09-16T16:05:35Z</time>
      </trkpt>
      <trkpt lat="42.789504" lon="0.560768">
        <ele>1294.0</ele>
        <time>2018-09-16T16:05:48Z</time>
      </trkpt>
      <trkpt lat="42.789499" lon="0.560894">
        <ele>1291.6</ele>
        <time>2018-09-16T16:05:57Z</time>
      </trkpt>
      <trkpt lat="42.789523" lon="0.561009">
        <ele>1288.6</ele>
        <time>2018-09-16T16:06:07Z</time>
      </trkpt>
      <trkpt lat="42.789604" lon="0.561131">
        <ele>1286.5</ele>
        <time>2018-09-16T16:06:17Z</time>
      </trkpt>
      <trkpt lat="42.789642" lon="0.561254">
        <ele>1284.1</ele>
        <time>2018-09-16T16:06:28Z</time>
      </trkpt>
      <trkpt lat="42.789707" lon="0.561365">
        <ele>1282.2</ele>
        <time>2018-09-16T16:06:37Z</time>
      </trkpt>
      <trkpt lat="42.789750" lon="0.561492">
        <ele>1280.5</ele>
        <time>2018-09-16T16:06:47Z</time>
      </trkpt>
      <trkpt lat="42.789768" lon="0.561626">
        <ele>1277.7</ele>
        <time>2018-09-16T16:06:58Z</time>
      </trkpt>
      <trkpt lat="42.789818" lon="0.561743">
        <ele>1276.1</ele>
        <time>2018-09-16T16:07:07Z</time>
      </trkpt>
      <trkpt lat="42.789894" lon="0.561720">
        <ele>1274.0</ele>
        <time>2018-09-16T16:07:17Z</time>
      </trkpt>
      <trkpt lat="42.789912" lon="0.561555">
        <ele>1271.7</ele>
        <time>2018-09-16T16:07:27Z</time>
      </trkpt>
      <trkpt lat="42.789915" lon="0.561432">
        <ele>1269.7</ele>
        <time>2018-09-16T16:07:35Z</time>
      </trkpt>
      <trkpt lat="42.789879" lon="0.561311">
        <ele>1266.2</ele>
        <time>2018-09-16T16:07:47Z</time>
      </trkpt>
      <trkpt lat="42.789953" lon="0.561235">
        <ele>1262.1</ele>
        <time>2018-09-16T16:08:00Z</time>
      </trkpt>
      <trkpt lat="42.790039" lon="0.561339">
        <ele>1259.4</ele>
        <time>2018-09-16T16:08:09Z</time>
      </trkpt>
      <trkpt lat="42.790090" lon="0.561443">
        <ele>1256.9</ele>
        <time>2018-09-16T16:08:16Z</time>
      </trkpt>
      <trkpt lat="42.790110" lon="0.561609">
        <ele>1254.2</ele>
        <time>2018-09-16T16:08:26Z</time>
      </trkpt>
      <trkpt lat="42.790094" lon="0.561764">
        <ele>1252.7</ele>
        <time>2018-09-16T16:08:34Z</time>
      </trkpt>
      <trkpt lat="42.790053" lon="0.561895">
        <ele>1250.9</ele>
        <time>2018-09-16T16:08:44Z</time>
      </trkpt>
      <trkpt lat="42.790056" lon="0.562020">
        <ele>1250.0</ele>
        <time>2018-09-16T16:08:51Z</time>
      </trkpt>
      <trkpt lat="42.790068" lon="0.562136">
        <ele>1247.4</ele>
        <time>2018-09-16T16:09:02Z</time>
      </trkpt>
      <trkpt lat="42.790069" lon="0.562247">
        <ele>1244.5</ele>
        <time>2018-09-16T16:09:16Z</time>
      </trkpt>
      <trkpt lat="42.790088" lon="0.562387">
        <ele>1242.5</ele>
        <time>2018-09-16T16:09:26Z</time>
      </trkpt>
      <trkpt lat="42.790132" lon="0.562481">
        <ele>1240.0</ele>
        <time>2018-09-16T16:09:42Z</time>
      </trkpt>
      <trkpt lat="42.790165" lon="0.562613">
        <ele>1238.2</ele>
        <time>2018-09-16T16:10:04Z</time>
      </trkpt>
      <trkpt lat="42.790209" lon="0.562677">
        <ele>1236.3</ele>
        <time>2018-09-16T16:10:14Z</time>
      </trkpt>
      <trkpt lat="42.790305" lon="0.562749">
        <ele>1235.0</ele>
        <time>2018-09-16T16:10:28Z</time>
      </trkpt>
      <trkpt lat="42.790378" lon="0.562756">
        <ele>1233.3</ele>
        <time>2018-09-16T16:10:52Z</time>
      </trkpt>
      <trkpt lat="42.790378" lon="0.562674">
        <ele>1232.8</ele>
        <time>2018-09-16T16:11:17Z</time>
      </trkpt>
      <trkpt lat="42.790396" lon="0.562546">
        <ele>1232.3</ele>
        <time>2018-09-16T16:11:28Z</time>
      </trkpt>
      <trkpt lat="42.790397" lon="0.562418">
        <ele>1231.9</ele>
        <time>2018-09-16T16:11:33Z</time>
      </trkpt>
      <trkpt lat="42.790345" lon="0.562271">
        <ele>1231.3</ele>
        <time>2018-09-16T16:11:43Z</time>
      </trkpt>
      <trkpt lat="42.790348" lon="0.562135">
        <ele>1230.6</ele>
        <time>2018-09-16T16:11:53Z</time>
      </trkpt>
      <trkpt lat="42.790377" lon="0.562005">
        <ele>1229.8</ele>
        <time>2018-09-16T16:12:00Z</time>
      </trkpt>
      <trkpt lat="42.790431" lon="0.561872">
        <ele>1228.4</ele>
        <time>2018-09-16T16:12:10Z</time>
      </trkpt>
      <trkpt lat="42.790461" lon="0.561751">
        <ele>1227.6</ele>
        <time>2018-09-16T16:12:18Z</time>
      </trkpt>
      <trkpt lat="42.790502" lon="0.561636">
        <ele>1226.4</ele>
        <time>2018-09-16T16:12:27Z</time>
      </trkpt>
      <trkpt lat="42.790562" lon="0.561503">
        <ele>1225.2</ele>
        <time>2018-09-16T16:12:40Z</time>
      </trkpt>
      <trkpt lat="42.790558" lon="0.561381">
        <ele>1223.5</ele>
        <time>2018-09-16T16:12:51Z</time>
      </trkpt>
      <trkpt lat="42.790550" lon="0.561216">
        <ele>1220.7</ele>
        <time>2018-09-16T16:13:03Z</time>
      </trkpt>
      <trkpt lat="42.790620" lon="0.561161">
        <ele>1217.8</ele>
        <time>2018-09-16T16:13:16Z</time>
      </trkpt>
      <trkpt lat="42.790661" lon="0.561266">
        <ele>1216.3</ele>
        <time>2018-09-16T16:13:26Z</time>
      </trkpt>
      <trkpt lat="42.790681" lon="0.561381">
        <ele>1214.2</ele>
        <time>2018-09-16T16:13:38Z</time>
      </trkpt>
      <trkpt lat="42.790681" lon="0.561535">
        <ele>1212.2</ele>
        <time>2018-09-16T16:13:48Z</time>
      </trkpt>
      <trkpt lat="42.790700" lon="0.561671">
        <ele>1210.2</ele>
        <time>2018-09-16T16:13:58Z</time>
      </trkpt>
      <trkpt lat="42.790727" lon="0.561796">
        <ele>1208.0</ele>
        <time>2018-09-16T16:14:09Z</time>
      </trkpt>
      <trkpt lat="42.790800" lon="0.561895">
        <ele>1206.4</ele>
        <time>2018-09-16T16:14:20Z</time>
      </trkpt>
      <trkpt lat="42.790864" lon="0.562014">
        <ele>1204.9</ele>
        <time>2018-09-16T16:14:31Z</time>
      </trkpt>
      <trkpt lat="42.790882" lon="0.562155">
        <ele>1203.3</ele>
        <time>2018-09-16T16:14:41Z</time>
      </trkpt>
      <trkpt lat="42.790899" lon="0.562299">
        <ele>1201.4</ele>
        <time>2018-09-16T16:14:52Z</time>
      </trkpt>
      <trkpt lat="42.790926" lon="0.562442">
        <ele>1199.3</ele>
        <time>2018-09-16T16:15:03Z</time>
      </trkpt>
      <trkpt lat="42.790939" lon="0.562573">
        <ele>1197.5</ele>
        <time>2018-09-16T16:15:14Z</time>
      </trkpt>
      <trkpt lat="42.790931" lon="0.562711">
        <ele>1195.8</ele>
        <time>2018-09-16T16:15:24Z</time>
      </trkpt>
      <trkpt lat="42.790910" lon="0.562831">
        <ele>1193.7</ele>
        <time>2018-09-16T16:15:35Z</time>
      </trkpt>
      <trkpt lat="42.790883" lon="0.562963">
        <ele>1192.4</ele>
        <time>2018-09-16T16:15:45Z</time>
      </trkpt>
      <trkpt lat="42.790888" lon="0.563095">
        <ele>1190.5</ele>
        <time>2018-09-16T16:15:55Z</time>
      </trkpt>
      <trkpt lat="42.790903" lon="0.563215">
        <ele>1188.5</ele>
        <time>2018-09-16T16:16:06Z</time>
      </trkpt>
      <trkpt lat="42.790868" lon="0.563362">
        <ele>1186.3</ele>
        <time>2018-09-16T16:16:17Z</time>
      </trkpt>
      <trkpt lat="42.790858" lon="0.563485">
        <ele>1184.0</ele>
        <time>2018-09-16T16:16:27Z</time>
      </trkpt>
      <trkpt lat="42.790847" lon="0.563598">
        <ele>1182.0</ele>
        <time>2018-09-16T16:16:37Z</time>
      </trkpt>
      <trkpt lat="42.790815" lon="0.563726">
        <ele>1180.1</ele>
        <time>2018-09-16T16:16:49Z</time>
      </trkpt>
      <trkpt lat="42.790782" lon="0.563865">
        <ele>1178.2</ele>
        <time>2018-09-16T16:17:00Z</time>
      </trkpt>
      <trkpt lat="42.790735" lon="0.564005">
        <ele>1176.3</ele>
        <time>2018-09-16T16:17:11Z</time>
      </trkpt>
      <trkpt lat="42.790672" lon="0.564148">
        <ele>1173.9</ele>
        <time>2018-09-16T16:17:26Z</time>
      </trkpt>
      <trkpt lat="42.790600" lon="0.564283">
        <ele>1172.0</ele>
        <time>2018-09-16T16:17:39Z</time>
      </trkpt>
      <trkpt lat="42.790532" lon="0.564382">
        <ele>1170.2</ele>
        <time>2018-09-16T16:17:51Z</time>
      </trkpt>
      <trkpt lat="42.790465" lon="0.564464">
        <ele>1168.6</ele>
        <time>2018-09-16T16:18:36Z</time>
      </trkpt>
      <trkpt lat="42.790421" lon="0.564561">
        <ele>1167.2</ele>
        <time>2018-09-16T16:18:46Z</time>
      </trkpt>
      <trkpt lat="42.790354" lon="0.564676">
        <ele>1165.2</ele>
        <time>2018-09-16T16:18:57Z</time>
      </trkpt>
      <trkpt lat="42.790308" lon="0.564789">
        <ele>1163.4</ele>
        <time>2018-09-16T16:19:11Z</time>
      </trkpt>
      <trkpt lat="42.790269" lon="0.564910">
        <ele>1161.9</ele>
        <time>2018-09-16T16:19:28Z</time>
      </trkpt>
      <trkpt lat="42.790250" lon="0.565027">
        <ele>1159.0</ele>
        <time>2018-09-16T16:19:47Z</time>
      </trkpt>
      <trkpt lat="42.790218" lon="0.565137">
        <ele>1157.8</ele>
        <time>2018-09-16T16:20:09Z</time>
      </trkpt>
      <trkpt lat="42.790190" lon="0.565274">
        <ele>1155.7</ele>
        <time>2018-09-16T16:20:22Z</time>
      </trkpt>
      <trkpt lat="42.790154" lon="0.565408">
        <ele>1153.8</ele>
        <time>2018-09-16T16:20:32Z</time>
      </trkpt>
      <trkpt lat="42.790137" lon="0.565548">
        <ele>1151.5</ele>
        <time>2018-09-16T16:20:42Z</time>
      </trkpt>
      <trkpt lat="42.790104" lon="0.565674">
        <ele>1150.2</ele>
        <time>2018-09-16T16:20:51Z</time>
      </trkpt>
      <trkpt lat="42.790083" lon="0.565805">
        <ele>1148.7</ele>
        <time>2018-09-16T16:21:01Z</time>
      </trkpt>
      <trkpt lat="42.790071" lon="0.565939">
        <ele>1147.1</ele>
        <time>2018-09-16T16:21:11Z</time>
      </trkpt>
      <trkpt lat="42.790030" lon="0.566074">
        <ele>1145.3</ele>
        <time>2018-09-16T16:21:20Z</time>
      </trkpt>
      <trkpt lat="42.789990" lon="0.566229">
        <ele>1143.3</ele>
        <time>2018-09-16T16:21:29Z</time>
      </trkpt>
      <trkpt lat="42.789986" lon="0.566384">
        <ele>1141.2</ele>
        <time>2018-09-16T16:21:38Z</time>
      </trkpt>
      <trkpt lat="42.789945" lon="0.566499">
        <ele>1138.8</ele>
        <time>2018-09-16T16:21:47Z</time>
      </trkpt>
      <trkpt lat="42.789928" lon="0.566668">
        <ele>1135.7</ele>
        <time>2018-09-16T16:21:59Z</time>
      </trkpt>
      <trkpt lat="42.789893" lon="0.566840">
        <ele>1133.3</ele>
        <time>2018-09-16T16:22:10Z</time>
      </trkpt>
      <trkpt lat="42.789899" lon="0.566997">
        <ele>1131.4</ele>
        <time>2018-09-16T16:22:20Z</time>
      </trkpt>
      <trkpt lat="42.789850" lon="0.567156">
        <ele>1130.0</ele>
        <time>2018-09-16T16:22:31Z</time>
      </trkpt>
      <trkpt lat="42.789823" lon="0.567310">
        <ele>1127.3</ele>
        <time>2018-09-16T16:22:40Z</time>
      </trkpt>
      <trkpt lat="42.789841" lon="0.567473">
        <ele>1124.6</ele>
        <time>2018-09-16T16:22:50Z</time>
      </trkpt>
      <trkpt lat="42.789817" lon="0.567625">
        <ele>1122.5</ele>
        <time>2018-09-16T16:22:59Z</time>
      </trkpt>
      <trkpt lat="42.789811" lon="0.567763">
        <ele>1120.1</ele>
        <time>2018-09-16T16:23:07Z</time>
      </trkpt>
      <trkpt lat="42.789839" lon="0.567877">
        <ele>1118.3</ele>
        <time>2018-09-16T16:23:16Z</time>
      </trkpt>
      <trkpt lat="42.789844" lon="0.568012">
        <ele>1117.1</ele>
        <time>2018-09-16T16:23:25Z</time>
      </trkpt>
      <trkpt lat="42.789827" lon="0.568165">
        <ele>1114.8</ele>
        <time>2018-09-16T16:23:36Z</time>
      </trkpt>
      <trkpt lat="42.789832" lon="0.568323">
        <ele>1112.4</ele>
        <time>2018-09-16T16:23:48Z</time>
      </trkpt>
      <trkpt lat="42.789834" lon="0.568480">
        <ele>1109.8</ele>
        <time>2018-09-16T16:23:59Z</time>
      </trkpt>
      <trkpt lat="42.789854" lon="0.568632">
        <ele>1108.3</ele>
        <time>2018-09-16T16:24:08Z</time>
      </trkpt>
      <trkpt lat="42.789815" lon="0.568747">
        <ele>1106.8</ele>
        <time>2018-09-16T16:24:18Z</time>
      </trkpt>
      <trkpt lat="42.789723" lon="0.568815">
        <ele>1105.4</ele>
        <time>2018-09-16T16:24:27Z</time>
      </trkpt>
      <trkpt lat="42.789624" lon="0.568815">
        <ele>1103.5</ele>
        <time>2018-09-16T16:24:35Z</time>
      </trkpt>
      <trkpt lat="42.789530" lon="0.568824">
        <ele>1101.5</ele>
        <time>2018-09-16T16:24:45Z</time>
      </trkpt>
      <trkpt lat="42.789425" lon="0.568855">
        <ele>1099.4</ele>
        <time>2018-09-16T16:24:55Z</time>
      </trkpt>
      <trkpt lat="42.789412" lon="0.568962">
        <ele>1095.1</ele>
        <time>2018-09-16T16:25:27Z</time>
      </trkpt>
      <trkpt lat="42.789492" lon="0.569029">
        <ele>1092.7</ele>
        <time>2018-09-16T16:25:42Z</time>
      </trkpt>
      <trkpt lat="42.789588" lon="0.569071">
        <ele>1090.3</ele>
        <time>2018-09-16T16:25:52Z</time>
      </trkpt>
      <trkpt lat="42.789545" lon="0.569170">
        <ele>1086.8</ele>
        <time>2018-09-16T16:26:04Z</time>
      </trkpt>
      <trkpt lat="42.789453" lon="0.569200">
        <ele>1087.0</ele>
        <time>2018-09-16T16:26:13Z</time>
      </trkpt>
      <trkpt lat="42.789374" lon="0.569149">
        <ele>1087.9</ele>
        <time>2018-09-16T16:26:26Z</time>
      </trkpt>
      <trkpt lat="42.789314" lon="0.569052">
        <ele>1087.9</ele>
        <time>2018-09-16T16:26:35Z</time>
      </trkpt>
      <trkpt lat="42.789261" lon="0.568944">
        <ele>1088.1</ele>
        <time>2018-09-16T16:26:44Z</time>
      </trkpt>
      <trkpt lat="42.789208" lon="0.568841">
        <ele>1088.0</ele>
        <time>2018-09-16T16:26:53Z</time>
      </trkpt>
      <trkpt lat="42.789171" lon="0.568717">
        <ele>1087.6</ele>
        <time>2018-09-16T16:27:02Z</time>
      </trkpt>
      <trkpt lat="42.789097" lon="0.568617">
        <ele>1087.2</ele>
        <time>2018-09-16T16:27:10Z</time>
      </trkpt>
      <trkpt lat="42.789033" lon="0.568511">
        <ele>1086.8</ele>
        <time>2018-09-16T16:27:19Z</time>
      </trkpt>
      <trkpt lat="42.788974" lon="0.568414">
        <ele>1086.4</ele>
        <time>2018-09-16T16:27:27Z</time>
      </trkpt>
      <trkpt lat="42.788923" lon="0.568311">
        <ele>1086.0</ele>
        <time>2018-09-16T16:27:35Z</time>
      </trkpt>
      <trkpt lat="42.788868" lon="0.568207">
        <ele>1085.3</ele>
        <time>2018-09-16T16:27:43Z</time>
      </trkpt>
      <trkpt lat="42.788805" lon="0.568112">
        <ele>1084.8</ele>
        <time>2018-09-16T16:27:51Z</time>
      </trkpt>
      <trkpt lat="42.788733" lon="0.568015">
        <ele>1084.1</ele>
        <time>2018-09-16T16:28:00Z</time>
      </trkpt>
      <trkpt lat="42.788667" lon="0.567908">
        <ele>1083.9</ele>
        <time>2018-09-16T16:28:09Z</time>
      </trkpt>
      <trkpt lat="42.788611" lon="0.567809">
        <ele>1083.6</ele>
        <time>2018-09-16T16:28:38Z</time>
      </trkpt>
      <trkpt lat="42.788535" lon="0.567723">
        <ele>1083.2</ele>
        <time>2018-09-16T16:28:52Z</time>
      </trkpt>
      <trkpt lat="42.788453" lon="0.567638">
        <ele>1083.2</ele>
        <time>2018-09-16T16:29:01Z</time>
      </trkpt>
      <trkpt lat="42.788369" lon="0.567558">
        <ele>1083.0</ele>
        <time>2018-09-16T16:29:10Z</time>
      </trkpt>
      <trkpt lat="42.788296" lon="0.567472">
        <ele>1082.9</ele>
        <time>2018-09-16T16:29:18Z</time>
      </trkpt>
      <trkpt lat="42.788256" lon="0.567353">
        <ele>1082.9</ele>
        <time>2018-09-16T16:29:26Z</time>
      </trkpt>
      <trkpt lat="42.788180" lon="0.567244">
        <ele>1082.8</ele>
        <time>2018-09-16T16:29:35Z</time>
      </trkpt>
      <trkpt lat="42.788083" lon="0.567157">
        <ele>1082.9</ele>
        <time>2018-09-16T16:29:44Z</time>
      </trkpt>
      <trkpt lat="42.788000" lon="0.567084">
        <ele>1082.9</ele>
        <time>2018-09-16T16:29:52Z</time>
      </trkpt>
      <trkpt lat="42.787928" lon="0.566985">
        <ele>1083.2</ele>
        <time>2018-09-16T16:30:00Z</time>
      </trkpt>
      <trkpt lat="42.787860" lon="0.566888">
        <ele>1083.1</ele>
        <time>2018-09-16T16:30:07Z</time>
      </trkpt>
      <trkpt lat="42.787798" lon="0.566794">
        <ele>1082.9</ele>
        <time>2018-09-16T16:30:16Z</time>
      </trkpt>
      <trkpt lat="42.787702" lon="0.566730">
        <ele>1082.7</ele>
        <time>2018-09-16T16:30:24Z</time>
      </trkpt>
      <trkpt lat="42.787603" lon="0.566701">
        <ele>1082.4</ele>
        <time>2018-09-16T16:30:32Z</time>
      </trkpt>
      <trkpt lat="42.787517" lon="0.566649">
        <ele>1081.9</ele>
        <time>2018-09-16T16:30:40Z</time>
      </trkpt>
      <trkpt lat="42.787415" lon="0.566545">
        <ele>1081.7</ele>
        <time>2018-09-16T16:30:48Z</time>
      </trkpt>
      <trkpt lat="42.787309" lon="0.566491">
        <ele>1081.4</ele>
        <time>2018-09-16T16:30:56Z</time>
      </trkpt>
      <trkpt lat="42.787213" lon="0.566449">
        <ele>1081.1</ele>
        <time>2018-09-16T16:31:04Z</time>
      </trkpt>
      <trkpt lat="42.787106" lon="0.566405">
        <ele>1080.3</ele>
        <time>2018-09-16T16:31:14Z</time>
      </trkpt>
      <trkpt lat="42.787000" lon="0.566367">
        <ele>1079.7</ele>
        <time>2018-09-16T16:31:23Z</time>
      </trkpt>
      <trkpt lat="42.786906" lon="0.566314">
        <ele>1079.1</ele>
        <time>2018-09-16T16:31:32Z</time>
      </trkpt>
      <trkpt lat="42.786805" lon="0.566225">
        <ele>1078.4</ele>
        <time>2018-09-16T16:31:41Z</time>
      </trkpt>
      <trkpt lat="42.786730" lon="0.566119">
        <ele>1078.0</ele>
        <time>2018-09-16T16:31:50Z</time>
      </trkpt>
      <trkpt lat="42.786653" lon="0.566021">
        <ele>1077.4</ele>
        <time>2018-09-16T16:31:59Z</time>
      </trkpt>
      <trkpt lat="42.786558" lon="0.565921">
        <ele>1077.0</ele>
        <time>2018-09-16T16:32:08Z</time>
      </trkpt>
      <trkpt lat="42.786487" lon="0.565832">
        <ele>1076.4</ele>
        <time>2018-09-16T16:32:16Z</time>
      </trkpt>
      <trkpt lat="42.786403" lon="0.565764">
        <ele>1076.0</ele>
        <time>2018-09-16T16:32:24Z</time>
      </trkpt>
      <trkpt lat="42.786316" lon="0.565697">
        <ele>1075.5</ele>
        <time>2018-09-16T16:32:33Z</time>
      </trkpt>
      <trkpt lat="42.786233" lon="0.565595">
        <ele>1074.8</ele>
        <time>2018-09-16T16:32:42Z</time>
      </trkpt>
      <trkpt lat="42.786133" lon="0.565521">
        <ele>1073.9</ele>
        <time>2018-09-16T16:32:51Z</time>
      </trkpt>
      <trkpt lat="42.786040" lon="0.565458">
        <ele>1072.9</ele>
        <time>2018-09-16T16:33:00Z</time>
      </trkpt>
      <trkpt lat="42.785942" lon="0.565373">
        <ele>1072.3</ele>
        <time>2018-09-16T16:33:09Z</time>
      </trkpt>
      <trkpt lat="42.785847" lon="0.565268">
        <ele>1071.6</ele>
        <time>2018-09-16T16:33:20Z</time>
      </trkpt>
      <trkpt lat="42.785746" lon="0.565161">
        <ele>1070.5</ele>
        <time>2018-09-16T16:33:31Z</time>
      </trkpt>
      <trkpt lat="42.785646" lon="0.565096">
        <ele>1069.7</ele>
        <time>2018-09-16T16:33:40Z</time>
      </trkpt>
      <trkpt lat="42.785567" lon="0.565020">
        <ele>1068.9</ele>
        <time>2018-09-16T16:33:49Z</time>
      </trkpt>
      <trkpt lat="42.785477" lon="0.564959">
        <ele>1067.9</ele>
        <time>2018-09-16T16:33:59Z</time>
      </trkpt>
      <trkpt lat="42.785384" lon="0.564877">
        <ele>1066.9</ele>
        <time>2018-09-16T16:34:09Z</time>
      </trkpt>
      <trkpt lat="42.785289" lon="0.564770">
        <ele>1066.1</ele>
        <time>2018-09-16T16:34:19Z</time>
      </trkpt>
      <trkpt lat="42.785179" lon="0.564664">
        <ele>1065.0</ele>
        <time>2018-09-16T16:34:31Z</time>
      </trkpt>
      <trkpt lat="42.785064" lon="0.564602">
        <ele>1063.9</ele>
        <time>2018-09-16T16:34:42Z</time>
      </trkpt>
      <trkpt lat="42.784965" lon="0.564530">
        <ele>1063.1</ele>
        <time>2018-09-16T16:34:53Z</time>
      </trkpt>
      <trkpt lat="42.784841" lon="0.564461">
        <ele>1062.2</ele>
        <time>2018-09-16T16:35:04Z</time>
      </trkpt>
      <trkpt lat="42.784713" lon="0.564412">
        <ele>1061.4</ele>
        <time>2018-09-16T16:35:16Z</time>
      </trkpt>
      <trkpt lat="42.784601" lon="0.564341">
        <ele>1060.5</ele>
        <time>2018-09-16T16:35:28Z</time>
      </trkpt>
      <trkpt lat="42.784542" lon="0.564269">
        <ele>1059.6</ele>
        <time>2018-09-16T16:35:55Z</time>
      </trkpt>
    </trkseg>
  </trk>
</gpx>

